Provisional Data: Tuscarora Creek near Woodhull, NY


Please select a monitoring station.
Please select start date.
Please select start date.

Toggle Unit: C/F Toggle Unit: C/F
Sample Time Temperature (C) Temperature (F) Specific Conductivity (mS/cm) pH   Turbidity (NTU+) DO (mg/L)
6/3/2022 12:00:00 AM 20.44 68.792 0.311 7.88 8.2 8
6/3/2022 12:15:00 AM 20.32 68.576 0.312 7.88 8.37 8.01
6/3/2022 12:30:00 AM 20.2 68.36 0.312 7.87 8.17 8.04
6/3/2022 12:45:00 AM 20.07 68.126 0.312 7.87 8.35 8.06
6/3/2022 1:00:00 AM 19.95 67.91 0.313 7.87 8.18 8.07
6/3/2022 1:15:00 AM 19.84 67.712 0.313 7.87 7.99 8.09
6/3/2022 1:30:00 AM 19.72 67.496 0.313 7.87 8.07 8.12
6/3/2022 1:45:00 AM 19.61 67.298 0.314 7.87 8.05 8.14
6/3/2022 2:00:00 AM 19.52 67.136 0.314 7.87 7.92 8.15
6/3/2022 2:15:00 AM 19.42 66.956 0.314 7.87 8.04 8.17
6/3/2022 2:30:00 AM 19.31 66.758 0.315 7.86 8.75 8.18
6/3/2022 2:45:00 AM 19.19 66.542 0.315 7.86 8.18 8.2
6/3/2022 3:00:00 AM 19.08 66.344 0.315 7.87 8.22 8.23
6/3/2022 3:15:00 AM 18.97 66.146 0.316 7.86 7.92 8.26
6/3/2022 3:30:00 AM 18.85 65.93 0.316 7.86 8.22 8.28
6/3/2022 3:45:00 AM 18.71 65.67799 0.316 7.86 8.12 8.29
6/3/2022 4:00:00 AM 18.57 65.426 0.317 7.82 7.98 8.31
6/3/2022 4:15:00 AM 18.43 65.174 0.317 7.84 8.49 8.34
6/3/2022 4:30:00 AM 18.29 64.922 0.317 7.85 8.17 8.37
6/3/2022 4:45:00 AM 18.16 64.688 0.318 7.84 8.08 8.4
6/3/2022 5:00:00 AM 18.03 64.454 0.318 7.85 7.93 8.41
6/3/2022 5:15:00 AM 17.89 64.202 0.318 7.85 7.84 8.44
6/3/2022 5:30:00 AM 17.77 63.986 0.319 7.85 7.88 8.47
6/3/2022 5:45:00 AM 17.65 63.77 0.319 7.85 14.52 8.5
6/3/2022 6:00:00 AM 17.53 63.554 0.319 7.86 10.48 8.55
6/3/2022 6:15:00 AM 17.42 63.356 0.32 7.86 13.19 8.61
6/3/2022 6:30:00 AM 17.33 63.194 0.32 7.88 7.24 8.68
6/3/2022 6:45:00 AM 17.26 63.068 0.32 7.89 9.36 8.76
6/3/2022 7:00:00 AM 17.2 62.96 0.32 7.9 7.23 8.84
6/3/2022 7:15:00 AM 17.16 62.888 0.32 7.92 7.19 8.93
6/3/2022 7:30:00 AM 17.15 62.87 0.321 7.94 7.22 9.03
6/3/2022 7:45:00 AM 17.16 62.888 0.321 7.96 6.95 9.13
6/3/2022 8:00:00 AM 17.2 62.96 0.321 7.98 6.96 9.23
6/3/2022 8:15:00 AM 17.25 63.05 0.321 8 6.87 9.3
6/3/2022 8:30:00 AM 17.31 63.158 0.321 8.03 6.43 9.38
6/3/2022 8:45:00 AM 17.41 63.338 0.321 8.06 6.55 9.47
6/3/2022 9:00:00 AM 17.56 63.608 0.321 8.09 6.41 9.57
6/3/2022 9:15:00 AM 17.62 63.716 0.321 8.12 5.86 9.64
6/3/2022 9:30:00 AM 17.74 63.932 0.321 8.15 5.93 9.74
6/3/2022 9:45:00 AM 17.95 64.31 0.321 8.18 6.06 9.83
6/3/2022 10:00:00 AM 18.19 64.742 0.321 8.21 5.75 9.92
6/3/2022 10:15:00 AM 18.44 65.192 0.322 8.23 5.79 9.97
6/3/2022 10:30:00 AM 18.67 65.606 0.322 8.25 5.54 9.97
6/3/2022 10:45:00 AM 18.77 65.786 0.322 8.26 5.4 9.97
6/3/2022 11:00:00 AM 19.11 66.398 0.323 8.29 5.41 10
6/3/2022 11:15:00 AM 19.48 67.064 0.323 8.31 5.14 10.06
6/3/2022 11:30:00 AM 19.92 67.856 0.323 8.35 5.1 10.12
6/3/2022 11:45:00 AM 20.22 68.396 0.323 8.37 5.12 10.11
6/3/2022 12:00:00 PM 20.63 69.134 0.323 8.4 6.16 10.1
6/3/2022 12:15:00 PM 21.01 69.818 0.322 8.43 4.89 10.13
6/3/2022 12:30:00 PM 21.16 70.088 0.322 8.44 5.87 10.06
6/3/2022 12:45:00 PM 21.13 70.034 0.322 8.43 4.44 9.92
6/3/2022 1:00:00 PM 21.34 70.412 0.321 8.44 4.77 9.94
6/3/2022 1:15:00 PM 21.68 71.024 0.323 8.45 4.65 9.92
6/3/2022 1:30:00 PM 21.99 71.582 0.323 8.47 4.73 9.92
6/3/2022 1:45:00 PM 22.24 72.032 0.323 8.49 4.75 9.88
6/3/2022 2:00:00 PM 22.51 72.518 0.323 8.5 4.86 9.84
6/3/2022 2:15:00 PM 22.61 72.698 0.323 8.5 4.72 9.71
6/3/2022 2:30:00 PM 22.56 72.608 0.324 8.49 4.73 9.62
6/3/2022 2:45:00 PM 22.58 72.644 0.324 8.48 4.88 9.52
6/3/2022 3:00:00 PM 22.61 72.698 0.325 8.47 4.74 9.49
6/3/2022 3:15:00 PM 22.8 73.04 0.325 8.48 4.67 9.52
6/3/2022 3:30:00 PM 23 73.4 0.325 8.5 4.58 9.5
6/3/2022 3:45:00 PM 23.22 73.796 0.325 8.51 4.59 9.45
6/3/2022 4:00:00 PM 23.3 73.94 0.325 8.51 4.42 9.41
6/3/2022 4:15:00 PM 23.42 74.156 0.324 8.51 4.32 9.41
6/3/2022 4:30:00 PM 23.49 74.282 0.324 8.52 4.38 9.38
6/3/2022 4:45:00 PM 23.5 74.3 0.324 8.51 4.39 9.32
6/3/2022 5:00:00 PM 23.43 74.174 0.325 8.5 4.31 9.25
6/3/2022 5:15:00 PM 23.29 73.922 0.325 8.49 4.25 9.13
6/3/2022 5:30:00 PM 23.21 73.778 0.325 8.46 4.41 9.04
6/3/2022 5:45:00 PM 23.06 73.508 0.325 8.44 4.22 8.96
6/3/2022 6:00:00 PM 22.99 73.382 0.326 8.42 4.37 8.89
6/3/2022 6:15:00 PM 22.89 73.202 0.326 8.4 4.28 8.81
6/3/2022 6:30:00 PM 22.84 73.112 0.327 8.38 4.31 8.73
6/3/2022 6:45:00 PM 22.77 72.986 0.327 8.37 4.38 8.66
6/3/2022 7:00:00 PM 22.67 72.806 0.328 8.34 4.39 8.56
6/3/2022 7:15:00 PM 22.59 72.662 0.329 8.31 4.56 8.46
6/3/2022 7:30:00 PM 22.52 72.536 0.33 8.27 4.31 8.36
6/3/2022 7:45:00 PM 22.43 72.374 0.33 8.23 4.32 8.24
6/3/2022 8:00:00 PM 22.27 72.086 0.331 8.18 4.33 8.12
6/3/2022 8:15:00 PM 22.12 71.816 0.331 8.14 4.47 8.02
6/3/2022 8:30:00 PM 21.98 71.564 0.331 8.09 4.33 7.93
6/3/2022 8:45:00 PM 21.83 71.294 0.331 8.05 4.11 7.86
6/3/2022 9:00:00 PM 21.68 71.024 0.331 8.02 4.17 7.79
6/3/2022 9:15:00 PM 21.53 70.754 0.331 7.99 4.48 7.76
6/3/2022 9:30:00 PM 21.4 70.52 0.331 7.96 4.63 7.73
6/3/2022 9:45:00 PM 21.26 70.268 0.331 7.95 4.76 7.7
6/3/2022 10:00:00 PM 21.12 70.016 0.331 7.93 4.75 7.71
6/3/2022 10:15:00 PM 20.98 69.764 0.331 7.92 5.02 7.72
6/3/2022 10:30:00 PM 20.84 69.512 0.331 7.91 4.89 7.74
6/3/2022 10:45:00 PM 20.7 69.26 0.331 7.9 5.02 7.75
6/3/2022 11:00:00 PM 20.55 68.99 0.331 7.89 5.22 7.77
6/3/2022 11:15:00 PM 20.4 68.72 0.332 7.88 5.19 7.79
6/3/2022 11:30:00 PM 20.23 68.414 0.335 7.87 5.15 7.82
6/3/2022 11:45:00 PM 20.04 68.07201 0.339 7.86 5.22 7.84
6/4/2022 12:00:00 AM 19.86 67.748 0.343 7.85 5.42 7.87
6/4/2022 12:15:00 AM 19.69 67.442 0.347 7.85 5.34 7.9
6/4/2022 12:30:00 AM 19.51 67.118 0.349 7.84 5.49 7.93
6/4/2022 12:45:00 AM 19.33 66.794 0.349 7.84 5.15 7.97
6/4/2022 1:00:00 AM 19.16 66.488 0.349 7.84 5.37 8.01
6/4/2022 1:15:00 AM 18.99 66.182 0.348 7.83 5.39 8.04
6/4/2022 1:30:00 AM 18.82 65.876 0.347 7.83 5.69 8.08
6/4/2022 1:45:00 AM 18.65 65.57 0.346 7.83 5.69 8.1
6/4/2022 2:00:00 AM 18.48 65.264 0.344 7.83 5.59 8.14
6/4/2022 2:15:00 AM 18.32 64.976 0.343 7.82 5.94 8.18
6/4/2022 2:30:00 AM 18.17 64.706 0.342 7.82 5.99 8.21
6/4/2022 2:45:00 AM 18.01 64.418 0.342 7.82 5.9 8.24
6/4/2022 3:00:00 AM 17.86 64.148 0.342 7.82 5.82 8.27
6/4/2022 3:15:00 AM 17.72 63.896 0.342 7.82 5.99 8.31
6/4/2022 3:30:00 AM 17.58 63.644 0.342 7.82 6 8.34
6/4/2022 3:45:00 AM 17.43 63.374 0.342 7.82 6.05 8.36
6/4/2022 4:00:00 AM 17.28 63.104 0.342 7.82 6.23 8.4
6/4/2022 4:15:00 AM 17.14 62.852 0.343 7.8 6.12 8.43
6/4/2022 4:30:00 AM 17 62.6 0.343 7.8 6.08 8.47
6/4/2022 4:45:00 AM 16.85 62.33 0.343 7.8 5.93 8.5
6/4/2022 5:00:00 AM 16.71 62.078 0.343 7.8 6.12 8.53
6/4/2022 5:15:00 AM 16.58 61.844 0.341 7.8 6.35 8.53
6/4/2022 5:30:00 AM 16.45 61.61 0.343 7.8 6.03 8.59
6/4/2022 5:45:00 AM 16.32 61.376 0.342 7.8 5.83 8.63
6/4/2022 6:00:00 AM 16.21 61.178 0.343 7.81 6.47 8.69
6/4/2022 6:15:00 AM 16.11 60.998 0.342 7.82 12.56 8.77
6/4/2022 6:30:00 AM 16.02 60.836 0.342 7.83 10.78 8.87
6/4/2022 6:45:00 AM 15.94 60.692 0.342 7.84 10.46 8.96
6/4/2022 7:00:00 AM 15.89 60.602 0.342 7.86 14.8 9.05
6/4/2022 7:15:00 AM 15.85 60.53 0.342 7.88 10.09 9.17
6/4/2022 7:30:00 AM 15.83 60.494 0.342 7.9 10.66 9.29
6/4/2022 7:45:00 AM 15.86 60.548 0.342 7.93 8.32 9.4
6/4/2022 8:00:00 AM 15.94 60.692 0.342 7.95 9.43 9.51
6/4/2022 8:15:00 AM 16.03 60.854 0.342 7.98 18.25 9.61
6/4/2022 8:30:00 AM 16.12 61.016 0.342 8.01 10.08 9.71
6/4/2022 8:45:00 AM 16.25 61.25 0.342 8.04 9.23 9.79
6/4/2022 9:00:00 AM 16.41 61.538 0.342 8.06 5.23 9.88
6/4/2022 9:15:00 AM 16.65 61.97 0.341 8.1 4.96 9.96
6/4/2022 9:30:00 AM 16.9 62.42 0.341 8.13 4.9 10.05
6/4/2022 9:45:00 AM 17.13 62.834 0.341 8.16 4.8 10.09
6/4/2022 10:00:00 AM 17.44 63.392 0.341 8.19 4.99 10.18
6/4/2022 10:15:00 AM 17.76 63.968 0.341 8.23 4.39 10.24
6/4/2022 10:30:00 AM 18.05 64.49 0.341 8.26 4.54 10.29
6/4/2022 10:45:00 AM 18.39 65.102 0.341 8.29 4.04 10.35
6/4/2022 11:00:00 AM 18.77 65.786 0.341 8.32 4.38 10.39
6/4/2022 11:15:00 AM 19.15 66.47 0.343 8.36 4.09 10.47
6/4/2022 11:30:00 AM 19.53 67.154 0.343 8.38 4.06 10.49
6/4/2022 11:45:00 AM 19.92 67.856 0.343 8.41 4.29 10.53
6/4/2022 12:00:00 PM 20.31 68.558 0.343 8.43 3.92 10.57
6/4/2022 12:15:00 PM 20.66 69.188 0.343 8.46 3.94 10.55
6/4/2022 12:30:00 PM 20.99 69.782 0.343 8.48 3.78 10.56
6/4/2022 12:45:00 PM 21.29 70.32201 0.343 8.5 3.88 10.53
6/4/2022 1:00:00 PM 21.61 70.898 0.343 8.52 3.88 10.53
6/4/2022 1:15:00 PM 21.89 71.402 0.343 8.53 3.63 10.48
6/4/2022 1:30:00 PM 22.17 71.906 0.343 8.55 3.8 10.46
6/4/2022 1:45:00 PM 22.34 72.212 0.34 8.53 6.54 10.31
6/4/2022 2:00:00 PM 22.65 72.77 0.343 8.56 3.85 10.34
6/4/2022 2:15:00 PM 22.91 73.238 0.343 8.58 3.77 10.31
6/4/2022 2:30:00 PM 23.1 73.58 0.342 8.58 3.64 10.24
6/4/2022 2:45:00 PM 23.27 73.886 0.342 8.59 3.83 10.17
6/4/2022 3:00:00 PM 23.39 74.102 0.342 8.6 3.86 10.1
6/4/2022 3:15:00 PM 23.46 74.228 0.342 8.6 3.67 10.05
6/4/2022 3:30:00 PM 23.56 74.408 0.342 8.6 3.86 9.99
6/4/2022 3:45:00 PM 23.57 74.426 0.342 8.6 4 9.92
6/4/2022 4:00:00 PM 23.58 74.444 0.342 8.6 3.72 9.85
6/4/2022 4:15:00 PM 23.54 74.372 0.342 8.59 3.6 9.76
6/4/2022 4:30:00 PM 23.46 74.228 0.343 8.58 3.99 9.68
6/4/2022 4:45:00 PM 23.39 74.102 0.343 8.57 3.67 9.59
6/4/2022 5:00:00 PM 23.25 73.85 0.343 8.56 3.8 9.51
6/4/2022 5:15:00 PM 23.1 73.58 0.343 8.54 3.87 9.44
6/4/2022 5:30:00 PM 22.94 73.292 0.343 8.51 4.03 9.35
6/4/2022 5:45:00 PM 22.73 72.914 0.343 8.49 3.63 9.26
6/4/2022 6:00:00 PM 22.52 72.536 0.343 8.47 3.96 9.16
6/4/2022 6:15:00 PM 22.38 72.284 0.344 8.45 3.98 9.09
6/4/2022 6:30:00 PM 22.21 71.978 0.344 8.42 3.87 9.02
6/4/2022 6:45:00 PM 22.06 71.708 0.344 8.4 3.94 8.93
6/4/2022 7:00:00 PM 21.91 71.438 0.344 8.37 4.16 8.84
6/4/2022 7:15:00 PM 21.75 71.15 0.344 8.34 3.95 8.75
6/4/2022 7:30:00 PM 21.61 70.898 0.345 8.31 3.9 8.65
6/4/2022 7:45:00 PM 21.46 70.628 0.345 8.26 4.07 8.49
6/4/2022 8:00:00 PM 21.29 70.32201 0.345 8.22 4.22 8.36
6/4/2022 8:15:00 PM 21.14 70.052 0.346 8.16 4.07 8.21
6/4/2022 8:30:00 PM 20.99 69.782 0.346 8.12 4.4 8.11
6/4/2022 8:45:00 PM 20.82 69.476 0.346 8.08 4.22 8.02
6/4/2022 9:00:00 PM 20.67 69.206 0.347 8.04 4.27 7.93
6/4/2022 9:15:00 PM 20.5 68.9 0.347 7.99 4.34 7.85
6/4/2022 9:30:00 PM 20.34 68.612 0.347 7.96 4.34 7.8
6/4/2022 9:45:00 PM 20.17 68.306 0.348 7.94 4.47 7.78
6/4/2022 10:00:00 PM 20.02 68.036 0.348 7.92 4.57 7.76
6/4/2022 10:15:00 PM 19.88 67.784 0.348 7.9 4.64 7.76
6/4/2022 10:30:00 PM 19.75 67.55 0.348 7.89 4.6 7.77
6/4/2022 10:45:00 PM 19.62 67.316 0.348 7.88 4.67 7.79
6/4/2022 11:00:00 PM 19.48 67.064 0.348 7.87 4.64 7.8
6/4/2022 11:15:00 PM 19.36 66.848 0.348 7.86 4.74 7.82
6/4/2022 11:30:00 PM 19.25 66.65 0.349 7.86 4.79 7.83
6/4/2022 11:45:00 PM 19.11 66.398 0.349 7.85 4.81 7.85
6/5/2022 12:00:00 AM 18.97 66.146 0.349 7.85 4.92 7.88
6/5/2022 12:15:00 AM 18.84 65.912 0.349 7.84 4.68 7.91
6/5/2022 12:30:00 AM 18.71 65.67799 0.349 7.84 5.11 7.93
6/5/2022 12:45:00 AM 18.57 65.426 0.35 7.83 4.83 7.94
6/5/2022 1:00:00 AM 18.41 65.138 0.35 7.83 5.03 7.97
6/5/2022 1:15:00 AM 18.27 64.886 0.35 7.82 5.16 8.02
6/5/2022 1:30:00 AM 18.1 64.58 0.35 7.82 5.16 8.05
6/5/2022 1:45:00 AM 17.95 64.31 0.35 7.82 5.24 8.06
6/5/2022 2:00:00 AM 17.83 64.094 0.351 7.82 5.29 8.11
6/5/2022 2:15:00 AM 17.7 63.86 0.35 7.82 5.41 8.14
6/5/2022 2:30:00 AM 17.58 63.644 0.35 7.81 5.41 8.17
6/5/2022 2:45:00 AM 17.46 63.428 0.35 7.81 5.3 8.19
6/5/2022 3:00:00 AM 17.34 63.212 0.351 7.81 5.44 8.23
6/5/2022 3:15:00 AM 17.19 62.942 0.351 7.81 5.56 8.26
6/5/2022 3:30:00 AM 17.05 62.69 0.351 7.8 5.7 8.29
6/5/2022 3:45:00 AM 16.89 62.402 0.351 7.81 5.86 8.34
6/5/2022 4:00:00 AM 16.73 62.114 0.351 7.8 5.74 8.36
6/5/2022 4:15:00 AM 16.57 61.826 0.351 7.8 5.88 8.4
6/5/2022 4:30:00 AM 16.41 61.538 0.352 7.8 5.94 8.45
6/5/2022 4:45:00 AM 16.24 61.232 0.352 7.78 5.81 8.48
6/5/2022 5:00:00 AM 16.08 60.944 0.352 7.79 6.04 8.53
6/5/2022 5:15:00 AM 15.91 60.638 0.353 7.79 6.18 8.56
6/5/2022 5:30:00 AM 15.75 60.35 0.353 7.79 5.77 8.61
6/5/2022 5:45:00 AM 15.59 60.062 0.354 7.79 5.88 8.67
6/5/2022 6:00:00 AM 15.46 59.828 0.355 7.8 5.61 8.74
6/5/2022 6:15:00 AM 15.34 59.612 0.356 7.81 5.64 8.83
6/5/2022 6:30:00 AM 15.24 59.432 0.356 7.82 5.75 8.93
6/5/2022 6:45:00 AM 15.15 59.27 0.356 7.83 5.76 9.02
6/5/2022 7:00:00 AM 15.05 59.09 0.356 7.84 5.51 9.13
6/5/2022 7:15:00 AM 15 59 0.356 7.86 5.31 9.25
6/5/2022 7:30:00 AM 14.99 58.982 0.356 7.88 5.43 9.41
6/5/2022 7:45:00 AM 14.99 58.982 0.356 7.91 5.3 9.54
6/5/2022 8:00:00 AM 15.03 59.054 0.356 7.93 5.19 9.69
6/5/2022 8:15:00 AM 15.12 59.216 0.356 7.96 4.9 9.83
6/5/2022 8:30:00 AM 15.22 59.396 0.355 7.99 4.99 9.94
6/5/2022 8:45:00 AM 15.32 59.576 0.355 8.02 5.06 10.03
6/5/2022 9:00:00 AM 15.49 59.882 0.355 8.05 5.26 10.13
6/5/2022 9:15:00 AM 15.73 60.314 0.355 8.08 4.84 10.25
6/5/2022 9:30:00 AM 15.98 60.764 0.355 8.12 5.25 10.33
6/5/2022 9:45:00 AM 16.27 61.286 0.354 8.16 4.9 10.43
6/5/2022 10:00:00 AM 16.47 61.646 0.354 8.19 5.49 10.51
6/5/2022 10:15:00 AM 16.77 62.186 0.354 8.23 4.87 10.62
6/5/2022 10:30:00 AM 17.1 62.78 0.353 8.28 4.47 10.74
6/5/2022 10:45:00 AM 17.45 63.41 0.354 8.32 4.54 10.84
6/5/2022 11:00:00 AM 17.8 64.04 0.354 8.36 4.38 10.91
6/5/2022 11:15:00 AM 18.23 64.814 0.354 8.39 4.12 10.94
6/5/2022 11:30:00 AM 18.72 65.696 0.354 8.41 4.19 10.93
6/5/2022 11:45:00 AM 19.15 66.47 0.354 8.43 3.79 10.96
6/5/2022 12:00:00 PM 19.56 67.208 0.354 8.45 3.82 10.97
6/5/2022 12:15:00 PM 19.95 67.91 0.354 8.47 3.82 10.97
6/5/2022 12:30:00 PM 20.39 68.702 0.354 8.49 4.03 10.95
6/5/2022 12:45:00 PM 20.81 69.458 0.354 8.51 3.56 10.96
6/5/2022 1:00:00 PM 21.16 70.088 0.354 8.53 3.69 10.91
6/5/2022 1:15:00 PM 21.52 70.736 0.354 8.55 3.67 10.88
6/5/2022 1:30:00 PM 21.94 71.492 0.354 8.56 3.62 10.86
6/5/2022 1:45:00 PM 22.2 71.96 0.354 8.57 3.66 10.81
6/5/2022 2:00:00 PM 22.42 72.356 0.354 8.58 3.56 10.73
6/5/2022 2:15:00 PM 22.61 72.698 0.354 8.59 3.72 10.67
6/5/2022 2:30:00 PM 22.9 73.22 0.354 8.6 3.53 10.63
6/5/2022 2:45:00 PM 23.03 73.454 0.354 8.6 3.57 10.52
6/5/2022 3:00:00 PM 23.22 73.796 0.354 8.61 3.55 10.47
6/5/2022 3:15:00 PM 23.34 74.012 0.354 8.61 3.33 10.32
6/5/2022 3:30:00 PM 23.26 73.868 0.354 8.6 3.52 10.22
6/5/2022 3:45:00 PM 23.41 74.138 0.354 8.61 3.41 10.23
6/5/2022 4:00:00 PM 23.46 74.228 0.354 8.61 3.5 10.12
6/5/2022 4:15:00 PM 23.41 74.138 0.354 8.61 3.54 10.11
6/5/2022 4:30:00 PM 23.44 74.192 0.354 8.62 3.54 10.06
6/5/2022 4:45:00 PM 23.46 74.228 0.354 8.62 3.46 9.99
6/5/2022 5:00:00 PM 23.44 74.192 0.355 8.61 3.55 9.92
6/5/2022 5:15:00 PM 23.32 73.976 0.355 8.59 3.67 9.77
6/5/2022 5:30:00 PM 23.24 73.832 0.356 8.58 3.66 9.67
6/5/2022 5:45:00 PM 23.12 73.616 0.356 8.56 3.87 9.56
6/5/2022 6:00:00 PM 22.98 73.364 0.356 8.54 3.94 9.49
6/5/2022 6:15:00 PM 22.76 72.968 0.357 8.51 3.98 9.35
6/5/2022 6:30:00 PM 22.62 72.716 0.357 8.49 4.28 9.26
6/5/2022 6:45:00 PM 22.46 72.42799 0.357 8.46 4.03 9.13
6/5/2022 7:00:00 PM 22.31 72.158 0.358 8.42 4.2 9.01
6/5/2022 7:15:00 PM 22.18 71.924 0.358 8.39 4.18 8.89
6/5/2022 7:30:00 PM 22.05 71.69 0.358 8.35 4.22 8.74
6/5/2022 7:45:00 PM 21.91 71.438 0.359 8.3 4.05 8.57
6/5/2022 8:00:00 PM 21.79 71.222 0.359 8.23 4.19 8.33
6/5/2022 8:15:00 PM 21.71 71.078 0.36 8.18 4.07 8.17
6/5/2022 8:30:00 PM 21.65 70.97 0.36 8.13 3.93 8.03
6/5/2022 8:45:00 PM 21.57 70.826 0.36 8.08 3.88 7.9
6/5/2022 9:00:00 PM 21.47 70.646 0.361 8.03 4.01 7.76
6/5/2022 9:15:00 PM 21.35 70.43 0.361 7.99 4.1 7.65
6/5/2022 9:30:00 PM 21.23 70.214 0.362 7.96 4.22 7.59
6/5/2022 9:45:00 PM 21.12 70.016 0.362 7.93 4.29 7.54
6/5/2022 10:00:00 PM 21.05 69.89 0.363 7.9 4.33 7.5
6/5/2022 10:15:00 PM 20.96 69.728 0.363 7.88 4.3 7.48
6/5/2022 10:30:00 PM 20.89 69.602 0.363 7.87 4.45 7.46
6/5/2022 10:45:00 PM 20.82 69.476 0.364 7.85 4.47 7.46
6/5/2022 11:00:00 PM 20.75 69.35 0.364 7.84 4.52 7.46
6/5/2022 11:15:00 PM 20.68 69.224 0.364 7.83 4.58 7.42
6/5/2022 11:30:00 PM 20.62 69.116 0.364 7.82 4.45 7.45
6/5/2022 11:45:00 PM 20.55 68.99 0.365 7.82 4.52 7.46
6/6/2022 12:00:00 AM 20.48 68.864 0.365 7.81 4.65 7.47
6/6/2022 12:15:00 AM 20.42 68.756 0.365 7.81 4.74 7.48
6/6/2022 12:30:00 AM 20.36 68.648 0.365 7.8 4.58 7.49
6/6/2022 12:45:00 AM 20.29 68.522 0.365 7.8 4.62 7.5
6/6/2022 1:00:00 AM 20.21 68.378 0.365 7.79 4.79 7.51
6/6/2022 1:15:00 AM 20.14 68.252 0.365 7.79 4.9 7.52
6/6/2022 1:30:00 AM 20.06 68.108 0.365 7.78 4.97 7.54
6/6/2022 1:45:00 AM 19.98 67.964 0.365 7.78 4.89 7.54
6/6/2022 2:00:00 AM 19.88 67.784 0.365 7.78 4.92 7.56
6/6/2022 2:15:00 AM 19.76 67.568 0.366 7.78 5.23 7.59
6/6/2022 2:30:00 AM 19.63 67.334 0.366 7.78 5.08 7.62
6/6/2022 2:45:00 AM 19.52 67.136 0.366 7.77 5.26 7.64
6/6/2022 3:00:00 AM 19.41 66.938 0.366 7.77 5.29 7.66
6/6/2022 3:15:00 AM 19.3 66.74 0.366 7.77 5.17 7.67
6/6/2022 3:30:00 AM 19.18 66.524 0.366 7.77 5.36 7.71
6/6/2022 3:45:00 AM 19.07 66.326 0.366 7.77 5.32 7.75
6/6/2022 4:00:00 AM 18.96 66.128 0.366 7.77 5.37 7.76
6/6/2022 4:15:00 AM 18.82 65.876 0.366 7.77 5.43 7.79
6/6/2022 4:30:00 AM 18.71 65.67799 0.366 7.77 5.78 7.83
6/6/2022 4:45:00 AM 18.6 65.48 0.366 7.77 5.62 7.85
6/6/2022 5:00:00 AM 18.5 65.3 0.367 7.77 5.94 7.88
6/6/2022 5:15:00 AM 18.4 65.12 0.367 7.77 6.61 7.9
6/6/2022 5:30:00 AM 18.28 64.904 0.367 7.77 5.85 7.91
6/6/2022 5:45:00 AM 18.16 64.688 0.367 7.77 5.81 7.96
6/6/2022 6:00:00 AM 18.05 64.49 0.367 7.77 5.57 8.03
6/6/2022 6:15:00 AM 17.95 64.31 0.367 7.78 5.55 8.12
6/6/2022 6:30:00 AM 17.87 64.166 0.367 7.79 5.77 8.24
6/6/2022 6:45:00 AM 17.79 64.022 0.367 7.81 5.35 8.39
6/6/2022 7:00:00 AM 17.72 63.896 0.367 7.82 5.68 8.5
6/6/2022 7:15:00 AM 17.69 63.842 0.367 7.85 5.5 8.71
6/6/2022 7:30:00 AM 17.63 63.734 0.368 7.86 5.48 8.79
6/6/2022 7:45:00 AM 17.6 63.68 0.368 7.88 6.12 8.96
6/6/2022 8:00:00 AM 17.59 63.662 0.368 7.91 5.52 9.07
6/6/2022 8:15:00 AM 17.64 63.752 0.368 7.93 5.52 9.21
6/6/2022 8:30:00 AM 17.7 63.86 0.368 7.96 5.57 9.32
6/6/2022 8:45:00 AM 17.78 64.004 0.368 7.99 5.16 9.42
6/6/2022 9:00:00 AM 17.92 64.256 0.368 8.01 5.06 9.51
6/6/2022 9:15:00 AM 18.12 64.616 0.368 8.05 5.16 9.68
6/6/2022 9:30:00 AM 18.38 65.084 0.368 8.1 5.16 9.82
6/6/2022 9:45:00 AM 18.62 65.516 0.367 8.13 5.09 9.92
6/6/2022 10:00:00 AM 18.88 65.984 0.367 8.17 5.07 10.12
6/6/2022 10:15:00 AM 19.25 66.65 0.367 8.24 5.03 10.25
6/6/2022 10:30:00 AM 19.59 67.262 0.367 8.28 4.87 10.35
6/6/2022 10:45:00 AM 19.97 67.946 0.367 8.31 5 10.37
6/6/2022 11:00:00 AM 20.31 68.558 0.367 8.34 5.08 10.41
6/6/2022 11:15:00 AM 20.78 69.404 0.366 8.38 4.86 10.47
6/6/2022 11:30:00 AM 21.2 70.16 0.366 8.41 4.87 10.55
6/6/2022 11:45:00 AM 21.65 70.97 0.366 8.44 4.68 10.62
6/6/2022 12:00:00 PM 22.12 71.816 0.366 8.49 4.77 10.67
6/6/2022 12:15:00 PM 22.55 72.59 0.366 8.52 4.41 10.69
6/6/2022 12:30:00 PM 23.02 73.436 0.365 8.53 4.29 10.73
6/6/2022 12:45:00 PM 23.43 74.174 0.365 8.56 4.13 10.69
6/6/2022 1:00:00 PM 23.83 74.894 0.365 8.58 4.82 10.66
6/6/2022 1:15:00 PM 24.16 75.488 0.365 8.59 4.12 10.67
6/6/2022 1:30:00 PM 24.48 76.064 0.365 8.61 3.81 10.61
6/6/2022 1:45:00 PM 24.69 76.442 0.364 8.63 4.2 10.57
6/6/2022 2:00:00 PM 24.76 76.568 0.364 8.63 3.81 10.48
6/6/2022 2:15:00 PM 24.74 76.532 0.364 8.64 3.81 10.43
6/6/2022 2:30:00 PM 24.67 76.406 0.364 8.63 3.86 10.29
6/6/2022 2:45:00 PM 24.64 76.352 0.364 8.64 3.73 10.26
6/6/2022 3:00:00 PM 24.61 76.298 0.364 8.64 4.12 10.18
6/6/2022 3:15:00 PM 24.56 76.208 0.364 8.62 3.58 10.12
6/6/2022 3:30:00 PM 24.49 76.082 0.365 8.63 3.67 10.13
6/6/2022 3:45:00 PM 24.48 76.064 0.365 8.63 3.71 10.09
6/6/2022 4:00:00 PM 24.49 76.082 0.365 8.63 3.91 10.04
6/6/2022 4:15:00 PM 24.36 75.848 0.365 8.63 3.7 10
6/6/2022 4:30:00 PM 24.33 75.794 0.365 8.63 3.69 10.01
6/6/2022 4:45:00 PM 24.28 75.704 0.365 8.62 3.66 9.9
6/6/2022 5:00:00 PM 24.28 75.704 0.365 8.6 3.66 9.84
6/6/2022 5:15:00 PM 24.19 75.542 0.365 8.6 3.69 9.77
6/6/2022 5:30:00 PM 24.09 75.362 0.365 8.59 3.66 9.7
6/6/2022 5:45:00 PM 24.01 75.218 0.365 8.58 3.74 9.69
6/6/2022 6:00:00 PM 23.85 74.93 0.366 8.57 3.77 9.58
6/6/2022 6:15:00 PM 23.71 74.67799 0.366 8.54 3.63 9.48
6/6/2022 6:30:00 PM 23.52 74.336 0.366 8.51 3.79 9.35
6/6/2022 6:45:00 PM 23.36 74.048 0.367 8.47 3.87 9.16
6/6/2022 7:00:00 PM 23.26 73.868 0.367 8.44 4.04 9.02
6/6/2022 7:15:00 PM 23.13 73.634 0.368 8.4 4.11 8.88
6/6/2022 7:30:00 PM 22.99 73.382 0.368 8.35 4.01 8.74
6/6/2022 7:45:00 PM 22.88 73.184 0.369 8.32 3.97 8.61
6/6/2022 8:00:00 PM 22.75 72.95 0.369 8.26 4.21 8.41
6/6/2022 8:15:00 PM 22.64 72.752 0.37 8.21 4.15 8.23
6/6/2022 8:30:00 PM 22.52 72.536 0.37 8.16 4.22 8.04
6/6/2022 8:45:00 PM 22.42 72.356 0.371 8.1 4.34 7.86
6/6/2022 9:00:00 PM 22.3 72.14 0.371 8.04 4.41 7.67
6/6/2022 9:15:00 PM 22.18 71.924 0.372 7.99 4.37 7.52
6/6/2022 9:30:00 PM 22.07 71.726 0.372 7.95 4.37 7.38
6/6/2022 9:45:00 PM 21.97 71.546 0.372 7.91 4.43 7.27
6/6/2022 10:00:00 PM 21.86 71.348 0.373 7.88 4.78 7.19
6/6/2022 10:15:00 PM 21.74 71.132 0.373 7.86 4.31 7.18
6/6/2022 10:30:00 PM 21.63 70.934 0.374 7.84 4.65 7.13
6/6/2022 10:45:00 PM 21.52 70.736 0.374 7.83 5.16 7.11
6/6/2022 11:00:00 PM 21.42 70.556 0.374 7.81 4.7 7.09
6/6/2022 11:15:00 PM 21.33 70.394 0.375 7.8 4.5 7.05
6/6/2022 11:30:00 PM 21.24 70.232 0.375 7.79 4.63 7.07
6/6/2022 11:45:00 PM 21.17 70.106 0.376 7.79 4.69 7.08
6/7/2022 12:00:00 AM 21.07 69.926 0.376 7.78 4.59 7.09
6/7/2022 12:15:00 AM 20.99 69.782 0.376 7.78 4.71 7.11
6/7/2022 12:30:00 AM 20.9 69.62 0.377 7.77 5.16 7.1
6/7/2022 12:45:00 AM 20.8 69.44 0.377 7.77 5.08 7.09
6/7/2022 1:00:00 AM 20.71 69.278 0.377 7.76 5.11 7.11
6/7/2022 1:15:00 AM 20.61 69.098 0.377 7.76 5.2 7.15
6/7/2022 1:30:00 AM 20.52 68.936 0.377 7.76 4.95 7.13
6/7/2022 1:45:00 AM 20.45 68.81 0.377 7.76 5.09 7.18
6/7/2022 2:00:00 AM 20.36 68.648 0.377 7.76 5.2 7.22
6/7/2022 2:15:00 AM 20.26 68.468 0.377 7.76 5.68 7.24
6/7/2022 2:30:00 AM 20.18 68.324 0.377 7.76 5.09 7.24
6/7/2022 2:45:00 AM 20.12 68.216 0.376 7.76 5.46 7.3
6/7/2022 3:00:00 AM 20.05 68.09 0.376 7.76 5.06 7.28
6/7/2022 3:15:00 AM 19.97 67.946 0.376 7.76 5.22 7.33
6/7/2022 3:30:00 AM 19.92 67.856 0.376 7.75 5.46 7.32
6/7/2022 3:45:00 AM 19.85 67.73 0.376 7.76 5.3 7.34
6/7/2022 4:00:00 AM 19.77 67.586 0.376 7.76 5.62 7.37
6/7/2022 4:15:00 AM 19.69 67.442 0.376 7.76 5.39 7.41
6/7/2022 4:30:00 AM 19.6 67.28 0.376 7.76 5.47 7.41
6/7/2022 4:45:00 AM 19.54 67.172 0.376 7.76 5.37 7.45
6/7/2022 5:00:00 AM 19.47 67.046 0.376 7.76 5.46 7.45
6/7/2022 5:15:00 AM 19.39 66.902 0.376 7.77 7.05 7.49
6/7/2022 5:30:00 AM 19.33 66.794 0.376 7.76 5.58 7.51
6/7/2022 5:45:00 AM 19.28 66.704 0.376 7.76 5.42 7.52
6/7/2022 6:00:00 AM 19.21 66.578 0.376 7.77 5.74 7.61
6/7/2022 6:15:00 AM 19.18 66.524 0.376 7.78 5.35 7.72
6/7/2022 6:30:00 AM 19.15 66.47 0.376 7.8 5.31 7.89
6/7/2022 6:45:00 AM 19.1 66.38 0.376 7.81 5.38 8
6/7/2022 7:00:00 AM 19.05 66.29 0.376 7.85 5.15 8.17
6/7/2022 7:15:00 AM 19 66.2 0.376 7.86 5.17 8.35
6/7/2022 7:30:00 AM 18.98 66.164 0.376 7.89 5.34 8.52
6/7/2022 7:45:00 AM 18.95 66.11 0.376 7.92 5.36 8.61
6/7/2022 8:00:00 AM 18.95 66.11 0.376 7.94 5.32 8.77
6/7/2022 8:15:00 AM 18.94 66.092 0.376 7.97 5.08 8.94
6/7/2022 8:30:00 AM 18.93 66.074 0.376 7.99 4.83 9.04
6/7/2022 8:45:00 AM 18.93 66.074 0.376 8.02 5.14 9.15
6/7/2022 9:00:00 AM 18.92 66.056 0.376 8.05 8.61 9.25
6/7/2022 9:15:00 AM 18.89 66.002 0.377 8.06 4.84 9.25
6/7/2022 9:30:00 AM 18.86 65.948 0.377 8.07 5.01 9.3
6/7/2022 9:45:00 AM 18.84 65.912 0.377 8.07 13.24 9.29
6/7/2022 10:00:00 AM 18.8 65.84 0.377 8.08 4.57 9.36
6/7/2022 10:15:00 AM 18.78 65.804 0.378 8.09 4.46 9.38
6/7/2022 10:30:00 AM 18.76 65.768 0.378 8.1 4.42 9.4
6/7/2022 10:45:00 AM 18.76 65.768 0.378 8.11 4.99 9.43
6/7/2022 11:00:00 AM 18.76 65.768 0.378 8.12 4.45 9.43
6/7/2022 11:15:00 AM 18.77 65.786 0.378 8.13 4.61 9.46
6/7/2022 11:30:00 AM 18.77 65.786 0.378 8.13 4.52 9.52
6/7/2022 11:45:00 AM 18.81 65.858 0.378 8.15 4.56 9.57
6/7/2022 12:00:00 PM 18.83 65.894 0.377 8.17 4.7 9.64
6/7/2022 12:15:00 PM 18.85 65.93 0.377 8.17 4.51 9.69
6/7/2022 12:30:00 PM 18.91 66.038 0.376 8.21 4.59 9.82
6/7/2022 12:45:00 PM 18.93 66.074 0.376 8.23 4.42 9.87
6/7/2022 1:00:00 PM 18.92 66.056 0.374 8.23 4.7 9.83
6/7/2022 1:15:00 PM 18.96 66.128 0.373 8.26 4.46 9.92
6/7/2022 1:30:00 PM 18.99 66.182 0.373 8.27 4.43 9.95
6/7/2022 1:45:00 PM 19.07 66.326 0.373 8.27 4.35 9.94
6/7/2022 2:00:00 PM 19.14 66.452 0.372 8.28 4.2 10.01
6/7/2022 2:15:00 PM 19.26 66.668 0.371 8.32 4.26 10.17
6/7/2022 2:30:00 PM 19.42 66.956 0.372 8.35 3.99 10.22
6/7/2022 2:45:00 PM 19.48 67.064 0.372 8.37 4.1 10.26
6/7/2022 3:00:00 PM 19.61 67.298 0.372 8.39 4.18 10.35
6/7/2022 3:15:00 PM 19.6 67.28 0.372 8.4 4.23 10.26
6/7/2022 3:30:00 PM 19.63 67.334 0.372 8.4 4.07 10.26
6/7/2022 3:45:00 PM 19.68 67.424 0.372 8.42 3.95 10.28
6/7/2022 4:00:00 PM 19.69 67.442 0.373 8.41 3.82 10.16
6/7/2022 4:15:00 PM 19.68 67.424 0.373 8.39 3.98 10.06
6/7/2022 4:30:00 PM 19.64 67.352 0.374 8.38 3.73 10.05
6/7/2022 4:45:00 PM 19.61 67.298 0.374 8.38 3.92 9.95
6/7/2022 5:00:00 PM 19.6 67.28 0.374 8.35 3.85 9.78
6/7/2022 5:15:00 PM 19.58 67.244 0.375 8.32 3.69 9.68
6/7/2022 5:30:00 PM 19.59 67.262 0.375 8.3 3.62 9.68
6/7/2022 5:45:00 PM 19.58 67.244 0.375 8.29 3.61 9.63
6/7/2022 6:00:00 PM 19.52 67.136 0.375 8.28 6.45 9.55
6/7/2022 6:15:00 PM 19.49 67.082 0.375 8.29 3.67 9.53
6/7/2022 6:30:00 PM 19.45 67.01 0.375 8.27 3.5 9.46
6/7/2022 6:45:00 PM 19.4 66.92 0.375 8.24 3.64 9.28
6/7/2022 7:00:00 PM 19.33 66.794 0.375 8.18 3.36 9.1
6/7/2022 7:15:00 PM 19.27 66.686 0.376 8.16 3.56 8.99
6/7/2022 7:30:00 PM 19.25 66.65 0.376 8.14 3.28 8.94
6/7/2022 7:45:00 PM 19.21 66.578 0.376 8.1 3.55 8.71
6/7/2022 8:00:00 PM 19.18 66.524 0.376 8.06 3.59 8.64
6/7/2022 8:15:00 PM 19.15 66.47 0.376 8.04 3.55 8.53
6/7/2022 8:30:00 PM 19.12 66.416 0.377 8.01 3.38 8.37
6/7/2022 8:45:00 PM 19.08 66.344 0.377 7.96 3.48 8.24
6/7/2022 9:00:00 PM 19.03 66.254 0.376 7.93 3.55 8.15
6/7/2022 9:15:00 PM 18.98 66.164 0.377 7.91 4.37 8.07
6/7/2022 9:30:00 PM 18.94 66.092 0.376 7.88 3.73 8.01
6/7/2022 9:45:00 PM 18.9 66.02 0.375 7.86 4.1 7.95
6/7/2022 10:00:00 PM 18.87 65.966 0.375 7.85 4.16 7.91
6/7/2022 10:15:00 PM 18.84 65.912 0.374 7.84 4.11 7.88
6/7/2022 10:30:00 PM 18.79 65.82201 0.374 7.82 4.35 7.84
6/7/2022 10:45:00 PM 18.76 65.768 0.374 7.82 4.54 7.82
6/7/2022 11:00:00 PM 18.73 65.714 0.374 7.8 4.52 7.8
6/7/2022 11:15:00 PM 18.69 65.642 0.375 7.8 4.6 7.81
6/7/2022 11:30:00 PM 18.66 65.588 0.375 7.8 4.78 7.78
6/7/2022 11:45:00 PM 18.64 65.552 0.375 7.8 4.5 7.78
6/8/2022 12:00:00 AM 18.62 65.516 0.375 7.8 4.81 7.8
6/8/2022 12:15:00 AM 18.61 65.498 0.376 7.8 4.83 7.79
6/8/2022 12:30:00 AM 18.59 65.462 0.377 7.79 4.91 7.81
6/8/2022 12:45:00 AM 18.55 65.39 0.377 7.79 4.68 7.81
6/8/2022 1:00:00 AM 18.51 65.318 0.378 7.8 4.86 7.85
6/8/2022 1:15:00 AM 18.45 65.21 0.378 7.8 5.2 7.86
6/8/2022 1:30:00 AM 18.39 65.102 0.377 7.81 5.14 7.9
6/8/2022 1:45:00 AM 18.32 64.976 0.377 7.81 5.28 7.92
6/8/2022 2:00:00 AM 18.24 64.832 0.376 7.81 5.15 7.94
6/8/2022 2:15:00 AM 18.14 64.652 0.376 7.82 5.2 7.97
6/8/2022 2:30:00 AM 18.04 64.472 0.376 7.81 5.28 7.99
6/8/2022 2:45:00 AM 17.94 64.292 0.376 7.81 5.72 8.02
6/8/2022 3:00:00 AM 17.83 64.094 0.375 7.81 5.18 8.05
6/8/2022 3:15:00 AM 17.75 63.95 0.375 7.82 5.34 8.09
6/8/2022 3:30:00 AM 17.64 63.752 0.375 7.83 5.26 8.12
6/8/2022 3:45:00 AM 17.53 63.554 0.375 7.82 5.5 8.13
6/8/2022 4:00:00 AM 17.44 63.392 0.375 7.82 5.4 8.15
6/8/2022 4:15:00 AM 17.33 63.194 0.375 7.82 5.39 8.21
6/8/2022 4:30:00 AM 17.23 63.014 0.375 7.82 5.46 8.22
6/8/2022 4:45:00 AM 17.13 62.834 0.375 7.82 5.71 8.26
6/8/2022 5:00:00 AM 17.04 62.672 0.375 7.8 5.77 8.28
6/8/2022 5:15:00 AM 16.96 62.528 0.375 7.82 6.11 8.31
6/8/2022 5:30:00 AM 16.86 62.348 0.375 7.82 5.58 8.35
6/8/2022 5:45:00 AM 16.76 62.168 0.375 7.83 5.82 8.39
6/8/2022 6:00:00 AM 16.67 62.006 0.375 7.82 5.56 8.45
6/8/2022 6:15:00 AM 16.59 61.862 0.375 7.84 5.73 8.53
6/8/2022 6:30:00 AM 16.53 61.754 0.375 7.85 5.98 8.63
6/8/2022 6:45:00 AM 16.47 61.646 0.376 7.88 11.83 8.72
6/8/2022 7:00:00 AM 16.42 61.556 0.376 7.89 10.97 8.86
6/8/2022 7:15:00 AM 16.4 61.52 0.377 7.91 15.14 8.96
6/8/2022 7:30:00 AM 16.41 61.538 0.377 7.93 9.57 9.07
6/8/2022 7:45:00 AM 16.44 61.592 0.378 7.95 9.94 9.19
6/8/2022 8:00:00 AM 16.53 61.754 0.378 7.99 690.34 9.33
6/8/2022 8:15:00 AM 16.62 61.916 0.378 8.02 118.35 9.43
6/8/2022 8:30:00 AM 16.74 62.132 0.379 8.05 15.42 9.57
6/8/2022 8:45:00 AM 16.91 62.438 0.379 8.08 18.22 9.72
6/8/2022 9:00:00 AM 17.09 62.762 0.38 8.11 7.47 9.8
6/8/2022 9:15:00 AM 17.33 63.194 0.38 8.16 19.09 9.94
6/8/2022 9:30:00 AM 17.46 63.428 0.381 8.19 11.43 9.98
6/8/2022 9:45:00 AM 17.68 63.824 0.381 8.22 238 10.06
6/8/2022 10:00:00 AM 18.03 64.454 0.381 8.26 16.3 10.14
6/8/2022 10:15:00 AM 18.35 65.03 0.381 8.29 271.13 10.24
6/8/2022 10:30:00 AM 18.61 65.498 0.38 8.32 6.55 10.28
6/8/2022 10:45:00 AM 18.97 66.146 0.379 8.37 5.03 10.38
6/8/2022 11:00:00 AM 19.4 66.92 0.379 8.39 4.54 10.43
6/8/2022 11:15:00 AM 19.73 67.514 0.378 8.41 45.72 10.38
6/8/2022 11:30:00 AM 20.01 68.018 0.377 8.44 4.43 10.47
6/8/2022 11:45:00 AM 20.45 68.81 0.377 8.46 483.94 10.45
6/8/2022 12:00:00 PM 20.83 69.494 0.376 8.48 4.06 10.45
6/8/2022 12:15:00 PM 21.09 69.962 0.376 8.51 4.11 10.53
6/8/2022 12:30:00 PM 21.27 70.286 0.375 8.53 4.08 10.42
6/8/2022 12:45:00 PM 21.54 70.772 0.374 8.54 3.86 10.45
6/8/2022 1:00:00 PM 21.56 70.808 0.374 8.54 10.4 10.42
6/8/2022 1:15:00 PM 21.78 71.204 0.374 8.54 46.08 10.51
6/8/2022 1:30:00 PM 21.85 71.33 0.374 8.54 19.44 10.54
6/8/2022 1:45:00 PM 21.98 71.564 0.373 8.55 17.45 10.6
6/8/2022 2:00:00 PM 21.96 71.528 0.373 8.54 3.98 10.54
6/8/2022 2:15:00 PM 22.16 71.888 0.373 8.56 3.76 10.63
6/8/2022 2:30:00 PM 22.51 72.518 0.373 8.56 3.71 10.57
6/8/2022 2:45:00 PM 22.87 73.166 0.372 8.57 3.8 10.53
6/8/2022 3:00:00 PM 23.27 73.886 0.371 8.59 3.75 10.5
6/8/2022 3:15:00 PM 23.55 74.39 0.371 8.6 3.73 10.43
6/8/2022 3:30:00 PM 23.81 74.858 0.37 8.61 156.63 10.28
6/8/2022 3:45:00 PM 23.93 75.074 0.37 8.61 3.58 10.18
6/8/2022 4:00:00 PM 24 75.2 0.369 8.62 3.53 10.05
6/8/2022 4:15:00 PM 23.92 75.056 0.369 8.61 3.73 9.93
6/8/2022 4:30:00 PM 23.89 75.002 0.368 8.61 3.47 9.85
6/8/2022 4:45:00 PM 23.86 74.948 0.368 8.61 3.62 9.81
6/8/2022 5:00:00 PM 23.82 74.876 0.367 8.6 3.54 9.72
6/8/2022 5:15:00 PM 23.7 74.66 0.367 8.57 3.64 9.61
6/8/2022 5:30:00 PM 23.55 74.39 0.367 8.57 3.49 9.54
6/8/2022 5:45:00 PM 23.42 74.156 0.366 8.55 3.61 9.45
6/8/2022 6:00:00 PM 23.33 73.994 0.366 8.52 3.77 9.34
6/8/2022 6:15:00 PM 23.17 73.706 0.366 8.51 3.73 9.22
6/8/2022 6:30:00 PM 23.12 73.616 0.366 8.49 4.08 9.16
6/8/2022 6:45:00 PM 23.03 73.454 0.366 8.48 3.71 9.03
6/8/2022 7:00:00 PM 22.93 73.274 0.366 8.44 3.5 8.93
6/8/2022 7:15:00 PM 22.89 73.202 0.366 8.43 3.58 8.78
6/8/2022 7:30:00 PM 22.84 73.112 0.366 8.38 3.46 8.63
6/8/2022 7:45:00 PM 22.76 72.968 0.366 8.35 3.38 8.49
6/8/2022 8:00:00 PM 22.7 72.86 0.366 8.32 3.57 8.32
6/8/2022 8:15:00 PM 22.62 72.716 0.366 8.27 3.47 8.18
6/8/2022 8:30:00 PM 22.52 72.536 0.366 8.22 3.75 8.02
6/8/2022 8:45:00 PM 22.4 72.32 0.367 8.16 3.53 7.83
6/8/2022 9:00:00 PM 22.28 72.104 0.367 8.11 3.64 7.66
6/8/2022 9:15:00 PM 22.16 71.888 0.368 8.05 3.72 7.5
6/8/2022 9:30:00 PM 22.05 71.69 0.369 8 3.81 7.36
6/8/2022 9:45:00 PM 21.94 71.492 0.37 7.93 4.08 7.19
6/8/2022 10:00:00 PM 21.84 71.312 0.372 7.89 4.25 7.07
6/8/2022 10:15:00 PM 21.75 71.15 0.373 7.85 4.32 6.98
6/8/2022 10:30:00 PM 21.67 71.006 0.373 7.83 4.62 6.88
6/8/2022 10:45:00 PM 21.58 70.844 0.374 7.8 4.9 6.85
6/8/2022 11:00:00 PM 21.5 70.7 0.374 7.79 4.82 6.81
6/8/2022 11:15:00 PM 21.43 70.574 0.374 7.78 5.09 6.79
6/8/2022 11:30:00 PM 21.35 70.43 0.374 7.76 5.2 6.8
6/8/2022 11:45:00 PM 21.28 70.304 0.374 7.76 5.09 6.77
6/9/2022 12:00:00 AM 21.2 70.16 0.374 7.75 4.97 6.81
6/9/2022 12:15:00 AM 21.14 70.052 0.373 7.75 20.52 6.84
6/9/2022 12:30:00 AM 21.06 69.908 0.373 7.74 5.28 6.89
6/9/2022 12:45:00 AM 20.98 69.764 0.372 7.74 5.11 6.92
6/9/2022 1:00:00 AM 20.87 69.566 0.371 7.76 4.88 7.04
6/9/2022 1:15:00 AM 20.73 69.314 0.369 7.77 5.09 7.16
6/9/2022 1:30:00 AM 20.61 69.098 0.367 7.78 5.43 7.25
6/9/2022 1:45:00 AM 20.44 68.792 0.363 7.79 5.45 7.36
6/9/2022 2:00:00 AM 20.27 68.486 0.358 7.81 5.55 7.48
6/9/2022 2:15:00 AM 20.05 68.09 0.353 7.81 6.58 7.64
6/9/2022 2:30:00 AM 19.86 67.748 0.348 7.83 6.81 7.76
6/9/2022 2:45:00 AM 19.67 67.406 0.343 7.85 8.26 7.84
6/9/2022 3:00:00 AM 19.54 67.172 0.341 7.84 11.43 7.83
6/9/2022 3:15:00 AM 19.41 66.938 0.34 7.83 18.5 7.85
6/9/2022 3:30:00 AM 19.31 66.758 0.342 7.84 18.72 7.87
6/9/2022 3:45:00 AM 19.25 66.65 0.343 7.82 14.79 7.85
6/9/2022 4:00:00 AM 19.17 66.506 0.346 7.83 14.32 7.88
6/9/2022 4:15:00 AM 19.12 66.416 0.35 7.85 12.49 7.91
6/9/2022 4:30:00 AM 19.05 66.29 0.352 7.85 11.11 7.97
6/9/2022 4:45:00 AM 18.94 66.092 0.352 7.87 13.59 8.06
6/9/2022 5:00:00 AM 18.81 65.858 0.353 7.87 19.76 8.13
6/9/2022 5:15:00 AM 18.68 65.624 0.353 7.88 21.67 8.18
6/9/2022 5:30:00 AM 18.55 65.39 0.355 7.89 19.69 8.23
6/9/2022 5:45:00 AM 18.4 65.12 0.354 7.89 21.2 8.28
6/9/2022 6:00:00 AM 18.21 64.778 0.351 7.88 29.8 8.35
6/9/2022 6:15:00 AM 17.98 64.364 0.345 7.86 39.1 8.4
6/9/2022 6:30:00 AM 17.75 63.95 0.336 7.84 36.44 8.46
6/9/2022 6:45:00 AM 17.54 63.572 0.327 7.83 42.86 8.52
6/9/2022 7:00:00 AM 17.36 63.248 0.328 7.84 50.48 8.56
6/9/2022 7:15:00 AM 17.23 63.014 0.32 7.81 45.47 8.52
6/9/2022 7:30:00 AM 17.23 63.014 0.308 7.84 60.75 8.64
6/9/2022 7:45:00 AM 17.22 62.996 0.297 7.86 76.82 8.74
6/9/2022 8:00:00 AM 17.18 62.924 0.288 7.88 79.64 8.8
6/9/2022 8:15:00 AM 17.17 62.906 0.281 7.88 75.44 8.86
6/9/2022 8:30:00 AM 17.14 62.852 0.278 7.89 70.11 8.92
6/9/2022 8:45:00 AM 17.08 62.744 0.277 7.89 66.68 8.98
6/9/2022 9:00:00 AM 16.95 62.51 0.276 7.89 64.05 9.01
6/9/2022 9:15:00 AM 16.91 62.438 0.276 7.9 60.65 9.04
6/9/2022 9:30:00 AM 16.88 62.384 0.278 7.91 57.62 9.06
6/9/2022 9:45:00 AM 16.86 62.348 0.281 7.93 54.78 9.06
6/9/2022 10:00:00 AM 16.87 62.366 0.282 7.94 52.65 9.08
6/9/2022 10:15:00 AM 16.92 62.456 0.281 7.95 53.79 9.1
6/9/2022 10:30:00 AM 17.06 62.708 0.282 7.97 51.27 9.14
6/9/2022 10:45:00 AM 17.16 62.888 0.286 7.98 50 9.15
6/9/2022 11:00:00 AM 17.28 63.104 0.291 8 49.17 9.15
6/9/2022 11:15:00 AM 17.31 63.158 0.293 8.01 47.64 9.14
6/9/2022 11:30:00 AM 17.33 63.194 0.294 8.01 46.17 9.11
6/9/2022 11:45:00 AM 17.47 63.446 0.293 8.02 43.43 9.19
6/9/2022 12:00:00 PM 17.49 63.482 0.294 8.04 40.5 9.19
6/9/2022 12:15:00 PM 17.49 63.482 0.295 8.04 38.53 9.2
6/9/2022 12:30:00 PM 17.45 63.41 0.295 8.05 36.04 9.2
6/9/2022 12:45:00 PM 17.48 63.464 0.295 8.05 35.61 9.18
6/9/2022 1:00:00 PM 17.5 63.5 0.294 8.06 33.9 9.19
6/9/2022 1:15:00 PM 17.73 63.914 0.293 8.08 32.56 9.29
6/9/2022 1:30:00 PM 17.75 63.95 0.292 8.09 30.62 9.29
6/9/2022 1:45:00 PM 17.78 64.004 0.292 8.1 29.57 9.31
6/9/2022 2:00:00 PM 17.87 64.166 0.293 8.12 29.91 9.37
6/9/2022 2:15:00 PM 17.92 64.256 0.295 8.14 26.66 9.34
6/9/2022 2:30:00 PM 17.88 64.184 0.297 8.13 24.96 9.27
6/9/2022 2:45:00 PM 18 64.4 0.299 8.14 24.24 9.33
6/9/2022 3:00:00 PM 18.09 64.562 0.302 8.16 23.45 9.35
6/9/2022 3:15:00 PM 18.22 64.796 0.304 8.18 23.2 9.38
6/9/2022 3:30:00 PM 18.21 64.778 0.306 8.18 21.34 9.33
6/9/2022 3:45:00 PM 18.25 64.85 0.307 8.18 20.24 9.3
6/9/2022 4:00:00 PM 18.3 64.94 0.309 8.18 19.48 9.23
6/9/2022 4:15:00 PM 18.31 64.958 0.31 8.18 18.2 9.18
6/9/2022 4:30:00 PM 18.33 64.994 0.31 8.16 17.38 9.15
6/9/2022 4:45:00 PM 18.4 65.12 0.31 8.17 16.69 9.18
6/9/2022 5:00:00 PM 18.44 65.192 0.31 8.18 16.63 9.2
6/9/2022 5:15:00 PM 18.43 65.174 0.309 8.17 15.91 9.13
6/9/2022 5:30:00 PM 18.39 65.102 0.309 8.15 15.31 9.04
6/9/2022 5:45:00 PM 18.4 65.12 0.309 8.15 15.53 9.09
6/9/2022 6:00:00 PM 18.4 65.12 0.309 8.16 15.49 9.09
6/9/2022 6:15:00 PM 18.45 65.21 0.309 8.17 15.05 9.1
6/9/2022 6:30:00 PM 18.49 65.282 0.31 8.17 14.7 9.13
6/9/2022 6:45:00 PM 18.45 65.21 0.311 8.17 15.4 9.11
6/9/2022 7:00:00 PM 18.41 65.138 0.312 8.16 15.99 9.09
6/9/2022 7:15:00 PM 18.37 65.066 0.313 8.14 16.58 9.03
6/9/2022 7:30:00 PM 18.31 64.958 0.313 8.12 16.62 8.98
6/9/2022 7:45:00 PM 18.25 64.85 0.312 8.1 16.97 8.91
6/9/2022 8:00:00 PM 18.23 64.814 0.312 8.08 17.73 8.86
6/9/2022 8:15:00 PM 18.24 64.832 0.312 8.06 18.18 8.82
6/9/2022 8:30:00 PM 18.24 64.832 0.312 8.04 18.49 8.79
6/9/2022 8:45:00 PM 18.21 64.778 0.313 8.03 18.54 8.77
6/9/2022 9:00:00 PM 18.16 64.688 0.313 8.02 19.14 8.74
6/9/2022 9:15:00 PM 18.07 64.526 0.314 8 21.12 8.72
6/9/2022 9:30:00 PM 17.99 64.382 0.314 7.99 22.85 8.7
6/9/2022 9:45:00 PM 17.91 64.238 0.315 7.98 21.62 8.7
6/9/2022 10:00:00 PM 17.81 64.058 0.315 7.97 22.09 8.71
6/9/2022 10:15:00 PM 17.69 63.842 0.315 7.96 20.74 8.72
6/9/2022 10:30:00 PM 17.57 63.626 0.315 7.95 19.85 8.74
6/9/2022 10:45:00 PM 17.45 63.41 0.316 7.94 18.73 8.75
6/9/2022 11:00:00 PM 17.34 63.212 0.316 7.93 17.39 8.75
6/9/2022 11:15:00 PM 17.25 63.05 0.316 7.93 16.64 8.77
6/9/2022 11:30:00 PM 17.15 62.87 0.316 7.92 16.27 8.79
6/9/2022 11:45:00 PM 17.05 62.69 0.317 7.92 16 8.81
6/10/2022 12:00:00 AM 16.94 62.492 0.317 7.91 16.53 8.84
6/10/2022 12:15:00 AM 16.86 62.348 0.317 7.9 16.54 8.85
6/10/2022 12:30:00 AM 16.79 62.222 0.317 7.89 16.01 8.87
6/10/2022 12:45:00 AM 16.71 62.078 0.318 7.9 16.18 8.88
6/10/2022 1:00:00 AM 16.63 61.934 0.318 7.9 16.51 8.89
6/10/2022 1:15:00 AM 16.52 61.736 0.318 7.89 16.12 8.91
6/10/2022 1:30:00 AM 16.42 61.556 0.319 7.88 16.03 8.94
6/10/2022 1:45:00 AM 16.31 61.358 0.319 7.89 14.96 8.95
6/10/2022 2:00:00 AM 16.2 61.16 0.319 7.89 14.99 8.98
6/10/2022 2:15:00 AM 16.09 60.962 0.319 7.89 14.66 9
6/10/2022 2:30:00 AM 15.98 60.764 0.319 7.89 13.74 9.02
6/10/2022 2:45:00 AM 15.87 60.566 0.32 7.89 13.77 9.04
6/10/2022 3:00:00 AM 15.76 60.368 0.32 7.89 13.21 9.06
6/10/2022 3:15:00 AM 15.66 60.188 0.32 7.89 12.67 9.08
6/10/2022 3:30:00 AM 15.56 60.008 0.321 7.89 12.95 9.11
6/10/2022 3:45:00 AM 15.45 59.81 0.322 7.89 12.85 9.13
6/10/2022 4:00:00 AM 15.36 59.648 0.323 7.88 12.13 9.15
6/10/2022 4:15:00 AM 15.27 59.486 0.324 7.88 11.99 9.16
6/10/2022 4:30:00 AM 15.17 59.306 0.324 7.89 11.83 9.18
6/10/2022 4:45:00 AM 15.09 59.162 0.325 7.88 11.6 9.2
6/10/2022 5:00:00 AM 14.99 58.982 0.325 7.89 11.64 9.22
6/10/2022 5:15:00 AM 14.9 58.82 0.324 7.89 11.71 9.24
6/10/2022 5:30:00 AM 14.82 58.676 0.324 7.88 11.89 9.27
6/10/2022 5:45:00 AM 14.74 58.532 0.324 7.89 13.83 9.29
6/10/2022 6:00:00 AM 14.66 58.388 0.324 7.89 15.73 9.33
6/10/2022 6:15:00 AM 14.6 58.28 0.324 7.9 12.17 9.38
6/10/2022 6:30:00 AM 14.54 58.172 0.324 7.91 12.34 9.44
6/10/2022 6:45:00 AM 14.5 58.1 0.324 7.92 17.33 9.5
6/10/2022 7:00:00 AM 14.47 58.046 0.325 7.94 11.44 9.57
6/10/2022 7:15:00 AM 14.47 58.046 0.325 7.94 333.17 9.64
6/10/2022 7:30:00 AM 14.5 58.1 0.325 7.97 12.01 9.72
6/10/2022 7:45:00 AM 14.55 58.19 0.325 7.99 17.06 9.8
6/10/2022 8:00:00 AM 14.63 58.334 0.325 8.02 12.11 9.87
6/10/2022 8:15:00 AM 14.7 58.46 0.325 8.03 12.57 9.95
6/10/2022 8:30:00 AM 14.8 58.64 0.325 8.06 11.61 10.01
6/10/2022 8:45:00 AM 14.92 58.856 0.325 8.08 9.52 10.06
6/10/2022 9:00:00 AM 15.09 59.162 0.326 8.11 9.45 10.13
6/10/2022 9:15:00 AM 15.29 59.522 0.326 8.13 9.19 10.18
6/10/2022 9:30:00 AM 15.53 59.954 0.325 8.16 13.55 10.24
6/10/2022 9:45:00 AM 15.78 60.404 0.326 8.18 10.05 10.28
6/10/2022 10:00:00 AM 16.08 60.944 0.326 8.22 8.81 10.32
6/10/2022 10:15:00 AM 16.39 61.502 0.326 8.24 6.96 10.36
6/10/2022 10:30:00 AM 16.72 62.096 0.326 8.26 8.19 10.38
6/10/2022 10:45:00 AM 17.03 62.654 0.326 8.3 7.47 10.41
6/10/2022 11:00:00 AM 17.32 63.176 0.326 8.32 10.06 10.4
6/10/2022 11:15:00 AM 17.69 63.842 0.326 8.35 12.15 10.43
6/10/2022 11:30:00 AM 18.03 64.454 0.326 8.37 15.4 10.41
6/10/2022 11:45:00 AM 18.22 64.796 0.326 8.38 9.92 10.37
6/10/2022 12:00:00 PM 18.32 64.976 0.326 8.4 5.47 10.34
6/10/2022 12:15:00 PM 18.66 65.588 0.327 8.42 5 10.31
6/10/2022 12:30:00 PM 19.14 66.452 0.327 8.44 4.94 10.36
6/10/2022 12:45:00 PM 19.47 67.046 0.327 8.47 4.74 10.34
6/10/2022 1:00:00 PM 19.53 67.154 0.328 8.47 5.06 10.27
6/10/2022 1:15:00 PM 19.9 67.82 0.329 8.49 4.81 10.24
6/10/2022 1:30:00 PM 20.21 68.378 0.33 8.5 4.68 10.24
6/10/2022 1:45:00 PM 20.56 69.008 0.331 8.52 4.56 10.2
6/10/2022 2:00:00 PM 20.81 69.458 0.331 8.54 4.56 10.16
6/10/2022 2:15:00 PM 20.85 69.53 0.331 8.54 4.44 10.08
6/10/2022 2:30:00 PM 20.93 69.674 0.33 8.54 4.54 9.98
6/10/2022 2:45:00 PM 21.07 69.926 0.33 8.53 4.29 9.94
6/10/2022 3:00:00 PM 21.23 70.214 0.33 8.56 4.33 9.89
6/10/2022 3:15:00 PM 21.24 70.232 0.33 8.55 4.28 9.77
6/10/2022 3:30:00 PM 21.33 70.394 0.33 8.56 4.36 9.76
6/10/2022 3:45:00 PM 21.38 70.484 0.33 8.57 4.04 9.78
6/10/2022 4:00:00 PM 21.5 70.7 0.33 8.58 4.12 9.78
6/10/2022 4:15:00 PM 21.63 70.934 0.33 8.59 4.17 9.81
6/10/2022 4:30:00 PM 21.68 71.024 0.33 8.6 4.19 9.79
6/10/2022 4:45:00 PM 21.71 71.078 0.33 8.61 4.15 9.76
6/10/2022 5:00:00 PM 21.7 71.06 0.33 8.61 4.27 9.69
6/10/2022 5:15:00 PM 21.64 70.952 0.33 8.6 4.33 9.63
6/10/2022 5:30:00 PM 21.57 70.826 0.33 8.59 4.17 9.56
6/10/2022 5:45:00 PM 21.51 70.718 0.33 8.58 4.11 9.5
6/10/2022 6:00:00 PM 21.48 70.664 0.331 8.57 4.13 9.41
6/10/2022 6:15:00 PM 21.45 70.61 0.331 8.55 4.19 9.33
6/10/2022 6:30:00 PM 21.39 70.502 0.331 8.54 4.16 9.23
6/10/2022 6:45:00 PM 21.3 70.34 0.332 8.52 4.22 9.11
6/10/2022 7:00:00 PM 21.2 70.16 0.332 8.48 4.24 8.99
6/10/2022 7:15:00 PM 21.11 69.998 0.333 8.45 4.33 8.9
6/10/2022 7:30:00 PM 21.04 69.872 0.333 8.41 4.55 8.8
6/10/2022 7:45:00 PM 20.94 69.692 0.333 8.37 4.28 8.7
6/10/2022 8:00:00 PM 20.83 69.494 0.334 8.33 4.48 8.6
6/10/2022 8:15:00 PM 20.74 69.332 0.334 8.28 4.33 8.49
6/10/2022 8:30:00 PM 20.62 69.116 0.335 8.24 4.57 8.4
6/10/2022 8:45:00 PM 20.47 68.846 0.335 8.19 4.61 8.33
6/10/2022 9:00:00 PM 20.32 68.576 0.336 8.14 4.79 8.23
6/10/2022 9:15:00 PM 20.17 68.306 0.336 8.1 4.76 8.17
6/10/2022 9:30:00 PM 20.02 68.036 0.337 8.07 4.85 8.12
6/10/2022 9:45:00 PM 19.88 67.784 0.338 8.04 5.17 8.09
6/10/2022 10:00:00 PM 19.75 67.55 0.339 8.02 5.37 8.09
6/10/2022 10:15:00 PM 19.61 67.298 0.339 8 5.5 8.09
6/10/2022 10:30:00 PM 19.46 67.028 0.339 7.98 5.78 8.11
6/10/2022 10:45:00 PM 19.31 66.758 0.339 7.97 5.76 8.11
6/10/2022 11:00:00 PM 19.16 66.488 0.338 7.95 5.85 8.13
6/10/2022 11:15:00 PM 19.02 66.236 0.338 7.94 5.93 8.15
6/10/2022 11:30:00 PM 18.87 65.966 0.338 7.93 6 8.16
6/10/2022 11:45:00 PM 18.69 65.642 0.338 7.91 5.95 8.2
6/11/2022 12:00:00 AM 18.52 65.336 0.338 7.9 6.02 8.22
6/11/2022 12:15:00 AM 18.36 65.048 0.338 7.89 6.14 8.24
6/11/2022 12:30:00 AM 18.2 64.76 0.338 7.89 6.08 8.28
6/11/2022 12:45:00 AM 18.04 64.472 0.338 7.88 6.25 8.3
6/11/2022 1:00:00 AM 17.88 64.184 0.338 7.87 6.41 8.32
6/11/2022 1:15:00 AM 17.73 63.914 0.338 7.86 6.47 8.36
6/11/2022 1:30:00 AM 17.57 63.626 0.339 7.86 6.93 8.4
6/11/2022 1:45:00 AM 17.43 63.374 0.339 7.85 6.89 8.42
6/11/2022 2:00:00 AM 17.3 63.14 0.339 7.85 7.02 8.44
6/11/2022 2:15:00 AM 17.16 62.888 0.34 7.85 7.16 8.47
6/11/2022 2:30:00 AM 17.03 62.654 0.34 7.84 7.15 8.5
6/11/2022 2:45:00 AM 16.9 62.42 0.34 7.84 7.21 8.53
6/11/2022 3:00:00 AM 16.76 62.168 0.34 7.84 7.15 8.56
6/11/2022 3:15:00 AM 16.62 61.916 0.341 7.84 7.46 8.58
6/11/2022 3:30:00 AM 16.49 61.682 0.341 7.8 7.59 8.62
6/11/2022 3:45:00 AM 16.34 61.412 0.341 7.82 7.74 8.64
6/11/2022 4:00:00 AM 16.2 61.16 0.342 7.82 7.6 8.69
6/11/2022 4:15:00 AM 16.06 60.908 0.342 7.82 7.96 8.72
6/11/2022 4:30:00 AM 15.91 60.638 0.342 7.82 7.14 8.74
6/11/2022 4:45:00 AM 15.78 60.404 0.343 7.81 7.42 8.78
6/11/2022 5:00:00 AM 15.64 60.152 0.343 7.82 7.67 8.81
6/11/2022 5:15:00 AM 15.53 59.954 0.343 7.82 7.78 8.84
6/11/2022 5:30:00 AM 15.43 59.774 0.344 7.82 6.87 8.87
6/11/2022 5:45:00 AM 15.35 59.63 0.344 7.82 7.1 8.9
6/11/2022 6:00:00 AM 15.28 59.504 0.345 7.82 6.75 8.95
6/11/2022 6:15:00 AM 15.22 59.396 0.346 7.83 7.19 9.02
6/11/2022 6:30:00 AM 15.17 59.306 0.347 7.85 15.16 9.11
6/11/2022 6:45:00 AM 15.14 59.252 0.348 7.86 6.79 9.26
6/11/2022 7:00:00 AM 15.11 59.198 0.348 7.89 6.46 9.38
6/11/2022 7:15:00 AM 15.09 59.162 0.349 7.91 6.4 9.53
6/11/2022 7:30:00 AM 15.09 59.162 0.349 7.94 6.11 9.67
6/11/2022 7:45:00 AM 15.11 59.198 0.349 7.97 6.1 9.83
6/11/2022 8:00:00 AM 15.15 59.27 0.349 8.01 6.09 9.99
6/11/2022 8:15:00 AM 15.16 59.288 0.348 8.03 6.04 10.06
6/11/2022 8:30:00 AM 15.18 59.324 0.348 8.05 6.3 10.14
6/11/2022 8:45:00 AM 15.28 59.504 0.348 8.08 6.16 10.23
6/11/2022 9:00:00 AM 15.32 59.576 0.348 8.11 5.85 10.34
6/11/2022 9:15:00 AM 15.36 59.648 0.348 8.13 5.58 10.41
6/11/2022 9:30:00 AM 15.39 59.702 0.348 8.14 5.28 10.37
6/11/2022 9:45:00 AM 15.36 59.648 0.348 8.13 5.46 10.26
6/11/2022 10:00:00 AM 15.33 59.594 0.348 8.12 5.29 10.17
6/11/2022 10:15:00 AM 15.32 59.576 0.349 8.11 5.03 10.11
6/11/2022 10:30:00 AM 15.3 59.54 0.349 8.11 4.75 10.1
6/11/2022 10:45:00 AM 15.32 59.576 0.349 8.12 4.59 10.17
6/11/2022 11:00:00 AM 15.36 59.648 0.349 8.14 4.34 10.25
6/11/2022 11:15:00 AM 15.39 59.702 0.349 8.16 4.32 10.36
6/11/2022 11:30:00 AM 15.4 59.72 0.349 8.18 4.04 10.4
6/11/2022 11:45:00 AM 15.42 59.756 0.35 8.19 9.27 10.37
6/11/2022 12:00:00 PM 15.46 59.828 0.35 8.2 13.21 10.37
6/11/2022 12:15:00 PM 15.53 59.954 0.35 8.21 11.23 10.42
6/11/2022 12:30:00 PM 15.63 60.134 0.35 8.25 7.06 10.54
6/11/2022 12:45:00 PM 15.78 60.404 0.35 8.28 7.01 10.66
6/11/2022 1:00:00 PM 15.95 60.71 0.35 8.32 8.17 10.79
6/11/2022 1:15:00 PM 16.18 61.124 0.35 8.36 8.54 10.93
6/11/2022 1:30:00 PM 16.4 61.52 0.35 8.4 24.49 11.04
6/11/2022 1:45:00 PM 16.58 61.844 0.349 8.45 8.53 11.11
6/11/2022 2:00:00 PM 16.78 62.204 0.349 8.49 3.49 11.17
6/11/2022 2:15:00 PM 17.09 62.762 0.349 8.51 3.62 11.14
6/11/2022 2:30:00 PM 17.4 63.32 0.349 8.54 3.78 11.17
6/11/2022 2:45:00 PM 17.82 64.076 0.349 8.57 3.37 11.2
6/11/2022 3:00:00 PM 18.19 64.742 0.35 8.59 3.58 11.18
6/11/2022 3:15:00 PM 18.34 65.012 0.35 8.6 3.55 11.08
6/11/2022 3:30:00 PM 18.36 65.048 0.35 8.6 3.61 10.92
6/11/2022 3:45:00 PM 18.5 65.3 0.35 8.59 3.49 10.76
6/11/2022 4:00:00 PM 18.6 65.48 0.35 8.57 3.63 10.68
6/11/2022 4:15:00 PM 18.82 65.876 0.35 8.61 3.44 10.79
6/11/2022 4:30:00 PM 19.09 66.362 0.35 8.63 3.49 10.76
6/11/2022 4:45:00 PM 19.19 66.542 0.35 8.63 3.38 10.69
6/11/2022 5:00:00 PM 19.1 66.38 0.35 8.62 3.54 10.58
6/11/2022 5:15:00 PM 18.95 66.11 0.35 8.6 3.51 10.35
6/11/2022 5:30:00 PM 18.71 65.67799 0.351 8.54 3.59 9.94
6/11/2022 5:45:00 PM 18.48 65.264 0.347 8.47 3.8 9.6
6/11/2022 6:00:00 PM 18.28 64.904 0.343 8.39 3.97 9.37
6/11/2022 6:15:00 PM 18.23 64.814 0.34 8.35 4.72 9.37
6/11/2022 6:30:00 PM 18.3 64.94 0.339 8.34 6.17 9.51
6/11/2022 6:45:00 PM 18.44 65.192 0.341 8.38 7.78 9.68
6/11/2022 7:00:00 PM 18.5 65.3 0.341 8.39 6.55 9.67
6/11/2022 7:15:00 PM 18.53 65.354 0.341 8.4 5.45 9.62
6/11/2022 7:30:00 PM 18.58 65.444 0.343 8.4 4.79 9.53
6/11/2022 7:45:00 PM 18.6 65.48 0.347 8.4 4.33 9.46
6/11/2022 8:00:00 PM 18.57 65.426 0.348 8.36 4.21 9.32
6/11/2022 8:15:00 PM 18.45 65.21 0.347 8.29 4.6 9.15
6/11/2022 8:30:00 PM 18.32 64.976 0.345 8.22 5.38 8.97
6/11/2022 8:45:00 PM 18.24 64.832 0.344 8.18 7.51 8.86
6/11/2022 9:00:00 PM 18.22 64.796 0.344 8.14 7.69 8.74
6/11/2022 9:15:00 PM 18.24 64.832 0.344 8.11 6.98 8.65
6/11/2022 9:30:00 PM 18.24 64.832 0.346 8.08 7.03 8.58
6/11/2022 9:45:00 PM 18.21 64.778 0.348 8.06 8.67 8.54
6/11/2022 10:00:00 PM 18.16 64.688 0.349 8.03 10.52 8.53
6/11/2022 10:15:00 PM 18.08 64.544 0.349 8 12.28 8.52
6/11/2022 10:30:00 PM 17.98 64.364 0.35 7.98 13.15 8.52
6/11/2022 10:45:00 PM 17.88 64.184 0.351 7.96 12.81 8.54
6/11/2022 11:00:00 PM 17.79 64.022 0.349 7.94 12.6 8.54
6/11/2022 11:15:00 PM 17.71 63.878 0.346 7.93 11.85 8.55
6/11/2022 11:30:00 PM 17.61 63.698 0.345 7.93 12.6 8.57
6/11/2022 11:45:00 PM 17.51 63.518 0.347 7.91 13.97 8.59
6/12/2022 12:00:00 AM 17.39 63.302 0.35 7.91 14.01 8.6
6/12/2022 12:15:00 AM 17.28 63.104 0.352 7.9 15.18 8.62
6/12/2022 12:30:00 AM 17.18 62.924 0.353 7.89 13.99 8.65
6/12/2022 12:45:00 AM 17.09 62.762 0.353 7.9 14.19 8.69
6/12/2022 1:00:00 AM 16.99 62.582 0.351 7.9 13.78 8.72
6/12/2022 1:15:00 AM 16.9 62.42 0.348 7.9 14.36 8.75
6/12/2022 1:30:00 AM 16.83 62.294 0.346 7.9 15.13 8.78
6/12/2022 1:45:00 AM 16.73 62.114 0.343 7.9 15.68 8.81
6/12/2022 2:00:00 AM 16.64 61.952 0.341 7.9 14.97 8.83
6/12/2022 2:15:00 AM 16.56 61.808 0.339 7.91 15.73 8.85
6/12/2022 2:30:00 AM 16.49 61.682 0.337 7.9 15.43 8.88
6/12/2022 2:45:00 AM 16.41 61.538 0.336 7.9 15.85 8.91
6/12/2022 3:00:00 AM 16.32 61.376 0.334 7.9 16.26 8.93
6/12/2022 3:15:00 AM 16.24 61.232 0.331 7.89 16.01 8.95
6/12/2022 3:30:00 AM 16.17 61.106 0.329 7.9 15.82 8.97
6/12/2022 3:45:00 AM 16.1 60.98 0.327 7.89 15.05 8.99
6/12/2022 4:00:00 AM 16.03 60.854 0.326 7.88 15.46 8.99
6/12/2022 4:15:00 AM 15.95 60.71 0.324 7.89 14.75 9
6/12/2022 4:30:00 AM 15.87 60.566 0.323 7.88 13.94 9.02
6/12/2022 4:45:00 AM 15.8 60.44 0.322 7.88 13.38 9.04
6/12/2022 5:00:00 AM 15.73 60.314 0.321 7.88 13.48 9.05
6/12/2022 5:15:00 AM 15.66 60.188 0.32 7.88 12.94 9.07
6/12/2022 5:30:00 AM 15.61 60.098 0.319 7.88 13.35 9.08
6/12/2022 5:45:00 AM 15.53 59.954 0.319 7.88 12.37 9.11
6/12/2022 6:00:00 AM 15.48 59.864 0.32 7.88 12.51 9.14
6/12/2022 6:15:00 AM 15.43 59.774 0.32 7.89 12.38 9.18
6/12/2022 6:30:00 AM 15.4 59.72 0.321 7.9 11.41 9.23
6/12/2022 6:45:00 AM 15.37 59.666 0.322 7.91 11.83 9.32
6/12/2022 7:00:00 AM 15.38 59.684 0.323 7.94 11.39 9.47
6/12/2022 7:15:00 AM 15.37 59.666 0.323 7.96 11.33 9.6
6/12/2022 7:30:00 AM 15.36 59.648 0.324 7.98 11.11 9.68
6/12/2022 7:45:00 AM 15.38 59.684 0.325 8.01 10.5 9.79
6/12/2022 8:00:00 AM 15.48 59.864 0.326 8.05 10.15 9.95
6/12/2022 8:15:00 AM 15.57 60.026 0.326 8.09 9.47 10.11
6/12/2022 8:30:00 AM 15.69 60.242 0.327 8.14 9.34 10.24
6/12/2022 8:45:00 AM 15.78 60.404 0.327 8.18 8.68 10.34
6/12/2022 9:00:00 AM 15.92 60.656 0.328 8.2 8.45 10.34
6/12/2022 9:15:00 AM 16.09 60.962 0.328 8.22 8.24 10.38
6/12/2022 9:30:00 AM 16.33 61.394 0.328 8.26 7.8 10.44
6/12/2022 9:45:00 AM 16.55 61.79 0.328 8.29 7.7 10.5
6/12/2022 10:00:00 AM 16.91 62.438 0.327 8.34 7.1 10.62
6/12/2022 10:15:00 AM 17.18 62.924 0.327 8.39 6.92 10.72
6/12/2022 10:30:00 AM 17.38 63.284 0.327 8.42 6.36 10.74
6/12/2022 10:45:00 AM 17.41 63.338 0.327 8.45 6.34 10.73
6/12/2022 11:00:00 AM 17.42 63.356 0.327 8.46 11.05 10.64
6/12/2022 11:15:00 AM 17.53 63.554 0.327 8.47 6.06 10.63
6/12/2022 11:30:00 AM 17.72 63.896 0.327 8.51 5.87 10.73
6/12/2022 11:45:00 AM 17.97 64.346 0.327 8.53 5.59 10.78
6/12/2022 12:00:00 PM 18.31 64.958 0.327 8.56 5.45 10.85
6/12/2022 12:15:00 PM 18.78 65.804 0.327 8.6 5.04 10.91
6/12/2022 12:30:00 PM 19.11 66.398 0.327 8.63 5.22 10.82
6/12/2022 12:45:00 PM 19.18 66.524 0.327 8.65 5.19 10.75
6/12/2022 1:00:00 PM 19.16 66.488 0.327 8.64 5.16 10.64
6/12/2022 1:15:00 PM 19.34 66.812 0.328 8.65 4.93 10.62
6/12/2022 1:30:00 PM 19.34 66.812 0.328 8.65 5.02 10.56
6/12/2022 1:45:00 PM 19.26 66.668 0.328 8.63 4.8 10.37
6/12/2022 2:00:00 PM 19.21 66.578 0.328 8.63 4.85 10.32
6/12/2022 2:15:00 PM 19.22 66.596 0.329 8.64 4.66 10.18
6/12/2022 2:30:00 PM 19.26 66.668 0.329 8.61 4.68 10.03
6/12/2022 2:45:00 PM 19.4 66.92 0.329 8.61 4.43 10.09
6/12/2022 3:00:00 PM 19.56 67.208 0.329 8.65 4.43 10.26
6/12/2022 3:15:00 PM 19.69 67.442 0.329 8.67 4.42 10.3
6/12/2022 3:30:00 PM 19.73 67.514 0.328 8.67 4.24 10.23
6/12/2022 3:45:00 PM 19.79 67.622 0.328 8.68 4.23 10.15
6/12/2022 4:00:00 PM 19.93 67.874 0.328 8.69 4.17 10.2
6/12/2022 4:15:00 PM 20.1 68.18 0.328 8.71 4.22 10.23
6/12/2022 4:30:00 PM 20.28 68.504 0.328 8.71 4.22 10.27
6/12/2022 4:45:00 PM 20.3 68.54 0.328 8.71 4.06 10.22
6/12/2022 5:00:00 PM 20.4 68.72 0.328 8.72 4.02 10.14
6/12/2022 5:15:00 PM 20.48 68.864 0.328 8.72 4.08 10.14
6/12/2022 5:30:00 PM 20.57 69.026 0.328 8.73 4.11 10.14
6/12/2022 5:45:00 PM 20.63 69.134 0.328 8.72 4.12 10.09
6/12/2022 6:00:00 PM 20.71 69.278 0.33 8.72 4.06 10.06
6/12/2022 6:15:00 PM 20.66 69.188 0.33 8.7 4.11 9.94
6/12/2022 6:30:00 PM 20.66 69.188 0.33 8.69 4.17 9.8
6/12/2022 6:45:00 PM 20.64 69.152 0.331 8.66 4.15 9.71
6/12/2022 7:00:00 PM 20.58 69.044 0.331 8.64 4.06 9.57
6/12/2022 7:15:00 PM 20.49 68.882 0.332 8.59 4.25 9.35
6/12/2022 7:30:00 PM 20.42 68.756 0.333 8.54 4.17 9.16
6/12/2022 7:45:00 PM 20.37 68.666 0.333 8.5 4.3 9.06
6/12/2022 8:00:00 PM 20.3 68.54 0.333 8.46 4.29 8.96
6/12/2022 8:15:00 PM 20.23 68.414 0.334 8.39 4.42 8.77
6/12/2022 8:30:00 PM 20.16 68.288 0.335 8.34 4.34 8.62
6/12/2022 8:45:00 PM 20.1 68.18 0.335 8.28 4.57 8.49
6/12/2022 9:00:00 PM 20.04 68.07201 0.336 8.22 4.65 8.37
6/12/2022 9:15:00 PM 19.97 67.946 0.336 8.17 4.63 8.27
6/12/2022 9:30:00 PM 19.89 67.802 0.337 8.13 4.75 8.22
6/12/2022 9:45:00 PM 19.81 67.658 0.338 8.09 5.17 8.18
6/12/2022 10:00:00 PM 19.73 67.514 0.339 8.06 5.11 8.16
6/12/2022 10:15:00 PM 19.66 67.388 0.34 8.03 5.36 8.14
6/12/2022 10:30:00 PM 19.6 67.28 0.341 8 5.57 8.13
6/12/2022 10:45:00 PM 19.52 67.136 0.341 7.98 5.52 8.13
6/12/2022 11:00:00 PM 19.46 67.028 0.341 7.97 5.64 8.12
6/12/2022 11:15:00 PM 19.39 66.902 0.341 7.95 5.79 8.12
6/12/2022 11:30:00 PM 19.32 66.776 0.341 7.93 5.79 8.11
6/12/2022 11:45:00 PM 19.24 66.632 0.341 7.92 6.1 8.12
6/13/2022 12:00:00 AM 19.16 66.488 0.341 7.91 6.12 8.13
6/13/2022 12:15:00 AM 19.08 66.344 0.341 7.89 6.3 8.14
6/13/2022 12:30:00 AM 19 66.2 0.34 7.88 6.3 8.16
6/13/2022 12:45:00 AM 18.9 66.02 0.34 7.87 6.48 8.17
6/13/2022 1:00:00 AM 18.8 65.84 0.34 7.86 6.31 8.18
6/13/2022 1:15:00 AM 18.7 65.66 0.34 7.86 6.45 8.19
6/13/2022 1:30:00 AM 18.6 65.48 0.341 7.85 6.23 8.2
6/13/2022 1:45:00 AM 18.5 65.3 0.341 7.85 6.64 8.22
6/13/2022 2:00:00 AM 18.4 65.12 0.34 7.84 7.49 8.25
6/13/2022 2:15:00 AM 18.32 64.976 0.341 7.84 7.09 8.28
6/13/2022 2:30:00 AM 18.23 64.814 0.341 7.83 6.91 8.29
6/13/2022 2:45:00 AM 18.16 64.688 0.342 7.83 6.6 8.31
6/13/2022 3:00:00 AM 18.09 64.562 0.342 7.83 6.67 8.32
6/13/2022 3:15:00 AM 18.01 64.418 0.342 7.83 6.85 8.33
6/13/2022 3:30:00 AM 17.95 64.31 0.342 7.82 6.82 8.35
6/13/2022 3:45:00 AM 17.88 64.184 0.343 7.82 6.96 8.36
6/13/2022 4:00:00 AM 17.8 64.04 0.343 7.82 7.31 8.37
6/13/2022 4:15:00 AM 17.72 63.896 0.343 7.82 6.92 8.4
6/13/2022 4:30:00 AM 17.65 63.77 0.343 7.82 6.69 8.4
6/13/2022 4:45:00 AM 17.58 63.644 0.344 7.82 7.1 8.42
6/13/2022 5:00:00 AM 17.52 63.536 0.344 7.81 7.29 8.44
6/13/2022 5:15:00 AM 17.45 63.41 0.345 7.82 7 8.45
6/13/2022 5:30:00 AM 17.39 63.302 0.345 7.81 6.82 8.46
6/13/2022 5:45:00 AM 17.33 63.194 0.346 7.82 7.1 8.48
6/13/2022 6:00:00 AM 17.27 63.086 0.347 7.82 9.64 8.53
6/13/2022 6:15:00 AM 17.22 62.996 0.348 7.83 8.78 8.61
6/13/2022 6:30:00 AM 17.18 62.924 0.349 7.84 8.99 8.72
6/13/2022 6:45:00 AM 17.16 62.888 0.349 7.86 1126.94 8.85
6/13/2022 7:00:00 AM 17.15 62.87 0.35 7.88 10.67 8.98
6/13/2022 7:15:00 AM 17.15 62.87 0.35 7.91 13.24 9.16
6/13/2022 7:30:00 AM 17.15 62.87 0.35 7.94 15.76 9.33
6/13/2022 7:45:00 AM 17.15 62.87 0.349 7.98 20.17 9.49
6/13/2022 8:00:00 AM 17.17 62.906 0.349 8.01 9.53 9.63
6/13/2022 8:15:00 AM 17.22 62.996 0.348 8.05 57.52 9.8
6/13/2022 8:30:00 AM 17.3 63.14 0.348 8.09 12.13 9.94
6/13/2022 8:45:00 AM 17.42 63.356 0.347 8.13 15.47 10.1
6/13/2022 9:00:00 AM 17.51 63.518 0.347 8.16 12.6 10.18
6/13/2022 9:15:00 AM 17.69 63.842 0.346 8.23 12.44 10.37
6/13/2022 9:30:00 AM 17.86 64.148 0.346 8.26 5.18 10.44
6/13/2022 9:45:00 AM 17.9 64.22 0.346 8.3 5.15 10.48
6/13/2022 10:00:00 AM 18.06 64.508 0.345 8.33 4.91 10.53
6/13/2022 10:15:00 AM 18.31 64.958 0.347 8.36 4.61 10.63
6/13/2022 10:30:00 AM 18.62 65.516 0.346 8.41 4.58 10.77
6/13/2022 10:45:00 AM 18.91 66.038 0.346 8.46 4.4 10.95
6/13/2022 11:00:00 AM 19.28 66.704 0.346 8.49 4.4 10.96
6/13/2022 11:15:00 AM 19.68 67.424 0.346 8.52 4.34 11
6/13/2022 11:30:00 AM 20.07 68.126 0.346 8.56 4.06 11.05
6/13/2022 11:45:00 AM 20.53 68.954 0.346 8.6 3.96 11.12
6/13/2022 12:00:00 PM 21.01 69.818 0.346 8.64 3.89 11.18
6/13/2022 12:15:00 PM 21.47 70.646 0.346 8.68 4 11.2
6/13/2022 12:30:00 PM 21.87 71.366 0.345 8.7 3.81 11.17
6/13/2022 12:45:00 PM 22.28 72.104 0.346 8.73 3.78 11.21
6/13/2022 1:00:00 PM 22.65 72.77 0.345 8.76 3.72 11.16
6/13/2022 1:15:00 PM 23.05 73.49 0.345 8.79 3.72 11.13
6/13/2022 1:30:00 PM 23.44 74.192 0.345 8.81 3.71 11.09
6/13/2022 1:45:00 PM 23.73 74.714 0.345 8.82 3.72 11.02
6/13/2022 2:00:00 PM 24.07 75.326 0.344 8.84 3.56 10.96
6/13/2022 2:15:00 PM 24.32 75.776 0.344 8.85 3.72 10.91
6/13/2022 2:30:00 PM 24.53 76.154 0.344 8.86 3.62 10.8
6/13/2022 2:45:00 PM 24.72 76.496 0.344 8.87 3.56 10.71
6/13/2022 3:00:00 PM 24.85 76.73 0.344 8.88 3.5 10.63
6/13/2022 3:15:00 PM 24.99 76.982 0.344 8.88 3.73 10.56
6/13/2022 3:30:00 PM 25.11 77.198 0.344 8.88 3.58 10.46
6/13/2022 3:45:00 PM 25.18 77.324 0.344 8.88 3.58 10.35
6/13/2022 4:00:00 PM 25.17 77.306 0.343 8.88 4 10.3
6/13/2022 4:15:00 PM 25.2 77.36 0.343 8.88 3.53 10.18
6/13/2022 4:30:00 PM 25.12 77.216 0.343 8.87 3.61 10.08
6/13/2022 4:45:00 PM 25.08 77.144 0.343 8.86 3.59 9.93
6/13/2022 5:00:00 PM 25.02 77.036 0.344 8.84 3.71 9.76
6/13/2022 5:15:00 PM 24.93 76.874 0.344 8.82 3.46 9.63
6/13/2022 5:30:00 PM 24.79 76.622 0.344 8.8 3.63 9.47
6/13/2022 5:45:00 PM 24.62 76.316 0.345 8.78 3.43 9.31
6/13/2022 6:00:00 PM 24.47 76.046 0.345 8.75 3.53 9.2
6/13/2022 6:15:00 PM 24.3 75.74 0.345 8.71 3.67 9.01
6/13/2022 6:30:00 PM 24.23 75.614 0.346 8.69 3.54 8.88
6/13/2022 6:45:00 PM 24.13 75.434 0.346 8.66 3.58 8.76
6/13/2022 7:00:00 PM 24.1 75.38 0.347 8.64 6.81 8.67
6/13/2022 7:15:00 PM 24.03 75.254 0.347 8.6 3.64 8.51
6/13/2022 7:30:00 PM 23.96 75.128 0.347 8.57 3.84 8.43
6/13/2022 7:45:00 PM 23.86 74.948 0.348 8.52 19.65 8.29
6/13/2022 8:00:00 PM 23.73 74.714 0.349 8.46 3.85 8.1
6/13/2022 8:15:00 PM 23.59 74.462 0.349 8.39 3.89 7.89
6/13/2022 8:30:00 PM 23.43 74.174 0.35 8.32 3.85 7.72
6/13/2022 8:45:00 PM 23.25 73.85 0.351 8.25 3.79 7.59
6/13/2022 9:00:00 PM 23.09 73.562 0.351 8.17 3.92 7.46
6/13/2022 9:15:00 PM 22.92 73.256 0.352 8.1 4.07 7.38
6/13/2022 9:30:00 PM 22.75 72.95 0.352 8.05 4.12 7.32
6/13/2022 9:45:00 PM 22.59 72.662 0.352 8 4.2 7.27
6/13/2022 10:00:00 PM 22.46 72.42799 0.352 7.97 4.28 7.24
6/13/2022 10:15:00 PM 22.33 72.194 0.352 7.94 4.5 7.25
6/13/2022 10:30:00 PM 22.21 71.978 0.353 7.92 4.42 7.24
6/13/2022 10:45:00 PM 22.09 71.762 0.353 7.9 4.6 7.25
6/13/2022 11:00:00 PM 21.96 71.528 0.353 7.89 4.82 7.26
6/13/2022 11:15:00 PM 21.84 71.312 0.353 7.87 4.62 7.27
6/13/2022 11:30:00 PM 21.71 71.078 0.354 7.86 4.89 7.29
6/13/2022 11:45:00 PM 21.59 70.862 0.354 7.85 4.63 7.32
6/14/2022 12:00:00 AM 21.46 70.628 0.355 7.84 4.64 7.32
6/14/2022 12:15:00 AM 21.34 70.412 0.356 7.83 4.82 7.35
6/14/2022 12:30:00 AM 21.23 70.214 0.356 7.82 4.93 7.37
6/14/2022 12:45:00 AM 21.11 69.998 0.356 7.81 6.13 7.39
6/14/2022 1:00:00 AM 20.98 69.764 0.357 7.81 5.29 7.43
6/14/2022 1:15:00 AM 20.87 69.566 0.356 7.8 5.08 7.45
6/14/2022 1:30:00 AM 20.75 69.35 0.356 7.8 5.22 7.47
6/14/2022 1:45:00 AM 20.64 69.152 0.356 7.8 5.18 7.49
6/14/2022 2:00:00 AM 20.53 68.954 0.356 7.79 5.31 7.52
6/14/2022 2:15:00 AM 20.41 68.738 0.356 7.79 5.41 7.55
6/14/2022 2:30:00 AM 20.29 68.522 0.356 7.79 5.38 7.57
6/14/2022 2:45:00 AM 20.18 68.324 0.356 7.78 5.17 7.6
6/14/2022 3:00:00 AM 20.06 68.108 0.356 7.78 5.36 7.64
6/14/2022 3:15:00 AM 19.95 67.91 0.356 7.78 5.53 7.65
6/14/2022 3:30:00 AM 19.86 67.748 0.356 7.78 5.77 7.67
6/14/2022 3:45:00 AM 19.76 67.568 0.356 7.77 5.81 7.71
6/14/2022 4:00:00 AM 19.65 67.37 0.356 7.77 5.71 7.73
6/14/2022 4:15:00 AM 19.55 67.19 0.357 7.77 5.28 7.74
6/14/2022 4:30:00 AM 19.44 66.992 0.357 7.77 5.47 7.77
6/14/2022 4:45:00 AM 19.35 66.83 0.357 7.77 5.75 7.78
6/14/2022 5:00:00 AM 19.24 66.632 0.357 7.77 5.77 7.79
6/14/2022 5:15:00 AM 19.15 66.47 0.358 7.77 6.12 7.81
6/14/2022 5:30:00 AM 19.06 66.308 0.358 7.77 5.73 7.85
6/14/2022 5:45:00 AM 18.98 66.164 0.358 7.77 5.32 7.87
6/14/2022 6:00:00 AM 18.9 66.02 0.358 7.76 6.64 7.89
6/14/2022 6:15:00 AM 18.83 65.894 0.358 7.77 5.37 7.98
6/14/2022 6:30:00 AM 18.76 65.768 0.358 7.78 10.27 8.04
6/14/2022 6:45:00 AM 18.7 65.66 0.359 7.8 5.41 8.19
6/14/2022 7:00:00 AM 18.67 65.606 0.358 7.82 5.17 8.34
6/14/2022 7:15:00 AM 18.65 65.57 0.358 7.85 5.13 8.57
6/14/2022 7:30:00 AM 18.65 65.57 0.358 7.88 5.17 8.77
6/14/2022 7:45:00 AM 18.67 65.606 0.358 7.92 4.94 9.03
6/14/2022 8:00:00 AM 18.71 65.67799 0.358 7.96 4.99 9.25
6/14/2022 8:15:00 AM 18.75 65.75 0.358 8.01 4.83 9.48
6/14/2022 8:30:00 AM 18.81 65.858 0.358 8.07 4.79 9.72
6/14/2022 8:45:00 AM 18.87 65.966 0.358 8.11 4.82 9.89
6/14/2022 9:00:00 AM 18.95 66.11 0.359 8.16 4.88 10.06
6/14/2022 9:15:00 AM 19.08 66.344 0.359 8.21 4.75 10.24
6/14/2022 9:30:00 AM 19.25 66.65 0.359 8.27 4.95 10.41
6/14/2022 9:45:00 AM 19.48 67.064 0.358 8.32 4.48 10.55
6/14/2022 10:00:00 AM 19.68 67.424 0.358 8.36 4.78 10.64
6/14/2022 10:15:00 AM 19.93 67.874 0.358 8.4 4.52 10.72
6/14/2022 10:30:00 AM 20.27 68.486 0.358 8.45 4.56 10.84
6/14/2022 10:45:00 AM 20.59 69.062 0.358 8.49 4.25 10.88
6/14/2022 11:00:00 AM 20.92 69.656 0.357 8.53 4.27 10.98
6/14/2022 11:15:00 AM 21.31 70.358 0.357 8.58 4.2 11.06
6/14/2022 11:30:00 AM 21.71 71.078 0.356 8.62 4.24 11.17
6/14/2022 11:45:00 AM 22.15 71.87 0.356 8.66 4.22 11.25
6/14/2022 12:00:00 PM 22.6 72.68 0.356 8.7 4.38 11.3
6/14/2022 12:15:00 PM 23.03 73.454 0.355 8.74 4.29 11.32
6/14/2022 12:30:00 PM 23.46 74.228 0.356 8.76 4.19 11.35
6/14/2022 12:45:00 PM 23.87 74.966 0.355 8.78 4.15 11.35
6/14/2022 1:00:00 PM 24.27 75.686 0.355 8.81 3.98 11.37
6/14/2022 1:15:00 PM 24.62 76.316 0.355 8.83 4.03 11.32
6/14/2022 1:30:00 PM 24.95 76.91 0.355 8.85 3.77 11.31
6/14/2022 1:45:00 PM 25.23 77.414 0.355 8.86 4.07 11.25
6/14/2022 2:00:00 PM 25.49 77.882 0.355 8.87 3.86 11.17
6/14/2022 2:15:00 PM 25.75 78.35 0.355 8.89 4.19 11.13
6/14/2022 2:30:00 PM 25.98 78.764 0.355 8.89 3.8 11.06
6/14/2022 2:45:00 PM 26.16 79.088 0.355 8.9 3.84 10.94
6/14/2022 3:00:00 PM 26.35 79.43 0.354 8.91 3.75 10.85
6/14/2022 3:15:00 PM 26.46 79.628 0.354 8.91 3.74 10.7
6/14/2022 3:30:00 PM 26.57 79.826 0.354 8.92 3.65 10.61
6/14/2022 3:45:00 PM 26.64 79.952 0.354 8.92 3.73 10.52
6/14/2022 4:00:00 PM 26.66 79.988 0.354 8.92 3.83 10.41
6/14/2022 4:15:00 PM 26.62 79.916 0.354 8.91 3.85 10.27
6/14/2022 4:30:00 PM 26.57 79.826 0.354 8.91 3.95 10.15
6/14/2022 4:45:00 PM 26.45 79.61 0.354 8.9 3.76 10
6/14/2022 5:00:00 PM 26.37 79.466 0.354 8.88 7.64 9.85
6/14/2022 5:15:00 PM 26.22 79.196 0.355 8.86 3.86 9.73
6/14/2022 5:30:00 PM 26.04 78.872 0.355 8.84 3.9 9.57
6/14/2022 5:45:00 PM 25.85 78.53 0.355 8.82 3.81 9.41
6/14/2022 6:00:00 PM 25.66 78.188 0.356 8.8 6.12 9.27
6/14/2022 6:15:00 PM 25.45 77.81 0.356 8.77 14.96 9.12
6/14/2022 6:30:00 PM 25.29 77.522 0.357 8.75 7.05 8.96
6/14/2022 6:45:00 PM 25.15 77.27 0.357 8.72 3.47 8.85
6/14/2022 7:00:00 PM 25 77 0.358 8.7 3.61 8.74
6/14/2022 7:15:00 PM 24.85 76.73 0.358 8.66 3.6 8.59
6/14/2022 7:30:00 PM 24.73 76.514 0.359 8.63 3.65 8.41
6/14/2022 7:45:00 PM 24.58 76.244 0.36 8.58 3.64 8.25
6/14/2022 8:00:00 PM 24.43 75.974 0.36 8.53 3.46 8.06
6/14/2022 8:15:00 PM 24.29 75.722 0.361 8.45 3.48 7.82
6/14/2022 8:30:00 PM 24.18 75.524 0.362 8.37 3.52 7.6
6/14/2022 8:45:00 PM 24.04 75.272 0.363 8.31 3.68 7.44
6/14/2022 9:00:00 PM 23.9 75.02 0.364 8.24 3.78 7.3
6/14/2022 9:15:00 PM 23.74 74.732 0.365 8.16 3.71 7.17
6/14/2022 9:30:00 PM 23.57 74.426 0.365 8.1 3.66 7.07
6/14/2022 9:45:00 PM 23.4 74.12 0.366 8.04 3.83 6.98
6/14/2022 10:00:00 PM 23.25 73.85 0.366 7.99 3.86 6.95
6/14/2022 10:15:00 PM 23.12 73.616 0.367 7.95 3.81 6.9
6/14/2022 10:30:00 PM 22.98 73.364 0.367 7.92 3.91 6.92
6/14/2022 10:45:00 PM 22.85 73.13 0.367 7.89 3.96 6.89
6/14/2022 11:00:00 PM 22.74 72.932 0.367 7.87 4.03 6.9
6/14/2022 11:15:00 PM 22.61 72.698 0.367 7.85 4.09 6.89
6/14/2022 11:30:00 PM 22.5 72.5 0.367 7.84 4.26 6.91
6/14/2022 11:45:00 PM 22.37 72.266 0.367 7.83 4.63 6.93
6/15/2022 12:00:00 AM 22.26 72.068 0.367 7.82 4.41 6.94
6/15/2022 12:15:00 AM 22.15 71.87 0.368 7.81 4.59 6.98
6/15/2022 12:30:00 AM 22.04 71.672 0.368 7.8 4.6 6.98
6/15/2022 12:45:00 AM 21.93 71.474 0.368 7.79 4.85 7.02
6/15/2022 1:00:00 AM 21.81 71.258 0.368 7.79 4.7 7.04
6/15/2022 1:15:00 AM 21.69 71.042 0.368 7.78 4.81 7.06
6/15/2022 1:30:00 AM 21.56 70.808 0.369 7.78 4.87 7.09
6/15/2022 1:45:00 AM 21.44 70.592 0.369 7.77 4.92 7.1
6/15/2022 2:00:00 AM 21.3 70.34 0.37 7.76 4.97 7.12
6/15/2022 2:15:00 AM 21.15 70.07 0.37 7.76 4.94 7.16
6/15/2022 2:30:00 AM 21.02 69.836 0.371 7.76 5.1 7.2
6/15/2022 2:45:00 AM 20.88 69.584 0.371 7.76 5.03 7.21
6/15/2022 3:00:00 AM 20.73 69.314 0.371 7.75 5.18 7.23
6/15/2022 3:15:00 AM 20.58 69.044 0.371 7.75 5.09 7.28
6/15/2022 3:30:00 AM 20.44 68.792 0.371 7.75 5.31 7.32
6/15/2022 3:45:00 AM 20.29 68.522 0.371 7.75 5.36 7.35
6/15/2022 4:00:00 AM 20.16 68.288 0.371 7.73 5.35 7.38
6/15/2022 4:15:00 AM 20.02 68.036 0.371 7.74 5.61 7.41
6/15/2022 4:30:00 AM 19.88 67.784 0.371 7.74 5.46 7.43
6/15/2022 4:45:00 AM 19.74 67.532 0.371 7.74 5.31 7.51
6/15/2022 5:00:00 AM 19.6 67.28 0.371 7.73 5.58 7.52
6/15/2022 5:15:00 AM 19.47 67.046 0.371 7.73 7.1 7.52
6/15/2022 5:30:00 AM 19.34 66.812 0.372 7.73 5.63 7.56
6/15/2022 5:45:00 AM 19.21 66.578 0.372 7.73 5.59 7.6
6/15/2022 6:00:00 AM 19.09 66.362 0.372 7.74 5.4 7.69
6/15/2022 6:15:00 AM 18.98 66.164 0.372 7.74 5.15 7.79
6/15/2022 6:30:00 AM 18.89 66.002 0.372 7.76 5.09 7.88
6/15/2022 6:45:00 AM 18.81 65.858 0.372 7.77 5.06 8.04
6/15/2022 7:00:00 AM 18.74 65.732 0.372 7.79 5.21 8.18
6/15/2022 7:15:00 AM 18.69 65.642 0.372 7.81 5.12 8.33
6/15/2022 7:30:00 AM 18.7 65.66 0.372 7.84 4.92 8.52
6/15/2022 7:45:00 AM 18.71 65.67799 0.372 7.86 5.23 8.64
6/15/2022 8:00:00 AM 18.74 65.732 0.372 7.89 5.41 8.89
6/15/2022 8:15:00 AM 18.8 65.84 0.372 7.93 5.49 9.05
6/15/2022 8:30:00 AM 18.9 66.02 0.372 7.97 5.07 9.22
6/15/2022 8:45:00 AM 19 66.2 0.371 7.99 4.82 9.31
6/15/2022 9:00:00 AM 19.13 66.434 0.371 8.03 4.79 9.48
6/15/2022 9:15:00 AM 19.32 66.776 0.371 8.07 4.69 9.62
6/15/2022 9:30:00 AM 19.58 67.244 0.371 8.12 4.72 9.8
6/15/2022 9:45:00 AM 19.89 67.802 0.371 8.17 4.47 9.92
6/15/2022 10:00:00 AM 20.21 68.378 0.371 8.22 4.52 10.09
6/15/2022 10:15:00 AM 20.56 69.008 0.371 8.27 4.39 10.23
6/15/2022 10:30:00 AM 20.95 69.71 0.371 8.33 4.36 10.41
6/15/2022 10:45:00 AM 21.33 70.394 0.371 8.38 4.39 10.52
6/15/2022 11:00:00 AM 21.72 71.096 0.37 8.43 4.28 10.68
6/15/2022 11:15:00 AM 22.16 71.888 0.37 8.5 4.26 10.82
6/15/2022 11:30:00 AM 22.67 72.806 0.37 8.56 4.48 10.97
6/15/2022 11:45:00 AM 23.14 73.652 0.369 8.61 4.41 11.1
6/15/2022 12:00:00 PM 23.66 74.588 0.368 8.66 4.54 11.23
6/15/2022 12:15:00 PM 24.06 75.308 0.368 8.69 4.24 11.25
6/15/2022 12:30:00 PM 24.24 75.632 0.367 8.73 4.04 11.3
6/15/2022 12:45:00 PM 24.48 76.064 0.367 8.76 4.22 11.32
6/15/2022 1:00:00 PM 24.58 76.244 0.366 8.78 4.12 11.33
6/15/2022 1:15:00 PM 24.63 76.334 0.366 8.79 4.09 11.24
6/15/2022 1:30:00 PM 24.63 76.334 0.365 8.82 3.94 11.3
6/15/2022 1:45:00 PM 24.74 76.532 0.364 8.84 4.02 11.31
6/15/2022 2:00:00 PM 25 77 0.364 8.86 4.28 11.38
6/15/2022 2:15:00 PM 25.28 77.504 0.364 8.86 3.98 11.31
6/15/2022 2:30:00 PM 25.54 77.972 0.363 8.88 3.95 11.36
6/15/2022 2:45:00 PM 25.89 78.602 0.363 8.9 4.04 11.36
6/15/2022 3:00:00 PM 26.07 78.926 0.362 8.91 3.89 11.23
6/15/2022 3:15:00 PM 26.32 79.376 0.362 8.92 3.86 11.2
6/15/2022 3:30:00 PM 26.56 79.808 0.361 8.93 3.7 11.14
6/15/2022 3:45:00 PM 26.72 80.096 0.361 8.94 3.71 11.05
6/15/2022 4:00:00 PM 26.81 80.258 0.361 8.94 3.99 10.9
6/15/2022 4:15:00 PM 26.84 80.312 0.36 8.94 3.81 10.76
6/15/2022 4:30:00 PM 26.92 80.456 0.36 8.94 4.01 10.67
6/15/2022 4:45:00 PM 26.93 80.474 0.361 8.93 4.03 10.43
6/15/2022 5:00:00 PM 26.87 80.366 0.361 8.92 3.85 10.26
6/15/2022 5:15:00 PM 26.83 80.294 0.361 8.91 3.92 10.11
6/15/2022 5:30:00 PM 26.71 80.078 0.361 8.89 3.83 9.97
6/15/2022 5:45:00 PM 26.59 79.862 0.362 8.86 3.9 9.82
6/15/2022 6:00:00 PM 26.44 79.592 0.363 8.84 3.83 9.61
6/15/2022 6:15:00 PM 26.32 79.376 0.363 8.82 4.01 9.45
6/15/2022 6:30:00 PM 26.13 79.034 0.364 8.78 3.77 9.22
6/15/2022 6:45:00 PM 26.01 78.818 0.365 8.74 3.82 9
6/15/2022 7:00:00 PM 25.88 78.584 0.367 8.7 3.8 8.74
6/15/2022 7:15:00 PM 25.72 78.296 0.368 8.63 3.72 8.42
6/15/2022 7:30:00 PM 25.6 78.08 0.369 8.58 3.87 8.16
6/15/2022 7:45:00 PM 25.52 77.936 0.37 8.52 3.86 7.98
6/15/2022 8:00:00 PM 25.45 77.81 0.371 8.47 3.81 7.82
6/15/2022 8:15:00 PM 25.35 77.63 0.372 8.4 3.72 7.56
6/15/2022 8:30:00 PM 25.25 77.45 0.373 8.31 3.78 7.36
6/15/2022 8:45:00 PM 25.15 77.27 0.374 8.24 3.85 7.2
6/15/2022 9:00:00 PM 25.06 77.108 0.374 8.17 4.08 7.03
6/15/2022 9:15:00 PM 24.97 76.946 0.375 8.11 3.93 6.92
6/15/2022 9:30:00 PM 24.87 76.766 0.375 8.05 3.92 6.82
6/15/2022 9:45:00 PM 24.77 76.586 0.375 8 3.99 6.71
6/15/2022 10:00:00 PM 24.66 76.388 0.375 7.95 3.92 6.63
6/15/2022 10:15:00 PM 24.55 76.19 0.376 7.91 3.99 6.58
6/15/2022 10:30:00 PM 24.46 76.028 0.376 7.89 3.98 6.55
6/15/2022 10:45:00 PM 24.38 75.884 0.376 7.86 4.12 6.53
6/15/2022 11:00:00 PM 24.3 75.74 0.376 7.84 4.27 6.53
6/15/2022 11:15:00 PM 24.22 75.596 0.377 7.82 4.16 6.52
6/15/2022 11:30:00 PM 24.15 75.47 0.377 7.81 4.15 6.52
6/15/2022 11:45:00 PM 24.08 75.344 0.377 7.8 4.13 6.51
6/16/2022 12:00:00 AM 24.01 75.218 0.377 7.79 4.27 6.49
6/16/2022 12:15:00 AM 23.94 75.092 0.377 7.79 4.1 6.54
6/16/2022 12:30:00 AM 23.89 75.002 0.378 7.77 4.36 6.48
6/16/2022 12:45:00 AM 23.82 74.876 0.378 7.77 4.36 6.54
6/16/2022 1:00:00 AM 23.76 74.768 0.378 7.75 4.27 6.53
6/16/2022 1:15:00 AM 23.7 74.66 0.378 7.75 4.62 6.56
6/16/2022 1:30:00 AM 23.64 74.552 0.378 7.74 4.75 6.57
6/16/2022 1:45:00 AM 23.59 74.462 0.378 7.74 5 6.59
6/16/2022 2:00:00 AM 23.54 74.372 0.379 7.73 4.58 6.57
6/16/2022 2:15:00 AM 23.48 74.264 0.379 7.73 4.83 6.59
6/16/2022 2:30:00 AM 23.43 74.174 0.379 7.72 5.02 6.59
6/16/2022 2:45:00 AM 23.39 74.102 0.38 7.72 4.94 6.6
6/16/2022 3:00:00 AM 23.33 73.994 0.38 7.72 4.88 6.64
6/16/2022 3:15:00 AM 23.28 73.904 0.381 7.71 4.85 6.62
6/16/2022 3:30:00 AM 23.22 73.796 0.382 7.71 5 6.62
6/16/2022 3:45:00 AM 23.17 73.706 0.382 7.71 5.38 6.68
6/16/2022 4:00:00 AM 23.11 73.598 0.383 7.71 4.79 6.66
6/16/2022 4:15:00 AM 23.04 73.472 0.383 7.71 4.88 6.68
6/16/2022 4:30:00 AM 22.97 73.346 0.383 7.71 5.15 6.69
6/16/2022 4:45:00 AM 22.89 73.202 0.384 7.71 5.17 6.73
6/16/2022 5:00:00 AM 22.82 73.076 0.384 7.71 5.04 6.74
6/16/2022 5:15:00 AM 22.75 72.95 0.384 7.7 5.3 6.75
6/16/2022 5:30:00 AM 22.67 72.806 0.384 7.7 5.13 6.76
6/16/2022 5:45:00 AM 22.58 72.644 0.385 7.71 5.34 6.78
6/16/2022 6:00:00 AM 22.51 72.518 0.385 7.71 5.06 6.84
6/16/2022 6:15:00 AM 22.45 72.41 0.385 7.71 5.96 6.88
6/16/2022 6:30:00 AM 22.39 72.302 0.385 7.72 6.02 7.01
6/16/2022 6:45:00 AM 22.35 72.23 0.385 7.74 5.78 7.16
6/16/2022 7:00:00 AM 22.34 72.212 0.385 7.77 4.98 7.38
6/16/2022 7:15:00 AM 22.33 72.194 0.385 7.78 4.89 7.55
6/16/2022 7:30:00 AM 22.33 72.194 0.385 7.82 5.66 7.74
6/16/2022 7:45:00 AM 22.33 72.194 0.385 7.84 5.04 7.96
6/16/2022 8:00:00 AM 22.35 72.23 0.384 7.88 4.93 8.13
6/16/2022 8:15:00 AM 22.4 72.32 0.384 7.9 5.05 8.29
6/16/2022 8:30:00 AM 22.48 72.464 0.384 7.94 4.72 8.49
6/16/2022 8:45:00 AM 22.55 72.59 0.384 7.97 4.7 8.6
6/16/2022 9:00:00 AM 22.67 72.806 0.384 8.02 4.45 8.88
6/16/2022 9:15:00 AM 22.8 73.04 0.383 8.08 4.52 9.07
6/16/2022 9:30:00 AM 23 73.4 0.383 8.14 4.81 9.33
6/16/2022 9:45:00 AM 23.23 73.814 0.382 8.2 4.47 9.61
6/16/2022 10:00:00 AM 23.5 74.3 0.382 8.25 4.42 9.7
6/16/2022 10:15:00 AM 23.79 74.82201 0.382 8.3 4.34 9.91
6/16/2022 10:30:00 AM 24.07 75.326 0.381 8.36 4.6 10.09
6/16/2022 10:45:00 AM 24.43 75.974 0.381 8.42 4.77 10.25
6/16/2022 11:00:00 AM 24.76 76.568 0.38 8.47 4.54 10.38
6/16/2022 11:15:00 AM 25.18 77.324 0.38 8.5 4.3 10.48
6/16/2022 11:30:00 AM 25.61 78.098 0.379 8.57 4.45 10.61
6/16/2022 11:45:00 AM 26.07 78.926 0.378 8.61 4.37 10.71
6/16/2022 12:00:00 PM 26.57 79.826 0.378 8.66 4.54 10.84
6/16/2022 12:15:00 PM 26.92 80.456 0.378 8.7 4.46 10.87
6/16/2022 12:30:00 PM 27.26 81.068 0.377 8.74 4.65 10.98
6/16/2022 12:45:00 PM 27.48 81.464 0.377 8.77 4.32 11
6/16/2022 1:00:00 PM 27.74 81.932 0.376 8.8 4.35 10.95
6/16/2022 1:15:00 PM 28 82.4 0.375 8.82 4.55 10.98
6/16/2022 1:30:00 PM 28.08 82.544 0.375 8.83 4.13 10.89
6/16/2022 1:45:00 PM 28.21 82.778 0.374 8.86 4.17 10.95
6/16/2022 2:00:00 PM 28.28 82.904 0.373 8.87 4.39 10.93
6/16/2022 2:15:00 PM 28.31 82.958 0.373 8.88 4.5 10.88
6/16/2022 2:30:00 PM 28.3 82.94 0.372 8.89 4.18 10.81
6/16/2022 2:45:00 PM 28.27 82.886 0.372 8.89 4.14 10.76
6/16/2022 3:00:00 PM 28.17 82.706 0.371 8.89 4.18 10.63
6/16/2022 3:15:00 PM 28.25 82.85 0.371 8.9 4.15 10.59
6/16/2022 3:30:00 PM 28.3 82.94 0.371 8.9 4.2 10.49
6/16/2022 3:45:00 PM 28.36 83.048 0.371 8.9 4.3 10.34
6/16/2022 4:00:00 PM 28.43 83.174 0.37 8.9 4.15 10.32
6/16/2022 4:15:00 PM 28.59 83.462 0.37 8.91 4.14 10.24
6/16/2022 4:30:00 PM 28.71 83.67799 0.37 8.91 4.18 10.13
6/16/2022 4:45:00 PM 28.61 83.498 0.37 8.9 3.96 9.97
6/16/2022 5:00:00 PM 28.45 83.21001 0.371 8.87 4.5 9.69
6/16/2022 5:15:00 PM 28.31 82.958 0.371 8.86 4.02 9.5
6/16/2022 5:30:00 PM 28.1 82.58 0.372 8.81 3.87 9.06
6/16/2022 5:45:00 PM 27.83 82.094 0.373 8.76 3.8 8.65
6/16/2022 6:00:00 PM 27.59 81.662 0.375 8.69 3.87 8.25
6/16/2022 6:15:00 PM 27.39 81.302 0.376 8.61 3.73 7.88
6/16/2022 6:30:00 PM 27.19 80.942 0.378 8.52 3.77 7.53
6/16/2022 6:45:00 PM 26.99 80.582 0.379 8.44 3.76 7.28
6/16/2022 7:00:00 PM 26.83 80.294 0.38 8.36 3.7 7.06
6/16/2022 7:15:00 PM 26.68 80.024 0.381 8.29 3.65 6.94
6/16/2022 7:30:00 PM 26.59 79.862 0.382 8.24 3.49 6.89
6/16/2022 7:45:00 PM 26.51 79.718 0.382 8.2 3.68 6.86
6/16/2022 8:00:00 PM 26.43 79.574 0.382 8.15 3.76 6.78
6/16/2022 8:15:00 PM 26.35 79.43 0.383 8.13 3.68 6.78
6/16/2022 8:30:00 PM 26.26 79.268 0.383 8.1 3.78 6.76
6/16/2022 8:45:00 PM 26.16 79.088 0.383 8.05 3.98 6.65
6/16/2022 9:00:00 PM 26.04 78.872 0.383 8.02 3.77 6.58
6/16/2022 9:15:00 PM 25.89 78.602 0.384 7.98 3.86 6.53
6/16/2022 9:30:00 PM 25.75 78.35 0.384 7.95 4.24 6.48
6/16/2022 9:45:00 PM 25.62 78.116 0.384 7.92 4.19 6.4
6/16/2022 10:00:00 PM 25.52 77.936 0.385 7.89 3.92 6.32
6/16/2022 10:15:00 PM 25.42 77.756 0.386 7.86 4.05 6.29
6/16/2022 10:30:00 PM 25.29 77.522 0.386 7.84 4.25 6.27
6/16/2022 10:45:00 PM 25.18 77.324 0.387 7.81 4.08 6.25
6/16/2022 11:00:00 PM 25.06 77.108 0.387 7.79 4.16 6.26
6/16/2022 11:15:00 PM 24.94 76.892 0.387 7.78 4.17 6.27
6/16/2022 11:30:00 PM 24.81 76.658 0.388 7.77 4.09 6.21
6/16/2022 11:45:00 PM 24.68 76.424 0.388 7.76 4.04 6.24
6/17/2022 12:00:00 AM 24.55 76.19 0.388 7.76 4.01 6.29
6/17/2022 12:15:00 AM 24.44 75.992 0.388 7.74 4.2 6.3
6/17/2022 12:30:00 AM 24.34 75.812 0.388 7.75 4.29 6.32
6/17/2022 12:45:00 AM 24.24 75.632 0.388 7.73 4.43 6.3
6/17/2022 1:00:00 AM 24.13 75.434 0.388 7.73 4.62 6.36
6/17/2022 1:15:00 AM 24.03 75.254 0.388 7.72 19.72 6.33
6/17/2022 1:30:00 AM 23.94 75.092 0.388 7.73 4.44 6.36
6/17/2022 1:45:00 AM 23.84 74.912 0.388 7.73 4.66 6.38
6/17/2022 2:00:00 AM 23.75 74.75 0.388 7.73 4.73 6.38
6/17/2022 2:15:00 AM 23.66 74.588 0.388 7.72 4.8 6.42
6/17/2022 2:30:00 AM 23.57 74.426 0.388 7.72 5.04 6.45
6/17/2022 2:45:00 AM 23.48 74.264 0.388 7.71 4.7 6.47
6/17/2022 3:00:00 AM 23.39 74.102 0.388 7.72 4.82 6.43
6/17/2022 3:15:00 AM 23.31 73.958 0.388 7.71 4.87 6.46
6/17/2022 3:30:00 AM 23.23 73.814 0.388 7.72 4.82 6.52
6/17/2022 3:45:00 AM 23.16 73.688 0.389 7.72 4.92 6.53
6/17/2022 4:00:00 AM 23.07 73.526 0.389 7.71 4.92 6.53
6/17/2022 4:15:00 AM 22.99 73.382 0.39 7.72 5.16 6.56
6/17/2022 4:30:00 AM 22.92 73.256 0.391 7.72 5.2 6.6
6/17/2022 4:45:00 AM 22.84 73.112 0.391 7.71 5.07 6.61
6/17/2022 5:00:00 AM 22.77 72.986 0.392 7.71 4.98 6.61
6/17/2022 5:15:00 AM 22.7 72.86 0.392 7.71 5.87 6.6
6/17/2022 5:30:00 AM 22.61 72.698 0.393 7.71 4.99 6.63
6/17/2022 5:45:00 AM 22.54 72.57201 0.393 7.7 4.8 6.62
6/17/2022 6:00:00 AM 22.46 72.42799 0.393 7.72 4.78 6.7
6/17/2022 6:15:00 AM 22.4 72.32 0.393 7.72 4.85 6.76
6/17/2022 6:30:00 AM 22.35 72.23 0.393 7.73 4.91 6.88
6/17/2022 6:45:00 AM 22.3 72.14 0.393 7.75 5.75 7.03
6/17/2022 7:00:00 AM 22.27 72.086 0.393 7.76 4.61 7.12
6/17/2022 7:15:00 AM 22.25 72.05 0.393 7.78 4.87 7.31
6/17/2022 7:30:00 AM 22.23 72.014 0.393 7.81 4.74 7.45
6/17/2022 7:45:00 AM 22.23 72.014 0.393 7.83 4.79 7.64
6/17/2022 8:00:00 AM 22.23 72.014 0.393 7.85 4.66 7.77
6/17/2022 8:15:00 AM 22.24 72.032 0.393 7.88 4.71 7.91
6/17/2022 8:30:00 AM 22.26 72.068 0.393 7.91 4.83 8.08
6/17/2022 8:45:00 AM 22.32 72.176 0.393 7.94 4.44 8.23
6/17/2022 9:00:00 AM 22.38 72.284 0.392 7.98 4.36 8.43
6/17/2022 9:15:00 AM 22.47 72.446 0.392 8.02 4.44 8.62
6/17/2022 9:30:00 AM 22.64 72.752 0.392 8.07 4.37 8.84
6/17/2022 9:45:00 AM 22.83 73.094 0.392 8.11 4.29 9.01
6/17/2022 10:00:00 AM 23.06 73.508 0.391 8.17 4.39 9.2
6/17/2022 10:15:00 AM 23.15 73.67 0.391 8.2 4.61 9.3
6/17/2022 10:30:00 AM 23.32 73.976 0.39 8.25 4.38 9.47
6/17/2022 10:45:00 AM 23.58 74.444 0.39 8.33 4.54 9.7
6/17/2022 11:00:00 AM 23.77 74.786 0.389 8.37 4.61 9.83
6/17/2022 11:15:00 AM 24.01 75.218 0.389 8.42 4.46 9.92
6/17/2022 11:30:00 AM 24.35 75.83 0.388 8.47 4.26 10.1
6/17/2022 11:45:00 AM 24.69 76.442 0.388 8.52 4.32 10.22
6/17/2022 12:00:00 PM 25.04 77.07201 0.387 8.56 4.39 10.32
6/17/2022 12:15:00 PM 25.29 77.522 0.387 8.6 4.37 10.29
6/17/2022 12:30:00 PM 25.58 78.044 0.386 8.64 4.37 10.4
6/17/2022 12:45:00 PM 25.84 78.512 0.386 8.68 4.42 10.47
6/17/2022 1:00:00 PM 26.19 79.142 0.385 8.7 4.52 10.57
6/17/2022 1:15:00 PM 26.38 79.484 0.385 8.71 4.28 10.49
6/17/2022 1:30:00 PM 26.53 79.754 0.385 8.72 4.55 10.51
6/17/2022 1:45:00 PM 26.7 80.06 0.385 8.74 4.66 10.53
6/17/2022 2:00:00 PM 26.93 80.474 0.384 8.77 4.55 10.61
6/17/2022 2:15:00 PM 27.05 80.69 0.384 8.76 4.33 10.54
6/17/2022 2:30:00 PM 27.38 81.284 0.383 8.79 4.63 10.66
6/17/2022 2:45:00 PM 27.54 81.57201 0.383 8.81 4.34 10.59
6/17/2022 3:00:00 PM 27.62 81.716 0.382 8.83 4.44 10.54
6/17/2022 3:15:00 PM 27.75 81.95 0.382 8.83 4.17 10.43
6/17/2022 3:30:00 PM 27.61 81.698 0.382 8.82 4.29 10.31
6/17/2022 3:45:00 PM 27.6 81.68 0.381 8.82 4.55 10.34
6/17/2022 4:00:00 PM 27.59 81.662 0.381 8.82 4.36 10.19
6/17/2022 4:15:00 PM 27.57 81.626 0.381 8.81 4.23 10.05
6/17/2022 4:30:00 PM 27.43 81.374 0.382 8.8 4.29 9.95
6/17/2022 4:45:00 PM 27.18 80.924 0.382 8.79 4.47 9.87
6/17/2022 5:00:00 PM 26.9 80.42 0.382 8.8 4.04 9.79
6/17/2022 5:15:00 PM 26.71 80.078 0.382 8.79 4.18 9.66
6/17/2022 5:30:00 PM 26.59 79.862 0.382 8.76 4.37 9.54
6/17/2022 5:45:00 PM 26.31 79.358 0.383 8.75 4.08 9.41
6/17/2022 6:00:00 PM 26.09 78.962 0.383 8.73 4.12 9.37
6/17/2022 6:15:00 PM 25.79 78.422 0.384 8.72 3.99 9.29
6/17/2022 6:30:00 PM 25.62 78.116 0.384 8.7 4.14 9.22
6/17/2022 6:45:00 PM 25.34 77.612 0.384 8.67 4.04 9.11
6/17/2022 7:00:00 PM 25.11 77.198 0.385 8.65 3.96 8.97
6/17/2022 7:15:00 PM 24.81 76.658 0.386 8.61 3.98 8.78
6/17/2022 7:30:00 PM 24.55 76.19 0.387 8.58 3.97 8.6
6/17/2022 7:45:00 PM 24.33 75.794 0.387 8.54 3.77 8.44
6/17/2022 8:00:00 PM 24.18 75.524 0.388 8.5 4.04 8.26
6/17/2022 8:15:00 PM 24 75.2 0.388 8.46 4.02 8.07
6/17/2022 8:30:00 PM 23.85 74.93 0.389 8.38 4.05 7.8
6/17/2022 8:45:00 PM 23.69 74.642 0.39 8.3 3.98 7.57
6/17/2022 9:00:00 PM 23.58 74.444 0.39 8.24 3.93 7.34
6/17/2022 9:15:00 PM 23.48 74.264 0.391 8.17 4.08 7.13
6/17/2022 9:30:00 PM 23.36 74.048 0.391 8.11 3.99 7.01
6/17/2022 9:45:00 PM 23.28 73.904 0.392 8.07 3.95 6.88
6/17/2022 10:00:00 PM 23.17 73.706 0.392 8.02 4.42 6.78
6/17/2022 10:15:00 PM 23.03 73.454 0.393 7.98 4.08 6.72
6/17/2022 10:30:00 PM 22.89 73.202 0.393 7.94 4.13 6.68
6/17/2022 10:45:00 PM 22.77 72.986 0.393 7.92 4.05 6.63
6/17/2022 11:00:00 PM 22.6 72.68 0.393 7.89 3.96 6.6
6/17/2022 11:15:00 PM 22.49 72.482 0.394 7.86 4.21 6.6
6/17/2022 11:30:00 PM 22.35 72.23 0.394 7.84 4.33 6.6
6/17/2022 11:45:00 PM 22.23 72.014 0.394 7.83 4.19 6.59
6/18/2022 12:00:00 AM 22.07 71.726 0.394 7.82 4.63 6.58
6/18/2022 12:15:00 AM 21.94 71.492 0.394 7.81 4.21 6.59
6/18/2022 12:30:00 AM 21.76 71.168 0.394 7.8 4.34 6.64
6/18/2022 12:45:00 AM 21.63 70.934 0.394 7.79 4.38 6.68
6/18/2022 1:00:00 AM 21.47 70.646 0.395 7.78 4.31 6.67
6/18/2022 1:15:00 AM 21.35 70.43 0.395 7.78 4.67 6.73
6/18/2022 1:30:00 AM 21.24 70.232 0.395 7.78 4.55 6.73
6/18/2022 1:45:00 AM 21.11 69.998 0.395 7.77 5.18 6.76
6/18/2022 2:00:00 AM 20.97 69.746 0.395 7.77 4.43 6.79
6/18/2022 2:15:00 AM 20.88 69.584 0.395 7.77 4.55 6.82
6/18/2022 2:30:00 AM 20.79 69.422 0.395 7.76 4.73 6.82
6/18/2022 2:45:00 AM 20.69 69.242 0.395 7.76 5.07 6.84
6/18/2022 3:00:00 AM 20.61 69.098 0.395 7.75 4.93 6.84
6/18/2022 3:15:00 AM 20.52 68.936 0.395 7.75 4.96 6.86
6/18/2022 3:30:00 AM 20.4 68.72 0.395 7.75 5.08 6.93
6/18/2022 3:45:00 AM 20.33 68.594 0.395 7.75 4.64 6.92
6/18/2022 4:00:00 AM 20.26 68.468 0.395 7.75 4.97 6.95
6/18/2022 4:15:00 AM 20.18 68.324 0.396 7.75 5.31 6.98
6/18/2022 4:30:00 AM 20.1 68.18 0.396 7.75 5.11 6.97
6/18/2022 4:45:00 AM 20.03 68.054 0.396 7.74 5.27 6.95
6/18/2022 5:00:00 AM 19.97 67.946 0.396 7.74 5.44 6.96
6/18/2022 5:15:00 AM 19.87 67.766 0.396 7.74 5.91 7.01
6/18/2022 5:30:00 AM 19.76 67.568 0.396 7.74 5.27 7.02
6/18/2022 5:45:00 AM 19.7 67.46 0.396 7.75 5.41 7.05
6/18/2022 6:00:00 AM 19.62 67.316 0.396 7.75 5.2 7.06
6/18/2022 6:15:00 AM 19.55 67.19 0.396 7.76 5.11 7.2
6/18/2022 6:30:00 AM 19.5 67.1 0.396 7.77 5.42 7.29
6/18/2022 6:45:00 AM 19.41 66.938 0.396 7.77 5.21 7.31
6/18/2022 7:00:00 AM 19.35 66.83 0.397 7.78 5.02 7.44
6/18/2022 7:15:00 AM 19.24 66.632 0.397 7.79 4.87 7.55
6/18/2022 7:30:00 AM 19.19 66.542 0.397 7.8 5.15 7.66
6/18/2022 7:45:00 AM 19.12 66.416 0.397 7.82 5.25 7.8
6/18/2022 8:00:00 AM 19.03 66.254 0.398 7.83 5.19 7.87
6/18/2022 8:15:00 AM 18.98 66.164 0.398 7.85 5.36 8.04
6/18/2022 8:30:00 AM 18.98 66.164 0.398 7.89 5.36 8.33
6/18/2022 8:45:00 AM 18.95 66.11 0.398 7.92 4.97 8.57
6/18/2022 9:00:00 AM 18.92 66.056 0.398 7.96 5.11 8.77
6/18/2022 9:15:00 AM 18.85 65.93 0.398 7.99 4.8 8.99
6/18/2022 9:30:00 AM 18.8 65.84 0.398 8.04 5.09 9.28
6/18/2022 9:45:00 AM 18.83 65.894 0.397 8.12 4.99 9.6
6/18/2022 10:00:00 AM 18.77 65.786 0.397 8.14 4.5 9.7
6/18/2022 10:15:00 AM 18.76 65.768 0.397 8.16 4.53 9.75
6/18/2022 10:30:00 AM 18.73 65.714 0.397 8.19 4.35 9.85
6/18/2022 10:45:00 AM 18.67 65.606 0.397 8.22 4.75 10.03
6/18/2022 11:00:00 AM 18.73 65.714 0.397 8.29 4.49 10.24
6/18/2022 11:15:00 AM 18.74 65.732 0.396 8.32 4.6 10.36
6/18/2022 11:30:00 AM 19.1 66.38 0.396 8.38 4.47 10.57
6/18/2022 11:45:00 AM 19.45 67.01 0.396 8.4 4.91 10.6
6/18/2022 12:00:00 PM 19.5 67.1 0.395 8.44 4.32 10.77
6/18/2022 12:15:00 PM 19.89 67.802 0.395 8.5 4.31 11.03
6/18/2022 12:30:00 PM 20 68 0.394 8.53 4.42 11.13
6/18/2022 12:45:00 PM 20.25 68.45 0.394 8.58 4.47 11.26
6/18/2022 1:00:00 PM 20.78 69.404 0.394 8.62 4.38 11.36
6/18/2022 1:15:00 PM 21.01 69.818 0.393 8.65 4.37 11.46
6/18/2022 1:30:00 PM 21.36 70.448 0.393 8.68 4.31 11.49
6/18/2022 1:45:00 PM 21.61 70.898 0.393 8.69 4.7 11.52
6/18/2022 2:00:00 PM 21.99 71.582 0.392 8.72 4.49 11.58
6/18/2022 2:15:00 PM 22.38 72.284 0.391 8.75 4.54 11.59
6/18/2022 2:30:00 PM 22.74 72.932 0.391 8.76 4.58 11.56
6/18/2022 2:45:00 PM 23 73.4 0.39 8.79 4.33 11.56
6/18/2022 3:00:00 PM 23.25 73.85 0.39 8.81 4.69 11.47
6/18/2022 3:15:00 PM 23.44 74.192 0.389 8.83 4.61 11.43
6/18/2022 3:30:00 PM 23.63 74.534 0.389 8.84 4.52 11.35
6/18/2022 3:45:00 PM 23.78 74.804 0.389 8.85 4.5 11.32
6/18/2022 4:00:00 PM 23.94 75.092 0.389 8.86 4.57 11.27
6/18/2022 4:15:00 PM 23.98 75.164 0.389 8.85 4.58 11.13
6/18/2022 4:30:00 PM 24.02 75.236 0.389 8.85 4.64 11.12
6/18/2022 4:45:00 PM 23.91 75.038 0.389 8.85 4.6 10.96
6/18/2022 5:00:00 PM 23.77 74.786 0.389 8.85 4.22 10.91
6/18/2022 5:15:00 PM 23.6 74.48 0.389 8.84 4.5 10.75
6/18/2022 5:30:00 PM 23.34 74.012 0.389 8.84 4.23 10.61
6/18/2022 5:45:00 PM 23.15 73.67 0.389 8.83 4.3 10.53
6/18/2022 6:00:00 PM 22.92 73.256 0.389 8.82 4.04 10.41
6/18/2022 6:15:00 PM 22.55 72.59 0.39 8.79 4.34 10.25
6/18/2022 6:30:00 PM 22.23 72.014 0.39 8.77 3.95 10.14
6/18/2022 6:45:00 PM 21.9 71.42 0.391 8.75 3.85 10.05
6/18/2022 7:00:00 PM 21.61 70.898 0.391 8.72 3.82 9.96
6/18/2022 7:15:00 PM 21.29 70.32201 0.392 8.7 3.82 9.85
6/18/2022 7:30:00 PM 20.98 69.764 0.392 8.66 3.89 9.73
6/18/2022 7:45:00 PM 20.63 69.134 0.393 8.62 3.69 9.6
6/18/2022 8:00:00 PM 20.35 68.63 0.394 8.58 3.9 9.44
6/18/2022 8:15:00 PM 20.08 68.144 0.394 8.53 3.87 9.28
6/18/2022 8:30:00 PM 19.83 67.694 0.395 8.47 3.82 9.08
6/18/2022 8:45:00 PM 19.56 67.208 0.396 8.4 3.75 8.81
6/18/2022 9:00:00 PM 19.34 66.812 0.397 8.33 3.86 8.59
6/18/2022 9:15:00 PM 19.16 66.488 0.397 8.26 3.77 8.39
6/18/2022 9:30:00 PM 19 66.2 0.398 8.2 3.84 8.25
6/18/2022 9:45:00 PM 18.85 65.93 0.398 8.15 4.3 8.1
6/18/2022 10:00:00 PM 18.7 65.66 0.398 8.1 4.19 8
6/18/2022 10:15:00 PM 18.59 65.462 0.398 8.06 4.12 7.9
6/18/2022 10:30:00 PM 18.46 65.228 0.399 8.03 3.68 7.84
6/18/2022 10:45:00 PM 18.33 64.994 0.399 7.99 3.94 7.79
6/18/2022 11:00:00 PM 18.22 64.796 0.399 7.96 3.71 7.75
6/18/2022 11:15:00 PM 18.11 64.598 0.399 7.94 4.07 7.7
6/18/2022 11:30:00 PM 17.98 64.364 0.399 7.93 3.88 7.71
6/18/2022 11:45:00 PM 17.86 64.148 0.399 7.91 4.1 7.69
6/19/2022 12:00:00 AM 17.75 63.95 0.399 7.89 4.07 7.69
6/19/2022 12:15:00 AM 17.63 63.734 0.4 7.88 4.15 7.7
6/19/2022 12:30:00 AM 17.52 63.536 0.4 7.87 4 7.71
6/19/2022 12:45:00 AM 17.41 63.338 0.4 7.86 3.91 7.7
6/19/2022 1:00:00 AM 17.28 63.104 0.4 7.85 4.71 7.72
6/19/2022 1:15:00 AM 17.16 62.888 0.4 7.84 4.22 7.76
6/19/2022 1:30:00 AM 17.05 62.69 0.4 7.84 4.06 7.77
6/19/2022 1:45:00 AM 16.92 62.456 0.4 7.83 4.16 7.81
6/19/2022 2:00:00 AM 16.82 62.276 0.4 7.83 4.22 7.83
6/19/2022 2:15:00 AM 16.71 62.078 0.4 7.83 4.13 7.85
6/19/2022 2:30:00 AM 16.6 61.88 0.4 7.82 4.32 7.85
6/19/2022 2:45:00 AM 16.5 61.7 0.401 7.82 4.25 7.89
6/19/2022 3:00:00 AM 16.41 61.538 0.401 7.81 4.41 7.9
6/19/2022 3:15:00 AM 16.31 61.358 0.401 7.81 4.36 7.94
6/19/2022 3:30:00 AM 16.22 61.196 0.401 7.81 5.15 7.96
6/19/2022 3:45:00 AM 16.12 61.016 0.401 7.8 4.57 7.97
6/19/2022 4:00:00 AM 16.04 60.872 0.401 7.8 4.96 7.99
6/19/2022 4:15:00 AM 15.95 60.71 0.402 7.8 4.74 8
6/19/2022 4:30:00 AM 15.88 60.584 0.402 7.79 4.44 8.01
6/19/2022 4:45:00 AM 15.79 60.422 0.402 7.79 4.64 8.04
6/19/2022 5:00:00 AM 15.71 60.278 0.402 7.79 4.65 8.08
6/19/2022 5:15:00 AM 15.63 60.134 0.402 7.79 4.16 8.08
6/19/2022 5:30:00 AM 15.54 59.972 0.402 7.79 4.53 8.13
6/19/2022 5:45:00 AM 15.46 59.828 0.402 7.79 4.28 8.16
6/19/2022 6:00:00 AM 15.39 59.702 0.402 7.79 4.61 8.2
6/19/2022 6:15:00 AM 15.33 59.594 0.402 7.81 4.33 8.26
6/19/2022 6:30:00 AM 15.28 59.504 0.402 7.82 4.35 8.35
6/19/2022 6:45:00 AM 15.24 59.432 0.402 7.82 4.28 8.45
6/19/2022 7:00:00 AM 15.2 59.36 0.402 7.83 4.22 8.58
6/19/2022 7:15:00 AM 15.2 59.36 0.402 7.85 4.16 8.69
6/19/2022 7:30:00 AM 15.2 59.36 0.401 7.87 4.19 8.85
6/19/2022 7:45:00 AM 15.17 59.306 0.401 7.89 4.4 8.99
6/19/2022 8:00:00 AM 15.2 59.36 0.401 7.91 4.22 9.15
6/19/2022 8:15:00 AM 15.24 59.432 0.401 7.94 4.49 9.31
6/19/2022 8:30:00 AM 15.28 59.504 0.401 7.96 4.84 9.44
6/19/2022 8:45:00 AM 15.36 59.648 0.401 7.98 4.38 9.6
6/19/2022 9:00:00 AM 15.47 59.846 0.4 8.02 4.15 9.74
6/19/2022 9:15:00 AM 15.63 60.134 0.4 8.06 4.28 9.94
6/19/2022 9:30:00 AM 15.86 60.548 0.4 8.1 4.35 10.07
6/19/2022 9:45:00 AM 16.11 60.998 0.4 8.13 4 10.22
6/19/2022 10:00:00 AM 16.43 61.574 0.399 8.18 4.45 10.39
6/19/2022 10:15:00 AM 16.69 62.042 0.399 8.21 4.11 10.47
6/19/2022 10:30:00 AM 17.05 62.69 0.399 8.25 3.98 10.58
6/19/2022 10:45:00 AM 17.39 63.302 0.399 8.28 5 10.69
6/19/2022 11:00:00 AM 17.77 63.986 0.398 8.33 4.41 10.83
6/19/2022 11:15:00 AM 18.26 64.868 0.398 8.39 4.05 10.99
6/19/2022 11:30:00 AM 18.62 65.516 0.397 8.42 3.73 11.07
6/19/2022 11:45:00 AM 19.12 66.416 0.397 8.48 3.89 11.28
6/19/2022 12:00:00 PM 19.59 67.262 0.396 8.52 4.05 11.33
6/19/2022 12:15:00 PM 20.12 68.216 0.395 8.59 4.07 11.47
6/19/2022 12:30:00 PM 20.59 69.062 0.395 8.63 4.68 11.59
6/19/2022 12:45:00 PM 21.12 70.016 0.394 8.67 4.18 11.62
6/19/2022 1:00:00 PM 21.6 70.88 0.394 8.72 4.33 11.74
6/19/2022 1:15:00 PM 22.21 71.978 0.393 8.76 4.74 11.88
6/19/2022 1:30:00 PM 22.71 72.878 0.392 8.8 4.3 11.91
6/19/2022 1:45:00 PM 23.18 73.724 0.391 8.83 4.19 11.91
6/19/2022 2:00:00 PM 23.61 74.498 0.39 8.86 4.15 11.85
6/19/2022 2:15:00 PM 23.94 75.092 0.39 8.89 4.1 11.83
6/19/2022 2:30:00 PM 24.22 75.596 0.389 8.9 5.95 11.86
6/19/2022 2:45:00 PM 24.43 75.974 0.389 8.91 4.48 11.85
6/19/2022 3:00:00 PM 24.68 76.424 0.388 8.93 4.06 11.75
6/19/2022 3:15:00 PM 24.82 76.676 0.388 8.94 5.7 11.73
6/19/2022 3:30:00 PM 24.92 76.856 0.387 8.94 4.51 11.7
6/19/2022 3:45:00 PM 24.96 76.92799 0.388 8.95 4.04 11.64
6/19/2022 4:00:00 PM 24.99 76.982 0.387 8.95 4.08 11.55
6/19/2022 4:15:00 PM 25.01 77.018 0.386 8.95 3.95 11.48
6/19/2022 4:30:00 PM 24.95 76.91 0.386 8.95 4.05 11.3
6/19/2022 4:45:00 PM 24.85 76.73 0.387 8.94 4.31 11.24
6/19/2022 5:00:00 PM 24.76 76.568 0.387 8.95 4.15 11.14
6/19/2022 5:15:00 PM 24.55 76.19 0.388 8.93 4.48 11.01
6/19/2022 5:30:00 PM 24.33 75.794 0.388 8.93 3.95 10.93
6/19/2022 5:45:00 PM 24.03 75.254 0.389 8.91 3.94 10.77
6/19/2022 6:00:00 PM 23.75 74.75 0.389 8.9 3.79 10.64
6/19/2022 6:15:00 PM 23.4 74.12 0.389 8.88 4.17 10.51
6/19/2022 6:30:00 PM 23.02 73.436 0.39 8.88 3.49 10.44
6/19/2022 6:45:00 PM 22.76 72.968 0.391 8.85 3.82 10.31
6/19/2022 7:00:00 PM 22.4 72.32 0.392 8.82 3.64 10.12
6/19/2022 7:15:00 PM 22.07 71.726 0.393 8.79 3.53 10.02
6/19/2022 7:30:00 PM 21.71 71.078 0.394 8.76 3.46 9.9
6/19/2022 7:45:00 PM 21.47 70.646 0.395 8.73 3.57 9.74
6/19/2022 8:00:00 PM 21.21 70.17799 0.396 8.7 3.62 9.58
6/19/2022 8:15:00 PM 20.93 69.674 0.397 8.64 3.61 9.41
6/19/2022 8:30:00 PM 20.66 69.188 0.398 8.59 3.41 9.18
6/19/2022 8:45:00 PM 20.41 68.738 0.399 8.52 3.48 8.89
6/19/2022 9:00:00 PM 20.13 68.234 0.4 8.45 3.39 8.65
6/19/2022 9:15:00 PM 19.89 67.802 0.401 8.36 3.9 8.35
6/19/2022 9:30:00 PM 19.65 67.37 0.401 8.3 3.78 8.18
6/19/2022 9:45:00 PM 19.46 67.028 0.402 8.24 3.93 8
6/19/2022 10:00:00 PM 19.25 66.65 0.403 8.18 3.92 7.86
6/19/2022 10:15:00 PM 19.07 66.326 0.403 8.11 3.53 7.75
6/19/2022 10:30:00 PM 18.89 66.002 0.404 8.08 3.47 7.71
6/19/2022 10:45:00 PM 18.72 65.696 0.404 8.02 3.61 7.61
6/19/2022 11:00:00 PM 18.54 65.372 0.404 8 3.44 7.55
6/19/2022 11:15:00 PM 18.36 65.048 0.405 7.97 3.63 7.57
6/19/2022 11:30:00 PM 18.19 64.742 0.405 7.95 3.97 7.55
6/19/2022 11:45:00 PM 18.04 64.472 0.405 7.92 3.61 7.55
6/20/2022 12:00:00 AM 17.88 64.184 0.405 7.9 3.8 7.53
6/20/2022 12:15:00 AM 17.72 63.896 0.406 7.88 3.74 7.54
6/20/2022 12:30:00 AM 17.56 63.608 0.406 7.87 3.47 7.57
6/20/2022 12:45:00 AM 17.44 63.392 0.406 7.86 3.62 7.59
6/20/2022 1:00:00 AM 17.3 63.14 0.406 7.85 3.64 7.56
6/20/2022 1:15:00 AM 17.16 62.888 0.406 7.84 3.74 7.62
6/20/2022 1:30:00 AM 17.04 62.672 0.407 7.84 3.66 7.57
6/20/2022 1:45:00 AM 16.91 62.438 0.407 7.82 3.75 7.66
6/20/2022 2:00:00 AM 16.79 62.222 0.407 7.82 3.75 7.66
6/20/2022 2:15:00 AM 16.67 62.006 0.407 7.81 3.81 7.7
6/20/2022 2:30:00 AM 16.56 61.808 0.407 7.81 3.96 7.71
6/20/2022 2:45:00 AM 16.46 61.628 0.408 7.81 3.85 7.75
6/20/2022 3:00:00 AM 16.34 61.412 0.408 7.8 3.77 7.78
6/20/2022 3:15:00 AM 16.23 61.214 0.408 7.79 4.2 7.78
6/20/2022 3:30:00 AM 16.13 61.034 0.408 7.79 4 7.8
6/20/2022 3:45:00 AM 16.06 60.908 0.408 7.78 3.8 7.84
6/20/2022 4:00:00 AM 15.99 60.782 0.409 7.79 4.34 7.87
6/20/2022 4:15:00 AM 15.93 60.674 0.409 7.79 4.05 7.87
6/20/2022 4:30:00 AM 15.88 60.584 0.409 7.77 3.94 7.9
6/20/2022 4:45:00 AM 15.82 60.476 0.409 7.77 4.27 7.91
6/20/2022 5:00:00 AM 15.77 60.386 0.41 7.77 4.05 7.95
6/20/2022 5:15:00 AM 15.71 60.278 0.41 7.77 3.97 7.94
6/20/2022 5:30:00 AM 15.68 60.224 0.41 7.77 3.83 7.98
6/20/2022 5:45:00 AM 15.63 60.134 0.41 7.77 4.18 7.99
6/20/2022 6:00:00 AM 15.62 60.116 0.41 7.78 4.13 8.02
6/20/2022 6:15:00 AM 15.61 60.098 0.41 7.78 4.04 8.16
6/20/2022 6:30:00 AM 15.62 60.116 0.41 7.8 3.95 8.25
6/20/2022 6:45:00 AM 15.64 60.152 0.41 7.8 4.31 8.31
6/20/2022 7:00:00 AM 15.68 60.224 0.41 7.82 4.02 8.47
6/20/2022 7:15:00 AM 15.73 60.314 0.41 7.84 4.17 8.71
6/20/2022 7:30:00 AM 15.79 60.422 0.409 7.87 4.02 8.84
6/20/2022 7:45:00 AM 15.86 60.548 0.409 7.9 4.2 9.06
6/20/2022 8:00:00 AM 16.02 60.836 0.409 7.93 4.24 9.31
6/20/2022 8:15:00 AM 16.13 61.034 0.408 7.97 3.89 9.48
6/20/2022 8:30:00 AM 16.28 61.304 0.408 8 4.37 9.69
6/20/2022 8:45:00 AM 16.42 61.556 0.407 8.03 4.09 9.78
6/20/2022 9:00:00 AM 16.5 61.7 0.407 8.08 3.93 10
6/20/2022 9:15:00 AM 16.69 62.042 0.406 8.11 3.88 10.14
6/20/2022 9:30:00 AM 16.92 62.456 0.405 8.18 3.81 10.41
6/20/2022 9:45:00 AM 17.19 62.942 0.405 8.22 4.09 10.59
6/20/2022 10:00:00 AM 17.45 63.41 0.405 8.25 4.05 10.62
6/20/2022 10:15:00 AM 17.73 63.914 0.404 8.27 4.18 10.65
6/20/2022 10:30:00 AM 18.06 64.508 0.404 8.29 3.9 10.7
6/20/2022 10:45:00 AM 18.4 65.12 0.404 8.31 3.94 10.69
6/20/2022 11:00:00 AM 18.76 65.768 0.403 8.34 3.86 10.77
6/20/2022 11:15:00 AM 19.28 66.704 0.403 8.39 3.9 10.99
6/20/2022 11:30:00 AM 19.69 67.442 0.402 8.42 3.82 11.07
6/20/2022 11:45:00 AM 20.1 68.18 0.402 8.46 4.27 11.13
6/20/2022 12:00:00 PM 20.67 69.206 0.401 8.53 3.73 11.3
6/20/2022 12:15:00 PM 21.25 70.25 0.4 8.58 3.92 11.3
6/20/2022 12:30:00 PM 21.74 71.132 0.4 8.64 4.05 11.54
6/20/2022 12:45:00 PM 22.25 72.05 0.399 8.69 4.23 11.64
6/20/2022 1:00:00 PM 22.81 73.058 0.398 8.73 3.98 11.63
6/20/2022 1:15:00 PM 23.29 73.922 0.397 8.76 4.1 11.74
6/20/2022 1:30:00 PM 23.72 74.696 0.397 8.78 4.31 11.73
6/20/2022 1:45:00 PM 24.03 75.254 0.396 8.78 4.43 11.62
6/20/2022 2:00:00 PM 24.36 75.848 0.395 8.8 3.88 11.59
6/20/2022 2:15:00 PM 24.56 76.208 0.395 8.82 4.42 11.67
6/20/2022 2:30:00 PM 24.77 76.586 0.394 8.78 4.5 11.47
6/20/2022 2:45:00 PM 24.96 76.92799 0.394 8.83 3.85 11.48
6/20/2022 3:00:00 PM 25.13 77.234 0.393 8.82 3.79 11.33
6/20/2022 3:15:00 PM 25.26 77.468 0.392 8.83 3.93 11.21
6/20/2022 3:30:00 PM 25.33 77.594 0.392 8.8 3.67 11.08
6/20/2022 3:45:00 PM 25.49 77.882 0.392 8.83 4.01 11.13
6/20/2022 4:00:00 PM 25.83 78.494 0.391 8.9 3.94 11.15
6/20/2022 4:15:00 PM 25.69 78.242 0.39 8.85 3.84 11.05
6/20/2022 4:30:00 PM 25.79 78.422 0.39 8.89 4.06 11.03
6/20/2022 4:45:00 PM 25.98 78.764 0.389 8.9 3.97 10.92
6/20/2022 5:00:00 PM 25.89 78.602 0.389 8.89 3.83 10.89
6/20/2022 5:15:00 PM 25.86 78.548 0.389 8.9 4.24 10.79
6/20/2022 5:30:00 PM 25.86 78.548 0.389 8.93 3.97 10.69
6/20/2022 5:45:00 PM 25.72 78.296 0.389 8.93 4.28 10.67
6/20/2022 6:00:00 PM 25.5 77.9 0.389 8.92 4 10.45
6/20/2022 6:15:00 PM 25.29 77.522 0.389 8.92 4.1 10.36
6/20/2022 6:30:00 PM 25.02 77.036 0.39 8.9 3.57 10.21
6/20/2022 6:45:00 PM 24.74 76.532 0.391 8.87 3.57 10.1
6/20/2022 7:00:00 PM 24.5 76.1 0.392 8.85 3.9 9.92
6/20/2022 7:15:00 PM 24.22 75.596 0.393 8.82 3.47 9.64
6/20/2022 7:30:00 PM 23.91 75.038 0.394 8.8 3.71 9.62
6/20/2022 7:45:00 PM 23.71 74.67799 0.395 8.77 3.51 9.48
6/20/2022 8:00:00 PM 23.49 74.282 0.397 8.74 3.47 9.28
6/20/2022 8:15:00 PM 23.21 73.778 0.398 8.69 3.56 9.07
6/20/2022 8:30:00 PM 22.96 73.328 0.4 8.64 3.52 8.84
6/20/2022 8:45:00 PM 22.7 72.86 0.401 8.57 3.5 8.56
6/20/2022 9:00:00 PM 22.46 72.42799 0.403 8.49 3.44 8.32
6/20/2022 9:15:00 PM 22.23 72.014 0.404 8.41 3.72 8.03
6/20/2022 9:30:00 PM 22.02 71.636 0.406 8.32 3.81 7.8
6/20/2022 9:45:00 PM 21.79 71.222 0.406 8.26 3.65 7.65
6/20/2022 10:00:00 PM 21.59 70.862 0.407 8.18 3.54 7.45
6/20/2022 10:15:00 PM 21.39 70.502 0.408 8.11 3.78 7.33
6/20/2022 10:30:00 PM 21.21 70.17799 0.409 8.05 3.64 7.17
6/20/2022 10:45:00 PM 21.03 69.854 0.409 8.01 3.72 7.13
6/20/2022 11:00:00 PM 20.87 69.566 0.409 7.97 3.76 7.03
6/20/2022 11:15:00 PM 20.72 69.296 0.41 7.93 3.62 6.97
6/20/2022 11:30:00 PM 20.58 69.044 0.41 7.9 3.58 6.93
6/20/2022 11:45:00 PM 20.44 68.792 0.41 7.88 3.45 6.92
6/21/2022 12:00:00 AM 20.31 68.558 0.41 7.86 3.85 6.93
6/21/2022 12:15:00 AM 20.19 68.342 0.41 7.85 3.56 6.89
6/21/2022 12:30:00 AM 20.09 68.162 0.41 7.83 3.52 6.9
6/21/2022 12:45:00 AM 20 68 0.41 7.82 4.05 6.92
6/21/2022 1:00:00 AM 19.91 67.838 0.411 7.82 3.43 6.89
6/21/2022 1:15:00 AM 19.82 67.676 0.411 7.8 3.62 6.89
6/21/2022 1:30:00 AM 19.73 67.514 0.411 7.79 3.7 6.92
6/21/2022 1:45:00 AM 19.66 67.388 0.411 7.78 16.52 6.87
6/21/2022 2:00:00 AM 19.6 67.28 0.411 7.78 3.91 6.92
6/21/2022 2:15:00 AM 19.54 67.172 0.412 7.76 3.7 6.89
6/21/2022 2:30:00 AM 19.49 67.082 0.412 7.76 3.77 6.95
6/21/2022 2:45:00 AM 19.45 67.01 0.412 7.75 3.59 6.92
6/21/2022 3:00:00 AM 19.4 66.92 0.412 7.75 3.82 6.96
6/21/2022 3:15:00 AM 19.35 66.83 0.412 7.74 3.87 6.97
6/21/2022 3:30:00 AM 19.3 66.74 0.413 7.74 4.15 6.92
6/21/2022 3:45:00 AM 19.25 66.65 0.413 7.74 3.65 6.98
6/21/2022 4:00:00 AM 19.2 66.56 0.413 7.73 3.46 6.98
6/21/2022 4:15:00 AM 19.15 66.47 0.414 7.73 3.84 7
6/21/2022 4:30:00 AM 19.11 66.398 0.414 7.73 4.23 6.99
6/21/2022 4:45:00 AM 19.04 66.272 0.414 7.72 4.49 6.99
6/21/2022 5:00:00 AM 19 66.2 0.415 7.72 4.18 7
6/21/2022 5:15:00 AM 18.96 66.128 0.415 7.71 6.05 7.02
6/21/2022 5:30:00 AM 18.93 66.074 0.416 7.71 3.88 6.96
6/21/2022 5:45:00 AM 18.87 65.966 0.416 7.72 4.64 7.03
6/21/2022 6:00:00 AM 18.82 65.876 0.416 7.72 5.21 7.09
6/21/2022 6:15:00 AM 18.78 65.804 0.416 7.73 3.85 7.08
6/21/2022 6:30:00 AM 18.75 65.75 0.416 7.73 4.19 7.21
6/21/2022 6:45:00 AM 18.73 65.714 0.417 7.73 4.48 7.29
6/21/2022 7:00:00 AM 18.7 65.66 0.417 7.74 3.75 7.34
6/21/2022 7:15:00 AM 18.69 65.642 0.417 7.75 3.71 7.41
6/21/2022 7:30:00 AM 18.68 65.624 0.417 7.76 4.23 7.51
6/21/2022 7:45:00 AM 18.66 65.588 0.417 7.77 3.86 7.52
6/21/2022 8:00:00 AM 18.68 65.624 0.417 7.78 3.97 7.76
6/21/2022 8:15:00 AM 18.68 65.624 0.417 7.8 3.99 7.85
6/21/2022 8:30:00 AM 18.72 65.696 0.417 7.83 3.77 8.11
6/21/2022 8:45:00 AM 18.8 65.84 0.416 7.86 3.99 8.3
6/21/2022 9:00:00 AM 18.93 66.074 0.416 7.88 4.03 8.47
6/21/2022 9:15:00 AM 19.02 66.236 0.416 7.92 3.77 8.73
6/21/2022 9:30:00 AM 19.11 66.398 0.416 7.95 3.93 8.87
6/21/2022 9:45:00 AM 19.26 66.668 0.415 8 3.88 9.21
6/21/2022 10:00:00 AM 19.36 66.848 0.415 8.04 4.03 9.36
6/21/2022 10:15:00 AM 19.55 67.19 0.414 8.11 3.84 9.77
6/21/2022 10:30:00 AM 19.65 67.37 0.413 8.16 3.84 9.91
6/21/2022 10:45:00 AM 19.71 67.478 0.413 8.19 3.74 9.98
6/21/2022 11:00:00 AM 19.93 67.874 0.412 8.26 3.77 10.29
6/21/2022 11:15:00 AM 20.29 68.522 0.411 8.34 3.65 10.51
6/21/2022 11:30:00 AM 20.55 68.99 0.411 8.39 3.64 10.7
6/21/2022 11:45:00 AM 20.85 69.53 0.41 8.42 3.65 10.79
6/21/2022 12:00:00 PM 21.27 70.286 0.41 8.44 3.9 10.86
6/21/2022 12:15:00 PM 21.58 70.844 0.409 8.47 3.68 10.93
6/21/2022 12:30:00 PM 22.02 71.636 0.408 8.52 3.93 11.01
6/21/2022 12:45:00 PM 22.56 72.608 0.407 8.58 3.78 11.33
6/21/2022 1:00:00 PM 23.01 73.418 0.406 8.62 3.9 11.4
6/21/2022 1:15:00 PM 23.49 74.282 0.405 8.66 4.02 11.4
6/21/2022 1:30:00 PM 24.04 75.272 0.404 8.7 3.56 11.6
6/21/2022 1:45:00 PM 24.35 75.83 0.404 8.7 3.7 11.45
6/21/2022 2:00:00 PM 24.34 75.812 0.404 8.66 3.54 11.17
6/21/2022 2:15:00 PM 24.31 75.758 0.403 8.55 3.44 10.72
6/21/2022 2:30:00 PM 24.77 76.586 0.402 8.58 3.87 10.79
6/21/2022 2:45:00 PM 24.62 76.316 0.403 8.48 3.12 10.46
6/21/2022 3:00:00 PM 24.91 76.838 0.402 8.5 3.27 10.38
6/21/2022 3:15:00 PM 25.42 77.756 0.402 8.54 3.17 10.4
6/21/2022 3:30:00 PM 25.53 77.954 0.401 8.52 3.19 10.28
6/21/2022 3:45:00 PM 25.84 78.512 0.401 8.54 3.12 10.12
6/21/2022 4:00:00 PM 26.07 78.926 0.4 8.55 3.25 10.1
6/21/2022 4:15:00 PM 26.35 79.43 0.4 8.57 3.28 10.02
6/21/2022 4:30:00 PM 26.47 79.646 0.399 8.54 3.3 9.86
6/21/2022 4:45:00 PM 26.52 79.736 0.399 8.54 3.44 9.63
6/21/2022 5:00:00 PM 26.72 80.096 0.399 8.56 3.14 9.6
6/21/2022 5:15:00 PM 26.75 80.15 0.399 8.52 3.16 9.37
6/21/2022 5:30:00 PM 26.89 80.402 0.398 8.55 3.88 9.23
6/21/2022 5:45:00 PM 26.99 80.582 0.399 8.55 3.06 9.14
6/21/2022 6:00:00 PM 27.14 80.852 0.398 8.62 3.22 9.01
6/21/2022 6:15:00 PM 27.38 81.284 0.398 8.67 3.39 9.16
6/21/2022 6:30:00 PM 27.38 81.284 0.398 8.69 3.61 8.98
6/21/2022 6:45:00 PM 27.39 81.302 0.398 8.73 3.7 8.99
6/21/2022 7:00:00 PM 27.33 81.194 0.399 8.72 3.45 8.99
6/21/2022 7:15:00 PM 27.23 81.014 0.399 8.73 3.44 8.89
6/21/2022 7:30:00 PM 27.08 80.744 0.4 8.71 3.77 8.74
6/21/2022 7:45:00 PM 26.91 80.438 0.401 8.69 3.58 8.57
6/21/2022 8:00:00 PM 26.63 79.934 0.402 8.65 3.52 8.42
6/21/2022 8:15:00 PM 26.35 79.43 0.404 8.6 3.5 8.28
6/21/2022 8:30:00 PM 26.13 79.034 0.405 8.55 4.03 8.12
6/21/2022 8:45:00 PM 25.91 78.638 0.407 8.48 3.83 7.82
6/21/2022 9:00:00 PM 25.65 78.17 0.408 8.41 3.56 7.55
6/21/2022 9:15:00 PM 25.38 77.684 0.41 8.32 3.62 7.34
6/21/2022 9:30:00 PM 25.15 77.27 0.412 8.23 5.15 7.11
6/21/2022 9:45:00 PM 24.91 76.838 0.413 8.14 4.1 6.84
6/21/2022 10:00:00 PM 24.69 76.442 0.414 8.08 3.49 6.72
6/21/2022 10:15:00 PM 24.46 76.028 0.415 8.01 3.99 6.55
6/21/2022 10:30:00 PM 24.26 75.668 0.416 7.96 4.11 6.44
6/21/2022 10:45:00 PM 24.08 75.344 0.416 7.91 3.46 6.35
6/21/2022 11:00:00 PM 23.88 74.984 0.417 7.89 3.84 6.33
6/21/2022 11:15:00 PM 23.71 74.67799 0.417 7.85 3.46 6.21
6/21/2022 11:30:00 PM 23.55 74.39 0.418 7.83 3.52 6.15
6/21/2022 11:45:00 PM 23.39 74.102 0.419 7.81 3.41 6.11
6/22/2022 12:00:00 AM 23.25 73.85 0.419 7.79 3.62 6.06
6/22/2022 12:15:00 AM 23.11 73.598 0.42 7.77 3.44 6.09
6/22/2022 12:30:00 AM 22.98 73.364 0.42 7.77 4.1 6.12
6/22/2022 12:45:00 AM 22.87 73.166 0.42 7.75 3.28 6.11
6/22/2022 1:00:00 AM 22.76 72.968 0.421 7.75 3.58 6.13
6/22/2022 1:15:00 AM 22.65 72.77 0.421 7.73 3.35 6.13
6/22/2022 1:30:00 AM 22.54 72.57201 0.422 7.73 3.76 6.1
6/22/2022 1:45:00 AM 22.46 72.42799 0.422 7.72 3.73 6.13
6/22/2022 2:00:00 AM 22.36 72.248 0.422 7.71 3.44 6.13
6/22/2022 2:15:00 AM 22.28 72.104 0.423 7.71 4.11 6.12
6/22/2022 2:30:00 AM 22.19 71.942 0.423 7.7 3.57 6.16
6/22/2022 2:45:00 AM 22.12 71.816 0.423 7.7 4.08 6.13
6/22/2022 3:00:00 AM 22.06 71.708 0.424 7.69 5.18 6.1
6/22/2022 3:15:00 AM 21.99 71.582 0.424 7.69 3.72 6.17
6/22/2022 3:30:00 AM 21.93 71.474 0.425 7.69 4.06 6.16
6/22/2022 3:45:00 AM 21.86 71.348 0.425 7.68 3.7 6.22
6/22/2022 4:00:00 AM 21.81 71.258 0.425 7.69 3.66 6.22
6/22/2022 4:15:00 AM 21.74 71.132 0.426 7.68 3.79 6.17
6/22/2022 4:30:00 AM 21.68 71.024 0.426 7.68 4.58 6.19
6/22/2022 4:45:00 AM 21.62 70.916 0.427 7.67 4.97 6.2
6/22/2022 5:00:00 AM 21.56 70.808 0.427 7.67 6.4 6.24
6/22/2022 5:15:00 AM 21.5 70.7 0.427 7.67 4.06 6.24
6/22/2022 5:30:00 AM 21.45 70.61 0.428 7.67 3.82 6.25
6/22/2022 5:45:00 AM 21.39 70.502 0.428 7.67 4.41 6.28
6/22/2022 6:00:00 AM 21.35 70.43 0.428 7.67 4.24 6.26
6/22/2022 6:15:00 AM 21.31 70.358 0.428 7.68 3.77 6.34
6/22/2022 6:30:00 AM 21.29 70.32201 0.428 7.69 3.56 6.42
6/22/2022 6:45:00 AM 21.27 70.286 0.429 7.69 4.05 6.59
6/22/2022 7:00:00 AM 21.25 70.25 0.428 7.7 4.03 6.71
6/22/2022 7:15:00 AM 21.25 70.25 0.428 7.72 4.05 6.87
6/22/2022 7:30:00 AM 21.26 70.268 0.428 7.74 4.14 7.01
6/22/2022 7:45:00 AM 21.29 70.32201 0.428 7.76 4.02 7.28
6/22/2022 8:00:00 AM 21.35 70.43 0.428 7.79 3.96 7.48
6/22/2022 8:15:00 AM 21.48 70.664 0.428 7.83 3.98 7.81
6/22/2022 8:30:00 AM 21.56 70.808 0.428 7.86 3.65 7.99
6/22/2022 8:45:00 AM 21.67 71.006 0.427 7.89 4.01 8.23
6/22/2022 9:00:00 AM 21.8 71.24 0.427 7.92 4.1 8.45
6/22/2022 9:15:00 AM 21.95 71.51 0.426 7.97 3.77 8.7
6/22/2022 9:30:00 AM 22.19 71.942 0.426 8.05 3.76 9.09
6/22/2022 9:45:00 AM 22.4 72.32 0.425 8.08 3.91 9.2
6/22/2022 10:00:00 AM 22.56 72.608 0.425 8.1 3.92 9.28
6/22/2022 10:15:00 AM 22.81 73.058 0.425 8.15 3.95 9.45
6/22/2022 10:30:00 AM 22.99 73.382 0.424 8.18 4.13 9.59
6/22/2022 10:45:00 AM 23.28 73.904 0.423 8.24 4.39 9.82
6/22/2022 11:00:00 AM 23.37 74.066 0.423 8.27 4.29 9.87
6/22/2022 11:15:00 AM 23.56 74.408 0.422 8.31 4.21 9.98
6/22/2022 11:30:00 AM 23.8 74.84 0.421 8.39 4.07 10.24
6/22/2022 11:45:00 AM 23.94 75.092 0.42 8.41 4.16 10.11
6/22/2022 12:00:00 PM 24.32 75.776 0.419 8.48 4.03 10.32
6/22/2022 12:15:00 PM 24.74 76.532 0.418 8.54 3.83 10.64
6/22/2022 12:30:00 PM 24.97 76.946 0.417 8.56 4.09 10.65
6/22/2022 12:45:00 PM 25.27 77.486 0.416 8.61 4.02 10.78
6/22/2022 1:00:00 PM 25.53 77.954 0.416 8.62 3.75 10.69
6/22/2022 1:15:00 PM 25.93 78.674 0.415 8.62 3.46 10.72
6/22/2022 1:30:00 PM 26.12 79.016 0.414 8.56 3.5 10.51
6/22/2022 1:45:00 PM 26.24 79.232 0.415 8.56 3.47 10.26
6/22/2022 2:00:00 PM 26.28 79.304 0.414 8.47 3.49 9.99
6/22/2022 2:15:00 PM 26.29 79.32201 0.414 8.41 3.45 9.76
6/22/2022 2:30:00 PM 26.39 79.502 0.414 8.36 2.77 9.45
6/22/2022 2:45:00 PM 26.76 80.168 0.413 8.4 3.36 9.57
6/22/2022 3:00:00 PM 27.1 80.78 0.412 8.41 3.11 9.56
6/22/2022 3:15:00 PM 27.34 81.212 0.412 8.42 3.05 9.42
6/22/2022 3:30:00 PM 27.42 81.356 0.411 8.4 3.21 9.31
6/22/2022 3:45:00 PM 27.67 81.806 0.411 8.41 3.11 9.1
6/22/2022 4:00:00 PM 27.84 82.112 0.411 8.42 2.96 9.02
6/22/2022 4:15:00 PM 28.01 82.418 0.411 8.4 3.8 9
6/22/2022 4:30:00 PM 28.21 82.778 0.41 8.41 3.34 8.93
6/22/2022 4:45:00 PM 28.27 82.886 0.411 8.42 2.95 8.66
6/22/2022 5:00:00 PM 28.21 82.778 0.41 8.35 3.16 8.35
6/22/2022 5:15:00 PM 28.43 83.174 0.41 8.43 3 8.44
6/22/2022 5:30:00 PM 28.44 83.192 0.41 8.43 3.45 8.44
6/22/2022 5:45:00 PM 28.48 83.264 0.41 8.43 3.26 8.18
6/22/2022 6:00:00 PM 28.54 83.372 0.41 8.46 3.04 8.18
6/22/2022 6:15:00 PM 28.5 83.3 0.41 8.48 4.24 7.99
6/22/2022 6:30:00 PM 28.46 83.228 0.411 8.46 3.41 7.76
6/22/2022 6:45:00 PM 28.65 83.57 0.411 8.54 3.39 7.88
6/22/2022 7:00:00 PM 28.5 83.3 0.412 8.53 3.39 7.64
6/22/2022 7:15:00 PM 28.43 83.174 0.413 8.54 3.51 7.81
6/22/2022 7:30:00 PM 28.25 82.85 0.415 8.51 3.42 7.59
6/22/2022 7:45:00 PM 28.02 82.436 0.415 8.46 3.31 7.29
6/22/2022 8:00:00 PM 27.78 82.004 0.417 8.39 3.66 7.19
6/22/2022 8:15:00 PM 27.58 81.644 0.418 8.34 3.58 6.91
6/22/2022 8:30:00 PM 27.35 81.23 0.419 8.25 3.94 6.54
6/22/2022 8:45:00 PM 27.11 80.798 0.421 8.19 3.73 6.6
6/22/2022 9:00:00 PM 26.85 80.33 0.422 8.11 3.71 6.39
6/22/2022 9:15:00 PM 26.63 79.934 0.423 8.06 3.76 6.36
6/22/2022 9:30:00 PM 26.45 79.61 0.424 8.02 3.62 6.18
6/22/2022 9:45:00 PM 26.24 79.232 0.425 7.98 4.17 6.19
6/22/2022 10:00:00 PM 26.05 78.89 0.425 7.95 3.47 6.13
6/22/2022 10:15:00 PM 25.89 78.602 0.426 7.9 4.05 6.02
6/22/2022 10:30:00 PM 25.72 78.296 0.427 7.87 3.53 5.96
6/22/2022 10:45:00 PM 25.59 78.062 0.427 7.85 3.81 5.78
6/22/2022 11:00:00 PM 25.45 77.81 0.428 7.82 3.41 5.82
6/22/2022 11:15:00 PM 25.33 77.594 0.429 7.8 3.39 5.79
6/22/2022 11:30:00 PM 25.23 77.414 0.429 7.78 3.46 5.69
6/22/2022 11:45:00 PM 25.09 77.162 0.429 7.77 3.49 5.66
6/23/2022 12:00:00 AM 24.98 76.964 0.43 7.76 3.58 5.72
6/23/2022 12:15:00 AM 24.86 76.748 0.43 7.74 4.36 5.7
6/23/2022 12:30:00 AM 24.75 76.55 0.431 7.74 3.52 5.69
6/23/2022 12:45:00 AM 24.64 76.352 0.431 7.73 3.38 5.71
6/23/2022 1:00:00 AM 24.53 76.154 0.431 7.72 3.32 5.66
6/23/2022 1:15:00 AM 24.44 75.992 0.431 7.72 3.37 5.7
6/23/2022 1:30:00 AM 24.33 75.794 0.432 7.72 3.5 5.75
6/23/2022 1:45:00 AM 24.21 75.578 0.432 7.72 3.57 5.73
6/23/2022 2:00:00 AM 24.11 75.398 0.433 7.71 3.56 5.77
6/23/2022 2:15:00 AM 24.01 75.218 0.433 7.71 3.52 5.79
6/23/2022 2:30:00 AM 23.92 75.056 0.433 7.71 3.57 5.74
6/23/2022 2:45:00 AM 23.83 74.894 0.434 7.71 3.88 5.86
6/23/2022 3:00:00 AM 23.74 74.732 0.434 7.7 3.75 5.78
6/23/2022 3:15:00 AM 23.66 74.588 0.434 7.7 3.56 5.86
6/23/2022 3:30:00 AM 23.59 74.462 0.435 7.7 3.72 5.84
6/23/2022 3:45:00 AM 23.51 74.318 0.435 7.7 3.68 5.87
6/23/2022 4:00:00 AM 23.45 74.21 0.435 7.7 3.59 5.89
6/23/2022 4:15:00 AM 23.38 74.084 0.436 7.71 3.66 5.95
6/23/2022 4:30:00 AM 23.31 73.958 0.436 7.7 4.42 5.85
6/23/2022 4:45:00 AM 23.23 73.814 0.436 7.7 4.26 5.92
6/23/2022 5:00:00 AM 23.15 73.67 0.436 7.71 3.63 6.04
6/23/2022 5:15:00 AM 23.08 73.544 0.437 7.7 3.92 6.03
6/23/2022 5:30:00 AM 22.99 73.382 0.437 7.7 3.85 6.08
6/23/2022 5:45:00 AM 22.9 73.22 0.437 7.7 4.48 6.07
6/23/2022 6:00:00 AM 22.84 73.112 0.437 7.69 3.99 6.16
6/23/2022 6:15:00 AM 22.79 73.022 0.437 7.71 3.99 6.23
6/23/2022 6:30:00 AM 22.75 72.95 0.437 7.7 3.88 6.21
6/23/2022 6:45:00 AM 22.69 72.842 0.437 7.72 3.82 6.31
6/23/2022 7:00:00 AM 22.64 72.752 0.437 7.72 3.92 6.42
6/23/2022 7:15:00 AM 22.6 72.68 0.437 7.74 3.74 6.5
6/23/2022 7:30:00 AM 22.57 72.626 0.437 7.74 4.12 6.53
6/23/2022 7:45:00 AM 22.53 72.554 0.437 7.75 4.5 6.64
6/23/2022 8:00:00 AM 22.52 72.536 0.437 7.77 3.82 6.8
6/23/2022 8:15:00 AM 22.52 72.536 0.437 7.81 4.16 7.08
6/23/2022 8:30:00 AM 22.53 72.554 0.437 7.83 4.07 7.27
6/23/2022 8:45:00 AM 22.67 72.806 0.437 7.87 4.03 7.49
6/23/2022 9:00:00 AM 22.74 72.932 0.437 7.89 4.16 7.63
6/23/2022 9:15:00 AM 22.84 73.112 0.437 7.93 4.29 7.87
6/23/2022 9:30:00 AM 23.04 73.472 0.436 7.97 3.88 8.23
6/23/2022 9:45:00 AM 23.2 73.76 0.436 8.04 3.82 8.54
6/23/2022 10:00:00 AM 23.35 74.03 0.435 8.08 5.08 8.78
6/23/2022 10:15:00 AM 23.57 74.426 0.435 8.12 4.34 8.98
6/23/2022 10:30:00 AM 23.89 75.002 0.434 8.18 3.88 9.2
6/23/2022 10:45:00 AM 23.97 75.146 0.434 8.19 4.54 9.17
6/23/2022 11:00:00 AM 24.01 75.218 0.434 8.2 4.26 9.19
6/23/2022 11:15:00 AM 24.56 76.208 0.433 8.3 3.98 9.59
6/23/2022 11:30:00 AM 24.83 76.694 0.432 8.36 4.17 9.83
6/23/2022 11:45:00 AM 25.04 77.07201 0.431 8.39 4.47 9.9
6/23/2022 12:00:00 PM 25.49 77.882 0.43 8.43 4.96 10
6/23/2022 12:15:00 PM 25.49 77.882 0.43 8.45 4.39 10
6/23/2022 12:30:00 PM 25.69 78.242 0.429 8.49 3.97 10.02
6/23/2022 12:45:00 PM 26.03 78.854 0.428 8.54 3.91 10.29
6/23/2022 1:00:00 PM 26.48 79.664 0.427 8.6 4.18 10.53
6/23/2022 1:15:00 PM 26.82 80.276 0.426 8.62 3.97 10.52
6/23/2022 1:30:00 PM 26.95 80.51 0.424 8.66 4.36 10.5
6/23/2022 1:45:00 PM 27.45 81.41 0.424 8.68 3.82 10.6
6/23/2022 2:00:00 PM 27.33 81.194 0.423 8.66 3.65 10.35
6/23/2022 2:15:00 PM 27.7 81.86 0.422 8.72 3.61 10.53
6/23/2022 2:30:00 PM 27.95 82.31 0.422 8.69 3.76 10.55
6/23/2022 2:45:00 PM 28.22 82.796 0.421 8.71 3.44 10.4
6/23/2022 3:00:00 PM 28.18 82.724 0.421 8.7 3.53 10.17
6/23/2022 3:15:00 PM 28.22 82.796 0.421 8.7 3.8 10.06
6/23/2022 3:30:00 PM 28.56 83.408 0.42 8.72 4 10.14
6/23/2022 3:45:00 PM 28.48 83.264 0.419 8.72 3.37 10.21
6/23/2022 4:00:00 PM 28.5 83.3 0.419 8.75 3.59 10.15
6/23/2022 4:15:00 PM 28.61 83.498 0.419 8.75 3.46 10.1
6/23/2022 4:30:00 PM 28.58 83.444 0.418 8.74 8.34 10.05
6/23/2022 4:45:00 PM 28.66 83.588 0.418 8.73 24.14 9.99
6/23/2022 5:00:00 PM 28.62 83.51601 0.418 8.73 3.34 9.78
6/23/2022 5:15:00 PM 28.47 83.24599 0.418 8.73 3.36 9.65
6/23/2022 5:30:00 PM 28.38 83.084 0.418 8.73 3.66 9.69
6/23/2022 5:45:00 PM 28.24 82.832 0.418 8.72 3.43 9.46
6/23/2022 6:00:00 PM 28.13 82.634 0.418 8.73 3.63 9.46
6/23/2022 6:15:00 PM 28.04 82.472 0.418 8.71 4.03 9.32
6/23/2022 6:30:00 PM 27.81 82.058 0.418 8.68 3.46 9.1
6/23/2022 6:45:00 PM 27.59 81.662 0.418 8.66 3.3 8.99
6/23/2022 7:00:00 PM 27.42 81.356 0.418 8.64 3.45 8.93
6/23/2022 7:15:00 PM 27.22 80.996 0.418 8.63 3.58 8.84
6/23/2022 7:30:00 PM 27.1 80.78 0.418 8.62 3.22 8.74
6/23/2022 7:45:00 PM 26.92 80.456 0.418 8.6 3.29 8.63
6/23/2022 8:00:00 PM 26.77 80.186 0.419 8.56 3.62 8.54
6/23/2022 8:15:00 PM 26.58 79.844 0.419 8.55 3.58 8.42
6/23/2022 8:30:00 PM 26.35 79.43 0.42 8.49 3.88 8.13
6/23/2022 8:45:00 PM 26.16 79.088 0.421 8.44 3.32 7.95
6/23/2022 9:00:00 PM 25.93 78.674 0.422 8.37 3.39 7.72
6/23/2022 9:15:00 PM 25.7 78.26 0.423 8.3 3.84 7.51
6/23/2022 9:30:00 PM 25.46 77.828 0.423 8.22 3.61 7.32
6/23/2022 9:45:00 PM 25.27 77.486 0.424 8.14 3.56 7.02
6/23/2022 10:00:00 PM 25.1 77.18 0.425 8.08 3.6 6.85
6/23/2022 10:15:00 PM 24.92 76.856 0.425 7.99 3.8 6.6
6/23/2022 10:30:00 PM 24.76 76.568 0.426 7.95 3.87 6.49
6/23/2022 10:45:00 PM 24.6 76.28 0.426 7.92 3.48 6.39
6/23/2022 11:00:00 PM 24.44 75.992 0.426 7.88 3.94 6.3
6/23/2022 11:15:00 PM 24.28 75.704 0.427 7.86 3.69 6.22
6/23/2022 11:30:00 PM 24.13 75.434 0.427 7.83 3.51 6.18
6/23/2022 11:45:00 PM 23.96 75.128 0.427 7.81 3.71 6.15
6/24/2022 12:00:00 AM 23.81 74.858 0.428 7.78 3.42 6.14
6/24/2022 12:15:00 AM 23.69 74.642 0.428 7.78 3.64 6.07
6/24/2022 12:30:00 AM 23.53 74.354 0.428 7.76 3.63 6.07
6/24/2022 12:45:00 AM 23.37 74.066 0.428 7.76 3.45 6.07
6/24/2022 1:00:00 AM 23.23 73.814 0.428 7.74 3.79 6.08
6/24/2022 1:15:00 AM 23.08 73.544 0.428 7.74 3.49 6.09
6/24/2022 1:30:00 AM 22.93 73.274 0.428 7.73 3.43 6.11
6/24/2022 1:45:00 AM 22.79 73.022 0.428 7.73 3.53 6.12
6/24/2022 2:00:00 AM 22.67 72.806 0.429 7.72 3.66 6.1
6/24/2022 2:15:00 AM 22.53 72.554 0.429 7.72 3.68 6.15
6/24/2022 2:30:00 AM 22.42 72.356 0.429 7.72 3.42 6.14
6/24/2022 2:45:00 AM 22.27 72.086 0.429 7.71 3.5 6.19
6/24/2022 3:00:00 AM 22.14 71.852 0.429 7.71 3.71 6.21
6/24/2022 3:15:00 AM 22.03 71.654 0.429 7.71 3.85 6.21
6/24/2022 3:30:00 AM 21.93 71.474 0.429 7.71 3.61 6.19
6/24/2022 3:45:00 AM 21.86 71.348 0.429 7.7 3.44 6.21
6/24/2022 4:00:00 AM 21.78 71.204 0.43 7.7 3.67 6.26
6/24/2022 4:15:00 AM 21.72 71.096 0.43 7.7 3.33 6.25
6/24/2022 4:30:00 AM 21.64 70.952 0.43 7.7 3.53 6.27
6/24/2022 4:45:00 AM 21.57 70.826 0.43 7.7 3.7 6.32
6/24/2022 5:00:00 AM 21.51 70.718 0.43 7.7 4.11 6.32
6/24/2022 5:15:00 AM 21.46 70.628 0.431 7.7 3.68 6.31
6/24/2022 5:30:00 AM 21.43 70.574 0.431 7.7 3.62 6.32
6/24/2022 5:45:00 AM 21.38 70.484 0.431 7.7 3.56 6.37
6/24/2022 6:00:00 AM 21.35 70.43 0.431 7.7 3.33 6.36
6/24/2022 6:15:00 AM 21.32 70.376 0.432 7.7 3.58 6.44
6/24/2022 6:30:00 AM 21.32 70.376 0.432 7.71 3.49 6.47
6/24/2022 6:45:00 AM 21.32 70.376 0.432 7.72 3.62 6.52
6/24/2022 7:00:00 AM 21.29 70.32201 0.432 7.73 3.8 6.66
6/24/2022 7:15:00 AM 21.3 70.34 0.433 7.74 3.46 6.76
6/24/2022 7:30:00 AM 21.3 70.34 0.433 7.76 3.43 6.76
6/24/2022 7:45:00 AM 21.31 70.358 0.433 7.77 3.67 6.98
6/24/2022 8:00:00 AM 21.35 70.43 0.433 7.78 3.74 6.89
6/24/2022 8:15:00 AM 21.37 70.466 0.433 7.81 3.47 7.34
6/24/2022 8:30:00 AM 21.44 70.592 0.433 7.84 3.56 7.59
6/24/2022 8:45:00 AM 21.52 70.736 0.433 7.88 3.43 7.81
6/24/2022 9:00:00 AM 21.6 70.88 0.433 7.91 3.84 8.04
6/24/2022 9:15:00 AM 21.74 71.132 0.433 7.94 3.74 8.19
6/24/2022 9:30:00 AM 21.94 71.492 0.432 7.97 3.61 8.46
6/24/2022 9:45:00 AM 22.09 71.762 0.432 8.02 3.6 8.71
6/24/2022 10:00:00 AM 22.3 72.14 0.432 8.07 4.48 8.99
6/24/2022 10:15:00 AM 22.62 72.716 0.431 8.12 4.3 9.23
6/24/2022 10:30:00 AM 22.9 73.22 0.431 8.15 3.45 9.28
6/24/2022 10:45:00 AM 23.2 73.76 0.431 8.2 3.7 9.59
6/24/2022 11:00:00 AM 23.51 74.318 0.43 8.22 3.69 9.7
6/24/2022 11:15:00 AM 23.81 74.858 0.43 8.25 3.83 9.72
6/24/2022 11:30:00 AM 24.04 75.272 0.429 8.28 3.52 9.87
6/24/2022 11:45:00 AM 24.4 75.92 0.429 8.28 3.36 9.81
6/24/2022 12:00:00 PM 24.55 76.19 0.428 8.33 3.66 9.85
6/24/2022 12:15:00 PM 24.97 76.946 0.427 8.35 4.54 10.01
6/24/2022 12:30:00 PM 25.36 77.648 0.427 8.37 3.75 10
6/24/2022 12:45:00 PM 25.32 77.576 0.426 8.22 3.56 9.5
6/24/2022 1:00:00 PM 25.36 77.648 0.426 8.18 3.54 9.32
6/24/2022 1:15:00 PM 25.51 77.918 0.425 8.16 2.74 9.2
6/24/2022 1:30:00 PM 25.55 77.99 0.425 8.15 2.81 9.02
6/24/2022 1:45:00 PM 25.58 78.044 0.424 8.13 3.28 8.81
6/24/2022 2:00:00 PM 25.85 78.53 0.423 8.17 2.59 8.89
6/24/2022 2:15:00 PM 26.32 79.376 0.422 8.21 2.78 8.99
6/24/2022 2:30:00 PM 26.58 79.844 0.421 8.24 2.61 8.95
6/24/2022 2:45:00 PM 26.79 80.222 0.42 8.25 2.62 9.04
6/24/2022 3:00:00 PM 26.95 80.51 0.419 8.24 2.81 8.87
6/24/2022 3:15:00 PM 27.16 80.888 0.418 8.27 2.72 8.86
6/24/2022 3:30:00 PM 27.24 81.032 0.418 8.26 2.93 8.72
6/24/2022 3:45:00 PM 27.47 81.446 0.417 8.29 3.46 8.67
6/24/2022 4:00:00 PM 27.74 81.932 0.416 8.32 2.92 8.73
6/24/2022 4:15:00 PM 27.68 81.824 0.416 8.3 2.78 8.59
6/24/2022 4:30:00 PM 27.79 82.022 0.415 8.29 2.82 8.43
6/24/2022 4:45:00 PM 27.93 82.274 0.415 8.3 7.88 8.46
6/24/2022 5:00:00 PM 27.94 82.292 0.415 8.28 3.53 8.38
6/24/2022 5:15:00 PM 28.02 82.436 0.414 8.34 2.93 8.29
6/24/2022 5:30:00 PM 27.97 82.346 0.414 8.29 2.81 8.15
6/24/2022 5:45:00 PM 27.94 82.292 0.415 8.23 8.59 7.84
6/24/2022 6:00:00 PM 27.88 82.184 0.415 8.24 2.79 7.83
6/24/2022 6:15:00 PM 27.93 82.274 0.415 8.27 2.73 7.78
6/24/2022 6:30:00 PM 27.95 82.31 0.415 8.28 7.77 7.66
6/24/2022 6:45:00 PM 28.05 82.49 0.415 8.36 3.52 7.77
6/24/2022 7:00:00 PM 27.96 82.328 0.415 8.39 3.04 7.75
6/24/2022 7:15:00 PM 28.06 82.508 0.414 8.55 3.31 8.2
6/24/2022 7:30:00 PM 27.96 82.328 0.415 8.59 3.18 8.16
6/24/2022 7:45:00 PM 27.87 82.166 0.415 8.61 3.28 8.36
6/24/2022 8:00:00 PM 27.67 81.806 0.416 8.58 3.75 8.11
6/24/2022 8:15:00 PM 27.42 81.356 0.417 8.55 3.04 7.99
6/24/2022 8:30:00 PM 27.16 80.888 0.418 8.49 3.16 7.83
6/24/2022 8:45:00 PM 26.93 80.474 0.42 8.46 3.33 7.74
6/24/2022 9:00:00 PM 26.64 79.952 0.421 8.38 3.05 7.45
6/24/2022 9:15:00 PM 26.39 79.502 0.423 8.32 3.9 7.38
6/24/2022 9:30:00 PM 26.16 79.088 0.424 8.25 3.9 7.19
6/24/2022 9:45:00 PM 25.88 78.584 0.426 8.17 3.1 6.9
6/24/2022 10:00:00 PM 25.65 78.17 0.427 8.12 3.12 6.79
6/24/2022 10:15:00 PM 25.42 77.756 0.428 8.06 3.03 6.58
6/24/2022 10:30:00 PM 25.18 77.324 0.429 7.99 3.25 6.4
6/24/2022 10:45:00 PM 24.96 76.92799 0.43 7.94 3.1 6.31
6/24/2022 11:00:00 PM 24.75 76.55 0.43 7.9 3.09 6.2
6/24/2022 11:15:00 PM 24.54 76.172 0.431 7.87 3.07 6.15
6/24/2022 11:30:00 PM 24.35 75.83 0.432 7.84 3.1 6.06
6/24/2022 11:45:00 PM 24.16 75.488 0.432 7.82 3.05 6.06
6/25/2022 12:00:00 AM 23.97 75.146 0.433 7.8 3.4 5.97
6/25/2022 12:15:00 AM 23.8 74.84 0.433 7.78 3.39 5.98
6/25/2022 12:30:00 AM 23.63 74.534 0.433 7.76 3.49 5.97
6/25/2022 12:45:00 AM 23.45 74.21 0.434 7.76 3.25 5.96
6/25/2022 1:00:00 AM 23.29 73.922 0.434 7.74 3.39 5.95
6/25/2022 1:15:00 AM 23.14 73.652 0.434 7.73 3.39 5.93
6/25/2022 1:30:00 AM 22.97 73.346 0.435 7.73 3.07 5.94
6/25/2022 1:45:00 AM 22.83 73.094 0.435 7.72 3.42 5.96
6/25/2022 2:00:00 AM 22.69 72.842 0.435 7.71 3.39 5.94
6/25/2022 2:15:00 AM 22.53 72.554 0.435 7.7 3.35 6.01
6/25/2022 2:30:00 AM 22.4 72.32 0.436 7.7 3.28 6.01
6/25/2022 2:45:00 AM 22.27 72.086 0.436 7.69 3.55 5.99
6/25/2022 3:00:00 AM 22.12 71.816 0.436 7.7 3.42 6.03
6/25/2022 3:15:00 AM 21.98 71.564 0.436 7.68 3.43 6.07
6/25/2022 3:30:00 AM 21.86 71.348 0.437 7.7 3.39 6.08
6/25/2022 3:45:00 AM 21.74 71.132 0.437 7.69 3.12 6.07
6/25/2022 4:00:00 AM 21.64 70.952 0.437 7.68 3.34 6.07
6/25/2022 4:15:00 AM 21.55 70.79 0.437 7.68 3.18 6.03
6/25/2022 4:30:00 AM 21.36 70.448 0.437 7.68 3.25 6.14
6/25/2022 4:45:00 AM 21.25 70.25 0.437 7.68 3.25 6.17
6/25/2022 5:00:00 AM 21.14 70.052 0.437 7.68 4.06 6.2
6/25/2022 5:15:00 AM 21.02 69.836 0.438 7.68 3.5 6.21
6/25/2022 5:30:00 AM 20.94 69.692 0.438 7.67 3.4 6.21
6/25/2022 5:45:00 AM 20.82 69.476 0.438 7.67 3.4 6.21
6/25/2022 6:00:00 AM 20.74 69.332 0.438 7.68 3.69 6.32
6/25/2022 6:15:00 AM 20.63 69.134 0.438 7.69 3.23 6.41
6/25/2022 6:30:00 AM 20.54 68.972 0.438 7.7 3.98 6.5
6/25/2022 6:45:00 AM 20.49 68.882 0.438 7.69 3.2 6.52
6/25/2022 7:00:00 AM 20.45 68.81 0.438 7.71 3.26 6.65
6/25/2022 7:15:00 AM 20.37 68.666 0.438 7.71 3.26 6.79
6/25/2022 7:30:00 AM 20.34 68.612 0.438 7.74 3.42 6.91
6/25/2022 7:45:00 AM 20.34 68.612 0.438 7.74 3.25 7.02
6/25/2022 8:00:00 AM 20.33 68.594 0.438 7.75 3.17 7.11
6/25/2022 8:15:00 AM 20.33 68.594 0.438 7.78 3.57 7.34
6/25/2022 8:30:00 AM 20.37 68.666 0.438 7.78 3.59 7.42
6/25/2022 8:45:00 AM 20.38 68.684 0.438 7.81 3.64 7.62
6/25/2022 9:00:00 AM 20.48 68.864 0.438 7.84 3.9 7.78
6/25/2022 9:15:00 AM 20.65 69.17 0.437 7.86 3.38 7.93
6/25/2022 9:30:00 AM 20.85 69.53 0.437 7.89 3.11 8.19
6/25/2022 9:45:00 AM 21.08 69.944 0.437 7.93 3.27 8.48
6/25/2022 10:00:00 AM 21.3 70.34 0.436 7.98 3.57 8.73
6/25/2022 10:15:00 AM 21.55 70.79 0.436 8 3.43 8.84
6/25/2022 10:30:00 AM 21.9 71.42 0.436 8.02 3.52 8.99
6/25/2022 10:45:00 AM 22.24 72.032 0.436 8.06 3.48 9.19
6/25/2022 11:00:00 AM 22.68 72.824 0.435 8.11 3.3 9.41
6/25/2022 11:15:00 AM 23.17 73.706 0.434 8.14 3.55 9.54
6/25/2022 11:30:00 AM 23.56 74.408 0.434 8.19 3.39 9.62
6/25/2022 11:45:00 AM 23.99 75.182 0.433 8.19 9.09 9.75
6/25/2022 12:00:00 PM 24.09 75.362 0.433 8.1 3.19 9.28
6/25/2022 12:15:00 PM 24.13 75.434 0.433 8.04 3.23 8.92
6/25/2022 12:30:00 PM 24.2 75.56 0.433 7.96 2.99 8.53
6/25/2022 12:45:00 PM 24.39 75.902 0.432 7.95 3.7 8.56
6/25/2022 1:00:00 PM 24.79 76.622 0.431 7.99 2.71 8.62
6/25/2022 1:15:00 PM 25.01 77.018 0.43 8.02 2.74 8.73
6/25/2022 1:30:00 PM 25.25 77.45 0.43 8.05 2.72 8.72
6/25/2022 1:45:00 PM 25.54 77.972 0.429 8.06 3.02 8.75
6/25/2022 2:00:00 PM 25.96 78.728 0.428 8.12 2.55 8.86
6/25/2022 2:15:00 PM 26.18 79.124 0.427 8.14 2.6 8.81
6/25/2022 2:30:00 PM 26.47 79.646 0.426 8.17 2.39 8.77
6/25/2022 2:45:00 PM 26.81 80.258 0.425 8.18 2.94 8.88
6/25/2022 3:00:00 PM 26.92 80.456 0.424 8.19 2.81 8.67
6/25/2022 3:15:00 PM 27.24 81.032 0.423 8.21 2.76 8.72
6/25/2022 3:30:00 PM 27.46 81.42799 0.422 8.24 2.68 8.69
6/25/2022 3:45:00 PM 27.7 81.86 0.421 8.22 6.94 8.55
6/25/2022 4:00:00 PM 27.86 82.148 0.42 8.24 3.29 8.62
6/25/2022 4:15:00 PM 28.04 82.472 0.42 8.23 2.7 8.49
6/25/2022 4:30:00 PM 28.05 82.49 0.419 8.21 10.71 8.23
6/25/2022 4:45:00 PM 28.22 82.796 0.419 8.21 4.2 8.22
6/25/2022 5:00:00 PM 28.31 82.958 0.419 8.22 2.75 8.23
6/25/2022 5:15:00 PM 28.42 83.156 0.419 8.22 3.7 8.06
6/25/2022 5:30:00 PM 28.39 83.102 0.418 8.18 3.9 7.84
6/25/2022 5:45:00 PM 28.44 83.192 0.418 8.16 8.27 7.84
6/25/2022 6:00:00 PM 28.47 83.24599 0.418 8.16 3.64 7.69
6/25/2022 6:15:00 PM 28.48 83.264 0.418 8.16 2.97 7.55
6/25/2022 6:30:00 PM 28.37 83.066 0.418 8.11 3.13 7.34
6/25/2022 6:45:00 PM 28.37 83.066 0.418 8.11 2.96 7.18
6/25/2022 7:00:00 PM 28.32 82.976 0.419 8.05 2.88 6.98
6/25/2022 7:15:00 PM 28.19 82.742 0.405 8.03 2.55 6.81
6/25/2022 7:30:00 PM 28.14 82.652 0.42 8.04 2.78 6.69
6/25/2022 7:45:00 PM 28.06 82.508 0.42 8.01 48.07 6.55
6/25/2022 8:00:00 PM 27.97 82.346 0.421 8.01 2.67 6.46
6/25/2022 8:15:00 PM 27.85 82.13 0.41 7.98 2.51 6.29
6/25/2022 8:30:00 PM 27.76 81.968 0.421 7.98 3.31 6.21
6/25/2022 8:45:00 PM 27.67 81.806 0.422 7.97 109.12 6.09
6/25/2022 9:00:00 PM 27.6 81.68 0.422 7.99 3.09 6.13
6/25/2022 9:15:00 PM 27.52 81.536 0.422 8.08 4.05 6.25
6/25/2022 9:30:00 PM 27.49 81.482 0.423 8.21 4.77 6.69
6/25/2022 9:45:00 PM 27.29 81.122 0.425 8.21 4.02 6.68
6/25/2022 10:00:00 PM 27.02 80.636 0.426 8.17 60.86 6.56
6/25/2022 10:15:00 PM 26.75 80.15 0.427 8.1 4.44 6.4
6/25/2022 10:30:00 PM 26.47 79.646 0.429 8.02 4.22 6.21
6/25/2022 10:45:00 PM 26.22 79.196 0.43 7.97 3.72 6.07
6/25/2022 11:00:00 PM 25.98 78.764 0.431 7.91 3.94 5.92
6/25/2022 11:15:00 PM 25.76 78.368 0.432 7.87 3.56 5.78
6/25/2022 11:30:00 PM 25.54 77.972 0.433 7.83 3.89 5.75
6/25/2022 11:45:00 PM 25.33 77.594 0.433 7.79 4.32 5.64
6/26/2022 12:00:00 AM 25.13 77.234 0.434 7.77 3.78 5.61
6/26/2022 12:15:00 AM 24.94 76.892 0.435 7.75 3.81 5.57
6/26/2022 12:30:00 AM 24.77 76.586 0.435 7.74 3.69 5.52
6/26/2022 12:45:00 AM 24.6 76.28 0.435 7.72 4.73 5.5
6/26/2022 1:00:00 AM 24.44 75.992 0.436 7.71 3.58 5.45
6/26/2022 1:15:00 AM 24.28 75.704 0.436 7.7 3.53 5.48
6/26/2022 1:30:00 AM 24.14 75.452 0.436 7.69 3.84 5.43
6/26/2022 1:45:00 AM 23.98 75.164 0.436 7.68 3.98 5.45
6/26/2022 2:00:00 AM 23.85 74.93 0.437 7.68 3.6 5.46
6/26/2022 2:15:00 AM 23.7 74.66 0.437 7.67 3.42 5.5
6/26/2022 2:30:00 AM 23.59 74.462 0.437 7.66 3.59 5.43
6/26/2022 2:45:00 AM 23.47 74.246 0.437 7.66 3.29 5.46
6/26/2022 3:00:00 AM 23.32 73.976 0.437 7.66 3.8 5.49
6/26/2022 3:15:00 AM 23.22 73.796 0.437 7.65 35.06 5.47
6/26/2022 3:30:00 AM 23.09 73.562 0.437 7.65 3.45 5.51
6/26/2022 3:45:00 AM 22.98 73.364 0.438 7.65 157.88 5.55
6/26/2022 4:00:00 AM 22.84 73.112 0.438 7.65 41.93 5.59
6/26/2022 4:15:00 AM 22.76 72.968 0.425 7.64 210.12 5.55
6/26/2022 4:30:00 AM 22.64 72.752 0.438 7.64 3.58 5.58
6/26/2022 4:45:00 AM 22.54 72.57201 0.438 7.63 5.84 5.58
6/26/2022 5:00:00 AM 22.41 72.338 0.436 7.64 4.2 5.62
6/26/2022 5:15:00 AM 22.31 72.158 0.438 7.64 3.41 5.61
6/26/2022 5:30:00 AM 22.22 71.996 0.439 7.64 4.08 5.62
6/26/2022 5:45:00 AM 22.11 71.798 0.439 7.64 3.63 5.68
6/26/2022 6:00:00 AM 22.03 71.654 0.439 7.64 4.25 5.74
6/26/2022 6:15:00 AM 21.96 71.528 0.44 7.64 11.16 5.73
6/26/2022 6:30:00 AM 21.85 71.33 0.438 7.65 3.99 5.92
6/26/2022 6:45:00 AM 21.79 71.222 0.44 7.66 4.75 6.06
6/26/2022 7:00:00 AM 21.75 71.15 0.44 7.67 3.63 6.11
6/26/2022 7:15:00 AM 21.71 71.078 0.438 7.67 5.11 6.11
6/26/2022 7:30:00 AM 21.65 70.97 0.44 7.69 3.92 6.33
6/26/2022 7:45:00 AM 21.67 71.006 0.441 7.7 3.52 6.45
6/26/2022 8:00:00 AM 21.65 70.97 0.441 7.72 4.09 6.61
6/26/2022 8:15:00 AM 21.66 70.988 0.441 7.73 3.81 6.76
6/26/2022 8:30:00 AM 21.68 71.024 0.441 7.76 3.47 6.93
6/26/2022 8:45:00 AM 21.77 71.186 0.441 7.79 3.85 7.2
6/26/2022 9:00:00 AM 21.93 71.474 0.441 7.81 3.85 7.4
6/26/2022 9:15:00 AM 22.07 71.726 0.441 7.83 3.51 7.47
6/26/2022 9:30:00 AM 22.23 72.014 0.441 7.86 3.6 7.81
6/26/2022 9:45:00 AM 22.43 72.374 0.441 7.91 3.94 8.09
6/26/2022 10:00:00 AM 22.66 72.788 0.44 7.97 3.47 8.41
6/26/2022 10:15:00 AM 22.86 73.148 0.44 7.98 3.92 8.52
6/26/2022 10:30:00 AM 23.13 73.634 0.44 8.03 6.48 8.78
6/26/2022 10:45:00 AM 23.41 74.138 0.44 8.07 4.69 8.99
6/26/2022 11:00:00 AM 23.81 74.858 0.439 8.13 3.79 9.23
6/26/2022 11:15:00 AM 24.16 75.488 0.439 8.13 5.27 9.23
6/26/2022 11:30:00 AM 24.45 76.01 0.437 8.11 3.14 9.29
6/26/2022 11:45:00 AM 24.63 76.334 0.439 8.06 4.23 8.93
6/26/2022 12:00:00 PM 24.83 76.694 0.438 7.99 3.23 8.73
6/26/2022 12:15:00 PM 24.88 76.784 0.438 7.94 3.91 8.39
6/26/2022 12:30:00 PM 25 77 0.438 7.94 4.81 8.27
6/26/2022 12:45:00 PM 25.2 77.36 0.429 7.93 3.31 8.25
6/26/2022 1:00:00 PM 25.47 77.846 0.436 7.94 3.15 8.23
6/26/2022 1:15:00 PM 25.65 78.17 0.436 7.98 2.83 8.25
6/26/2022 1:30:00 PM 25.98 78.764 0.436 7.98 4.83 8.27
6/26/2022 1:45:00 PM 26.16 79.088 0.435 7.99 2.94 8.28
6/26/2022 2:00:00 PM 26.27 79.286 0.434 8.01 3.11 8.43
6/26/2022 2:15:00 PM 26.38 79.484 0.433 8.03 5.55 8.29
6/26/2022 2:30:00 PM 26.29 79.32201 0.432 7.99 4.03 8.07
6/26/2022 2:45:00 PM 27.77 81.986 0.406 8.51 8.29 8.59
6/26/2022 3:00:00 PM 28.53 83.354 0.399 8.7 11.94 9.04
6/26/2022 3:15:00 PM 28.76 83.768 0.397 8.76 8.84 9.15
6/26/2022 3:30:00 PM 28.86 83.948 0.399 8.72 7 8.99
6/26/2022 3:45:00 PM 28.89 84.002 0.397 8.7 9.75 8.84
6/26/2022 4:00:00 PM 28.79 83.82201 0.395 8.62 23.02 8.36
6/26/2022 4:15:00 PM 28.73 83.714 0.39 8.57 21.13 8.01
6/26/2022 4:30:00 PM 28.42 83.156 0.384 8.56 20.05 8.18
6/26/2022 4:45:00 PM 28.37 83.066 0.385 8.6 15.37 8.44
6/26/2022 5:00:00 PM 28.42 83.156 0.39 8.61 16.3 8.51
6/26/2022 5:15:00 PM 28.46 83.228 0.396 8.61 11.95 8.49
6/26/2022 5:30:00 PM 28.44 83.192 0.401 8.57 10.11 8.33
6/26/2022 5:45:00 PM 28.37 83.066 0.403 8.56 9.42 8.36
6/26/2022 6:00:00 PM 28.25 82.85 0.404 8.55 9.44 8.35
6/26/2022 6:15:00 PM 28.05 82.49 0.404 8.54 7.82 8.37
6/26/2022 6:30:00 PM 27.87 82.166 0.405 8.52 7.47 8.36
6/26/2022 6:45:00 PM 27.68 81.824 0.406 8.5 6.84 8.22
6/26/2022 7:00:00 PM 27.54 81.57201 0.409 8.47 5.98 8.03
6/26/2022 7:15:00 PM 27.39 81.302 0.413 8.44 5.55 7.78
6/26/2022 7:30:00 PM 27.26 81.068 0.415 8.4 5.19 7.57
6/26/2022 7:45:00 PM 27.14 80.852 0.417 8.36 4.61 7.36
6/26/2022 8:00:00 PM 27.03 80.654 0.418 8.32 4.88 7.17
6/26/2022 8:15:00 PM 26.91 80.438 0.419 8.24 5.13 6.92
6/26/2022 8:30:00 PM 26.8 80.24 0.42 8.2 5.6 6.8
6/26/2022 8:45:00 PM 26.68 80.024 0.421 8.13 5.24 6.64
6/26/2022 9:00:00 PM 26.57 79.826 0.422 8.08 5.61 6.49
6/26/2022 9:15:00 PM 26.43 79.574 0.423 8.03 5.88 6.39
6/26/2022 9:30:00 PM 26.31 79.358 0.425 7.99 5.65 6.3
6/26/2022 9:45:00 PM 26.17 79.106 0.426 7.94 6.03 6.24
6/26/2022 10:00:00 PM 26.05 78.89 0.427 7.91 6.34 6.14
6/26/2022 10:15:00 PM 25.92 78.656 0.429 7.89 6.09 6.08
6/26/2022 10:30:00 PM 25.79 78.422 0.43 7.85 6.28 6.04
6/26/2022 10:45:00 PM 25.67 78.206 0.431 7.83 5.93 5.98
6/26/2022 11:00:00 PM 25.55 77.99 0.432 7.82 5.62 5.93
6/26/2022 11:15:00 PM 25.43 77.774 0.433 7.79 5.58 5.89
6/26/2022 11:30:00 PM 25.32 77.576 0.434 7.78 5.35 5.89
6/26/2022 11:45:00 PM 25.2 77.36 0.434 7.77 5.24 5.94
6/27/2022 12:00:00 AM 25.11 77.198 0.434 7.77 4.89 5.98
6/27/2022 12:15:00 AM 25 77 0.435 7.78 5.18 6.03
6/27/2022 12:30:00 AM 24.91 76.838 0.435 7.77 5.7 6.06
6/27/2022 12:45:00 AM 24.82 76.676 0.435 7.76 4.96 6.08
6/27/2022 1:00:00 AM 24.73 76.514 0.435 7.76 5.4 6.13
6/27/2022 1:15:00 AM 24.65 76.37 0.434 7.75 4.9 6.19
6/27/2022 1:30:00 AM 24.58 76.244 0.434 7.76 5 6.22
6/27/2022 1:45:00 AM 24.53 76.154 0.434 7.76 5.39 6.26
6/27/2022 2:00:00 AM 24.47 76.046 0.434 7.76 5.86 6.29
6/27/2022 2:15:00 AM 24.41 75.938 0.433 7.75 5.51 6.31
6/27/2022 2:30:00 AM 24.36 75.848 0.433 7.76 5.54 6.34
6/27/2022 2:45:00 AM 24.31 75.758 0.433 7.76 5.51 6.34
6/27/2022 3:00:00 AM 24.25 75.65 0.434 7.76 5.97 6.38
6/27/2022 3:15:00 AM 24.19 75.542 0.435 7.75 5.72 6.39
6/27/2022 3:30:00 AM 24.13 75.434 0.435 7.75 5.7 6.4
6/27/2022 3:45:00 AM 24.07 75.326 0.436 7.75 5.78 6.38
6/27/2022 4:00:00 AM 24.01 75.218 0.437 7.74 6.25 6.38
6/27/2022 4:15:00 AM 23.95 75.11 0.438 7.74 5.68 6.39
6/27/2022 4:30:00 AM 23.89 75.002 0.438 7.74 6.11 6.38
6/27/2022 4:45:00 AM 23.84 74.912 0.439 7.74 5.86 6.38
6/27/2022 5:00:00 AM 23.78 74.804 0.439 7.74 5.67 6.38
6/27/2022 5:15:00 AM 23.72 74.696 0.439 7.73 5.96 6.36
6/27/2022 5:30:00 AM 23.64 74.552 0.438 7.72 7.14 6.37
6/27/2022 5:45:00 AM 23.56 74.408 0.438 7.72 7.17 6.38
6/27/2022 6:00:00 AM 23.45 74.21 0.437 7.73 6.48 6.37
6/27/2022 6:15:00 AM 23.36 74.048 0.436 7.72 6.07 6.38
6/27/2022 6:30:00 AM 23.26 73.868 0.436 7.74 5.52 6.44
6/27/2022 6:45:00 AM 23.17 73.706 0.434 7.74 5.31 6.53
6/27/2022 7:00:00 AM 23.06 73.508 0.433 7.75 5.38 6.59
6/27/2022 7:15:00 AM 22.96 73.328 0.432 7.76 5.16 6.67
6/27/2022 7:30:00 AM 22.87 73.166 0.431 7.79 5.36 6.86
6/27/2022 7:45:00 AM 22.85 73.13 0.43 7.8 5.36 7.06
6/27/2022 8:00:00 AM 22.79 73.022 0.429 7.82 6.42 7.12
6/27/2022 8:15:00 AM 22.83 73.094 0.428 7.85 5.39 7.4
6/27/2022 8:30:00 AM 22.81 73.058 0.427 7.88 5.74 7.52
6/27/2022 8:45:00 AM 22.79 73.022 0.426 7.9 5.87 7.67
6/27/2022 9:00:00 AM 22.79 73.022 0.426 7.92 5.02 7.78
6/27/2022 9:15:00 AM 22.86 73.148 0.425 7.95 5.43 8.03
6/27/2022 9:30:00 AM 23 73.4 0.424 8.02 4.86 8.33
6/27/2022 9:45:00 AM 23.04 73.472 0.424 8.04 5.92 8.43
6/27/2022 10:00:00 AM 23.32 73.976 0.423 8.11 4.94 8.66
6/27/2022 10:15:00 AM 23.48 74.264 0.422 8.13 5.35 8.74